PWSweather.com
Personal Weather Stations
Station Observations
KMNHANSK2
Andys Live Weather Stations, Hanska, MN 56041

Andys Live Weather StationsHanska, MN 56041

Lat: 44.170119, Lon: -94.381619

Elevation: 1004

Station Type: Davis Instruments Vantage Pro2 Plus

http://www.madeliasliveweather.com/thompsonfarms/

High Low Average
Temperature 46.1°F7.8°C 36.2°F2.3°C 39.7°F4.3°C
Dew Point 45.0°F7.2°C 33.1°F0.6°C 36.0°F2.2°C
Winds 38.0 mph 61.2 kmh 3.0 mph 4.8 kmh 22.0 mph NW35.4 kmh NW
Wind Gusts 43.0 mph69.2 kmh 12.0 mph19.3 kmh 31.0 mph49.9 kmh
Humidity 96% 71% 87%
Pressure 30.15 in1021.0 mb 29.25 in990.5 mb -
Precipitation 0.08 in2.0 mm - -
Hour Temp Dew Point Humidity Winds Wind Gusts Pressure Precip Precip Rate Daily Precip Total
12:00 AM 46.1°F7.8°C 44.8°F7.1°C 95% 17.0 mph NW27.4 kmh NW 25.0 mph40.2 kmh 29.25 in990.5 mb 0.08 in2.0 mm 0.00 in/hr0.0 mm/hr 0.08 in2.0 mm
12:02 AM 46.1°F7.8°C 44.8°F7.1°C 95% 18.0 mph NW29.0 kmh NW 22.0 mph35.4 kmh 29.25 in990.5 mb 0.05 in1.3 mm 0.00 in/hr0.0 mm/hr 0.08 in2.0 mm
12:03 AM 46.1°F7.8°C 45.0°F7.2°C 96% 19.0 mph NW30.6 kmh NW 24.0 mph38.6 kmh 29.25 in990.5 mb 0.05 in1.3 mm 0.00 in/hr0.0 mm/hr 0.08 in2.0 mm
12:05 AM 46.1°F7.8°C 45.0°F7.2°C 96% 14.0 mph NW22.5 kmh NW 24.0 mph38.6 kmh 29.25 in990.5 mb 0.05 in1.3 mm 0.00 in/hr0.0 mm/hr 0.08 in2.0 mm
12:06 AM 46.1°F7.8°C 45.0°F7.2°C 96% 21.0 mph NW33.8 kmh NW 24.0 mph38.6 kmh 29.25 in990.5 mb 0.05 in1.3 mm 0.00 in/hr0.0 mm/hr 0.08 in2.0 mm
12:07 AM 46.0°F7.8°C 44.9°F7.2°C 96% 18.0 mph NW29.0 kmh NW 24.0 mph38.6 kmh 29.25 in990.5 mb 0.05 in1.3 mm 0.00 in/hr0.0 mm/hr 0.08 in2.0 mm
12:09 AM 46.0°F7.8°C 44.9°F7.2°C 96% 19.0 mph NW30.6 kmh NW 24.0 mph38.6 kmh 29.26 in990.9 mb 0.05 in1.3 mm 0.00 in/hr0.0 mm/hr 0.08 in2.0 mm
12:10 AM 46.0°F7.8°C 44.9°F7.2°C 96% 23.0 mph NW37.0 kmh NW 26.0 mph41.8 kmh 29.26 in990.9 mb 0.05 in1.3 mm 0.00 in/hr0.0 mm/hr 0.08 in2.0 mm
12:11 AM 46.0°F7.8°C 44.7°F7.1°C 95% 19.0 mph NW30.6 kmh NW 26.0 mph41.8 kmh 29.26 in990.9 mb 0.05 in1.3 mm 0.00 in/hr0.0 mm/hr 0.08 in2.0 mm
12:13 AM 46.0°F7.8°C 44.7°F7.1°C 95% 21.0 mph NW33.8 kmh NW 26.0 mph41.8 kmh 29.26 in990.9 mb 0.05 in1.3 mm 0.00 in/hr0.0 mm/hr 0.08 in2.0 mm
12:14 AM 46.0°F7.8°C 44.7°F7.1°C 95% 19.0 mph NW30.6 kmh NW 26.0 mph41.8 kmh 29.26 in990.9 mb 0.05 in1.3 mm 0.00 in/hr0.0 mm/hr 0.08 in2.0 mm
12:15 AM 46.0°F7.8°C 44.7°F7.1°C 95% 21.0 mph NW33.8 kmh NW 26.0 mph41.8 kmh 29.26 in990.9 mb 0.05 in1.3 mm 0.00 in/hr0.0 mm/hr 0.08 in2.0 mm
12:16 AM 46.0°F7.8°C 44.7°F7.1°C 95% 16.0 mph NW25.7 kmh NW 26.0 mph41.8 kmh 29.26 in990.9 mb 0.05 in1.3 mm 0.00 in/hr0.0 mm/hr 0.08 in2.0 mm
12:17 AM 46.0°F7.8°C 44.7°F7.1°C 95% 20.0 mph NW32.2 kmh NW 26.0 mph41.8 kmh 29.26 in990.9 mb 0.05 in1.3 mm 0.00 in/hr0.0 mm/hr 0.08 in2.0 mm
12:18 AM 46.0°F7.8°C 44.7°F7.1°C 95% 19.0 mph NW30.6 kmh NW 26.0 mph41.8 kmh 29.26 in990.9 mb 0.05 in1.3 mm 0.00 in/hr0.0 mm/hr 0.08 in2.0 mm
12:20 AM 46.0°F7.8°C 44.7°F7.1°C 95% 23.0 mph NW37.0 kmh NW 26.0 mph41.8 kmh 29.26 in990.9 mb 0.05 in1.3 mm 0.00 in/hr0.0 mm/hr 0.08 in2.0 mm
12:21 AM 46.0°F7.8°C 44.7°F7.1°C 95% 20.0 mph NW32.2 kmh NW 26.0 mph41.8 kmh 29.26 in990.9 mb 0.05 in1.3 mm 0.00 in/hr0.0 mm/hr 0.08 in2.0 mm
12:22 AM 46.0°F7.8°C 44.7°F7.1°C 95% 20.0 mph NW32.2 kmh NW 26.0 mph41.8 kmh 29.26 in990.9 mb 0.05 in1.3 mm 0.00 in/hr0.0 mm/hr 0.08 in2.0 mm
12:23 AM 46.0°F7.8°C 44.7°F7.1°C 95% 20.0 mph NW32.2 kmh NW 26.0 mph41.8 kmh 29.26 in990.9 mb 0.05 in1.3 mm 0.00 in/hr0.0 mm/hr 0.08 in2.0 mm
12:24 AM 46.0°F7.8°C 44.7°F7.1°C 95% 16.0 mph WNW25.7 kmh WNW 26.0 mph41.8 kmh 29.26 in990.9 mb 0.06 in1.5 mm 0.60 in/hr15.2 mm/hr 0.09 in2.3 mm
12:26 AM 46.0°F7.8°C 44.7°F7.1°C 95% 20.0 mph NW32.2 kmh NW 26.0 mph41.8 kmh 29.26 in990.9 mb 0.06 in1.5 mm 0.00 in/hr0.0 mm/hr 0.09 in2.3 mm
12:27 AM 46.0°F7.8°C 44.7°F7.1°C 95% 21.0 mph NW33.8 kmh NW 26.0 mph41.8 kmh 29.27 in991.2 mb 0.06 in1.5 mm 0.00 in/hr0.0 mm/hr 0.09 in2.3 mm
12:28 AM 46.0°F7.8°C 44.7°F7.1°C 95% 23.0 mph NW37.0 kmh NW 26.0 mph41.8 kmh 29.27 in991.2 mb 0.06 in1.5 mm 0.00 in/hr0.0 mm/hr 0.09 in2.3 mm
12:30 AM 45.9°F7.7°C 44.6°F7.0°C 95% 26.0 mph NW41.8 kmh NW 28.0 mph45.1 kmh 29.27 in991.2 mb 0.06 in1.5 mm 0.00 in/hr0.0 mm/hr 0.09 in2.3 mm
12:31 AM 45.9°F7.7°C 44.3°F6.8°C 94% 27.0 mph NW43.5 kmh NW 27.0 mph43.5 kmh 29.27 in991.2 mb 0.03 in0.8 mm 0.00 in/hr0.0 mm/hr 0.09 in2.3 mm
12:32 AM 45.9°F7.7°C 44.3°F6.8°C 94% 24.0 mph NW38.6 kmh NW 30.0 mph48.3 kmh 29.27 in991.2 mb 0.03 in0.8 mm 0.00 in/hr0.0 mm/hr 0.09 in2.3 mm
12:33 AM 45.8°F7.7°C 44.2°F6.8°C 94% 25.0 mph NW40.2 kmh NW 30.0 mph48.3 kmh 29.27 in991.2 mb 0.03 in0.8 mm 0.00 in/hr0.0 mm/hr 0.09 in2.3 mm
12:34 AM 45.8°F7.7°C 44.2°F6.8°C 94% 19.0 mph NW30.6 kmh NW 30.0 mph48.3 kmh 29.27 in991.2 mb 0.04 in1.0 mm 0.60 in/hr15.2 mm/hr 0.10 in2.5 mm
12:36 AM 45.8°F7.7°C 44.2°F6.8°C 94% 22.0 mph NW35.4 kmh NW 30.0 mph48.3 kmh 29.27 in991.2 mb 0.04 in1.0 mm 0.00 in/hr0.0 mm/hr 0.10 in2.5 mm
12:37 AM 45.8°F7.7°C 44.2°F6.8°C 94% 21.0 mph WNW33.8 kmh WNW 30.0 mph48.3 kmh 29.27 in991.2 mb 0.04 in1.0 mm 0.00 in/hr0.0 mm/hr 0.10 in2.5 mm
12:38 AM 45.7°F7.6°C 44.1°F6.7°C 94% 21.0 mph NW33.8 kmh NW 30.0 mph48.3 kmh 29.27 in991.2 mb 0.04 in1.0 mm 0.00 in/hr0.0 mm/hr 0.10 in2.5 mm
12:40 AM 45.7°F7.6°C 44.4°F6.9°C 95% 26.0 mph NW41.8 kmh NW 30.0 mph48.3 kmh 29.27 in991.2 mb 0.04 in1.0 mm 0.00 in/hr0.0 mm/hr 0.10 in2.5 mm
12:41 AM 45.7°F7.6°C 44.4°F6.9°C 95% 21.0 mph NW33.8 kmh NW 30.0 mph48.3 kmh 29.27 in991.2 mb 0.04 in1.0 mm 0.00 in/hr0.0 mm/hr 0.10 in2.5 mm
12:42 AM 45.6°F7.6°C 44.0°F6.7°C 94% 23.0 mph NW37.0 kmh NW 30.0 mph48.3 kmh 29.27 in991.2 mb 0.04 in1.0 mm 0.00 in/hr0.0 mm/hr 0.10 in2.5 mm
12:43 AM 45.6°F7.6°C 44.0°F6.7°C 94% 21.0 mph NW33.8 kmh NW 30.0 mph48.3 kmh 29.27 in991.2 mb 0.05 in1.3 mm 0.60 in/hr15.2 mm/hr 0.11 in2.8 mm
12:44 AM 45.6°F7.6°C 44.0°F6.7°C 94% 22.0 mph NW35.4 kmh NW 30.0 mph48.3 kmh 29.27 in991.2 mb 0.05 in1.3 mm 0.00 in/hr0.0 mm/hr 0.11 in2.8 mm
12:45 AM 45.6°F7.6°C 44.0°F6.7°C 94% 17.0 mph NW27.4 kmh NW 30.0 mph48.3 kmh 29.27 in991.2 mb 0.05 in1.3 mm 0.00 in/hr0.0 mm/hr 0.11 in2.8 mm
12:46 AM 45.5°F7.5°C 43.9°F6.6°C 94% 22.0 mph NW35.4 kmh NW 30.0 mph48.3 kmh 29.27 in991.2 mb 0.05 in1.3 mm 0.00 in/hr0.0 mm/hr 0.11 in2.8 mm
12:47 AM 45.5°F7.5°C 43.9°F6.6°C 94% 22.0 mph NW35.4 kmh NW 30.0 mph48.3 kmh 29.27 in991.2 mb 0.05 in1.3 mm 0.00 in/hr0.0 mm/hr 0.11 in2.8 mm
12:48 AM 45.5°F7.5°C 43.9°F6.6°C 94% 19.0 mph NW30.6 kmh NW 30.0 mph48.3 kmh 29.27 in991.2 mb 0.05 in1.3 mm 0.00 in/hr0.0 mm/hr 0.11 in2.8 mm
12:49 AM 45.5°F7.5°C 43.9°F6.6°C 94% 22.0 mph NW35.4 kmh NW 30.0 mph48.3 kmh 29.28 in991.5 mb 0.05 in1.3 mm 0.00 in/hr0.0 mm/hr 0.11 in2.8 mm
12:50 AM 45.4°F7.4°C 43.8°F6.6°C 94% 22.0 mph NW35.4 kmh NW 30.0 mph48.3 kmh 29.27 in991.2 mb 0.05 in1.3 mm 0.00 in/hr0.0 mm/hr 0.11 in2.8 mm
12:51 AM 45.4°F7.4°C 43.8°F6.6°C 94% 21.0 mph NW33.8 kmh NW 30.0 mph48.3 kmh 29.28 in991.5 mb 0.06 in1.5 mm 0.60 in/hr15.2 mm/hr 0.12 in3.0 mm
12:53 AM 45.4°F7.4°C 43.8°F6.6°C 94% 22.0 mph NW35.4 kmh NW 30.0 mph48.3 kmh 29.28 in991.5 mb 0.06 in1.5 mm 0.00 in/hr0.0 mm/hr 0.12 in3.0 mm
12:54 AM 45.4°F7.4°C 43.8°F6.6°C 94% 22.0 mph NW35.4 kmh NW 30.0 mph48.3 kmh 29.28 in991.5 mb 0.06 in1.5 mm 0.00 in/hr0.0 mm/hr 0.12 in3.0 mm
12:55 AM 45.4°F7.4°C 43.8°F6.6°C 94% 17.0 mph NW27.4 kmh NW 30.0 mph48.3 kmh 29.28 in991.5 mb 0.06 in1.5 mm 0.00 in/hr0.0 mm/hr 0.12 in3.0 mm
12:56 AM 45.4°F7.4°C 43.8°F6.6°C 94% 20.0 mph NW32.2 kmh NW 30.0 mph48.3 kmh 29.28 in991.5 mb 0.06 in1.5 mm 0.00 in/hr0.0 mm/hr 0.12 in3.0 mm
12:57 AM 45.4°F7.4°C 43.8°F6.6°C 94% 17.0 mph NW27.4 kmh NW 30.0 mph48.3 kmh 29.28 in991.5 mb 0.06 in1.5 mm 0.00 in/hr0.0 mm/hr 0.12 in3.0 mm
12:58 AM 45.4°F7.4°C 43.8°F6.6°C 94% 25.0 mph NW40.2 kmh NW 32.0 mph51.5 kmh 29.28 in991.5 mb 0.06 in1.5 mm 0.00 in/hr0.0 mm/hr 0.12 in3.0 mm
12:59 AM 45.3°F7.4°C 43.7°F6.5°C 94% 20.0 mph NW32.2 kmh NW 32.0 mph51.5 kmh 29.28 in991.5 mb 0.06 in1.5 mm 0.00 in/hr0.0 mm/hr 0.12 in3.0 mm
01:00 AM 45.3°F7.4°C 43.7°F6.5°C 94% 24.0 mph NW38.6 kmh NW 32.0 mph51.5 kmh 29.28 in991.5 mb 0.06 in1.5 mm 0.00 in/hr0.0 mm/hr 0.12 in3.0 mm
01:01 AM 45.3°F7.4°C 43.7°F6.5°C 94% 20.0 mph NW32.2 kmh NW 24.0 mph38.6 kmh 29.28 in991.5 mb 0.04 in1.0 mm 0.00 in/hr0.0 mm/hr 0.12 in3.0 mm
01:02 AM 45.3°F7.4°C 43.7°F6.5°C 94% 24.0 mph NW38.6 kmh NW 24.0 mph38.6 kmh 29.28 in991.5 mb 0.04 in1.0 mm 0.00 in/hr0.0 mm/hr 0.12 in3.0 mm
01:03 AM 45.3°F7.4°C 43.7°F6.5°C 94% 26.0 mph NW41.8 kmh NW 29.0 mph46.7 kmh 29.28 in991.5 mb 0.04 in1.0 mm 0.00 in/hr0.0 mm/hr 0.12 in3.0 mm
01:04 AM 45.3°F7.4°C 43.7°F6.5°C 94% 22.0 mph NW35.4 kmh NW 29.0 mph46.7 kmh 29.29 in991.9 mb 0.04 in1.0 mm 0.00 in/hr0.0 mm/hr 0.12 in3.0 mm
01:06 AM 45.1°F7.3°C 43.5°F6.4°C 94% 21.0 mph NW33.8 kmh NW 29.0 mph46.7 kmh 29.29 in991.9 mb 0.04 in1.0 mm 0.00 in/hr0.0 mm/hr 0.12 in3.0 mm
01:07 AM 44.9°F7.2°C 43.3°F6.3°C 94% 28.0 mph NW45.1 kmh NW 37.0 mph59.5 kmh 29.28 in991.5 mb 0.04 in1.0 mm 0.00 in/hr0.0 mm/hr 0.12 in3.0 mm
01:09 AM 44.4°F6.9°C 42.5°F5.8°C 93% 34.0 mph NW54.7 kmh NW 37.0 mph59.5 kmh 29.29 in991.9 mb 0.05 in1.3 mm 0.30 in/hr7.6 mm/hr 0.13 in3.3 mm
01:10 AM 44.2°F6.8°C 42.3°F5.7°C 93% 31.0 mph NW49.9 kmh NW 37.0 mph59.5 kmh 29.29 in991.9 mb 0.05 in1.3 mm 0.00 in/hr0.0 mm/hr 0.13 in3.3 mm
01:11 AM 43.9°F6.6°C 41.7°F5.4°C 92% 26.0 mph NW41.8 kmh NW 37.0 mph59.5 kmh 29.29 in991.9 mb 0.05 in1.3 mm 0.00 in/hr0.0 mm/hr 0.13 in3.3 mm
01:12 AM 43.7°F6.5°C 41.8°F5.4°C 93% 29.0 mph NW46.7 kmh NW 37.0 mph59.5 kmh 29.29 in991.9 mb 0.05 in1.3 mm 0.00 in/hr0.0 mm/hr 0.13 in3.3 mm
01:14 AM 43.5°F6.4°C 41.6°F5.3°C 93% 34.0 mph NW54.7 kmh NW 37.0 mph59.5 kmh 29.29 in991.9 mb 0.05 in1.3 mm 0.00 in/hr0.0 mm/hr 0.13 in3.3 mm
01:15 AM 43.4°F6.3°C 41.5°F5.3°C 93% 31.0 mph NW49.9 kmh NW 37.0 mph59.5 kmh 29.30 in992.2 mb 0.05 in1.3 mm 0.00 in/hr0.0 mm/hr 0.13 in3.3 mm
01:16 AM 43.2°F6.2°C 41.3°F5.2°C 93% 32.0 mph NW51.5 kmh NW 37.0 mph59.5 kmh 29.30 in992.2 mb 0.05 in1.3 mm 0.00 in/hr0.0 mm/hr 0.13 in3.3 mm
01:17 AM 43.1°F6.2°C 41.2°F5.1°C 93% 28.0 mph NW45.1 kmh NW 37.0 mph59.5 kmh 29.30 in992.2 mb 0.05 in1.3 mm 0.00 in/hr0.0 mm/hr 0.13 in3.3 mm
01:18 AM 42.9°F6.1°C 41.0°F5.0°C 93% 28.0 mph NW45.1 kmh NW 37.0 mph59.5 kmh 29.30 in992.2 mb 0.05 in1.3 mm 0.00 in/hr0.0 mm/hr 0.13 in3.3 mm
01:20 AM 42.5°F5.8°C 40.6°F4.8°C 93% 25.0 mph NW40.2 kmh NW 37.0 mph59.5 kmh 29.30 in992.2 mb 0.05 in1.3 mm 0.00 in/hr0.0 mm/hr 0.13 in3.3 mm
01:21 AM 42.3°F5.7°C 40.4°F4.7°C 93% 30.0 mph NW48.3 kmh NW 37.0 mph59.5 kmh 29.30 in992.2 mb 0.05 in1.3 mm 0.00 in/hr0.0 mm/hr 0.13 in3.3 mm
01:22 AM 42.0°F5.6°C 40.1°F4.5°C 93% 31.0 mph NW49.9 kmh NW 37.0 mph59.5 kmh 29.30 in992.2 mb 0.05 in1.3 mm 0.00 in/hr0.0 mm/hr 0.13 in3.3 mm
01:23 AM 41.6°F5.3°C 39.7°F4.3°C 93% 30.0 mph NW48.3 kmh NW 37.0 mph59.5 kmh 29.31 in992.6 mb 0.05 in1.3 mm 0.00 in/hr0.0 mm/hr 0.13 in3.3 mm
01:25 AM 41.4°F5.2°C 39.5°F4.2°C 93% 28.0 mph NW45.1 kmh NW 37.0 mph59.5 kmh 29.31 in992.6 mb 0.05 in1.3 mm 0.00 in/hr0.0 mm/hr 0.13 in3.3 mm
01:26 AM 41.3°F5.2°C 39.7°F4.3°C 94% 24.0 mph NW38.6 kmh NW 37.0 mph59.5 kmh 29.31 in992.6 mb 0.05 in1.3 mm 0.00 in/hr0.0 mm/hr 0.13 in3.3 mm
01:28 AM 41.1°F5.1°C 39.5°F4.2°C 94% 24.0 mph NW38.6 kmh NW 37.0 mph59.5 kmh 29.32 in992.9 mb 0.05 in1.3 mm 0.00 in/hr0.0 mm/hr 0.13 in3.3 mm
01:29 AM 41.1°F5.1°C 39.5°F4.2°C 94% 25.0 mph NW40.2 kmh NW 37.0 mph59.5 kmh 29.32 in992.9 mb 0.05 in1.3 mm 0.00 in/hr0.0 mm/hr 0.13 in3.3 mm
01:30 AM 41.0°F5.0°C 39.4°F4.1°C 94% 26.0 mph NW41.8 kmh NW 37.0 mph59.5 kmh 29.32 in992.9 mb 0.05 in1.3 mm 0.00 in/hr0.0 mm/hr 0.13 in3.3 mm
01:31 AM 40.9°F4.9°C 39.6°F4.2°C 95% 29.0 mph NW46.7 kmh NW 30.0 mph48.3 kmh 29.31 in992.6 mb 0.04 in1.0 mm 0.00 in/hr0.0 mm/hr 0.13 in3.3 mm
01:32 AM 40.9°F4.9°C 39.6°F4.2°C 95% 27.0 mph NW43.5 kmh NW 31.0 mph49.9 kmh 29.32 in992.9 mb 0.04 in1.0 mm 0.00 in/hr0.0 mm/hr 0.13 in3.3 mm
01:33 AM 40.7°F4.8°C 39.4°F4.1°C 95% 24.0 mph NW38.6 kmh NW 38.0 mph61.2 kmh 29.32 in992.9 mb 0.04 in1.0 mm 0.00 in/hr0.0 mm/hr 0.13 in3.3 mm
01:35 AM 40.7°F4.8°C 39.4°F4.1°C 95% 28.0 mph NW45.1 kmh NW 38.0 mph61.2 kmh 29.32 in992.9 mb 0.04 in1.0 mm 0.00 in/hr0.0 mm/hr 0.13 in3.3 mm
01:36 AM 40.6°F4.8°C 39.0°F3.9°C 94% 31.0 mph NW49.9 kmh NW 38.0 mph61.2 kmh 29.32 in992.9 mb 0.04 in1.0 mm 0.00 in/hr0.0 mm/hr 0.13 in3.3 mm
01:37 AM 40.6°F4.8°C 39.3°F4.1°C 95% 28.0 mph NW45.1 kmh NW 38.0 mph61.2 kmh 29.32 in992.9 mb 0.04 in1.0 mm 0.00 in/hr0.0 mm/hr 0.13 in3.3 mm
01:38 AM 40.6°F4.8°C 39.0°F3.9°C 94% 29.0 mph NW46.7 kmh NW 38.0 mph61.2 kmh 29.32 in992.9 mb 0.04 in1.0 mm 0.00 in/hr0.0 mm/hr 0.13 in3.3 mm
01:40 AM 40.6°F4.8°C 39.0°F3.9°C 94% 31.0 mph NW49.9 kmh NW 38.0 mph61.2 kmh 29.33 in993.2 mb 0.04 in1.0 mm 0.00 in/hr0.0 mm/hr 0.13 in3.3 mm
01:42 AM 40.6°F4.8°C 39.0°F3.9°C 94% 27.0 mph NW43.5 kmh NW 38.0 mph61.2 kmh 29.33 in993.2 mb 0.04 in1.0 mm 0.00 in/hr0.0 mm/hr 0.13 in3.3 mm
01:43 AM 40.6°F4.8°C 38.7°F3.7°C 93% 24.0 mph NW38.6 kmh NW 38.0 mph61.2 kmh 29.33 in993.2 mb 0.04 in1.0 mm 0.00 in/hr0.0 mm/hr 0.13 in3.3 mm
01:44 AM 40.6°F4.8°C 38.7°F3.7°C 93% 23.0 mph NW37.0 kmh NW 38.0 mph61.2 kmh 29.33 in993.2 mb 0.04 in1.0 mm 0.00 in/hr0.0 mm/hr 0.13 in3.3 mm
01:45 AM 40.6°F4.8°C 38.7°F3.7°C 93% 29.0 mph WNW46.7 kmh WNW 38.0 mph61.2 kmh 29.33 in993.2 mb 0.04 in1.0 mm 0.00 in/hr0.0 mm/hr 0.13 in3.3 mm
01:47 AM 40.6°F4.8°C 38.7°F3.7°C 93% 31.0 mph NW49.9 kmh NW 38.0 mph61.2 kmh 29.33 in993.2 mb 0.04 in1.0 mm 0.00 in/hr0.0 mm/hr 0.13 in3.3 mm
01:48 AM 40.5°F4.7°C 38.6°F3.7°C 93% 35.0 mph NW56.3 kmh NW 38.0 mph61.2 kmh 29.33 in993.2 mb 0.04 in1.0 mm 0.00 in/hr0.0 mm/hr 0.13 in3.3 mm
01:49 AM 40.5°F4.7°C 38.6°F3.7°C 93% 25.0 mph NW40.2 kmh NW 38.0 mph61.2 kmh 29.33 in993.2 mb 0.04 in1.0 mm 0.00 in/hr0.0 mm/hr 0.13 in3.3 mm
01:50 AM 40.4°F4.7°C 38.3°F3.5°C 92% 29.0 mph NW46.7 kmh NW 38.0 mph61.2 kmh 29.33 in993.2 mb 0.04 in1.0 mm 0.00 in/hr0.0 mm/hr 0.13 in3.3 mm
01:52 AM 40.4°F4.7°C 38.3°F3.5°C 92% 29.0 mph NW46.7 kmh NW 38.0 mph61.2 kmh 29.34 in993.6 mb 0.04 in1.0 mm 0.00 in/hr0.0 mm/hr 0.13 in3.3 mm
01:53 AM 40.4°F4.7°C 38.3°F3.5°C 92% 25.0 mph NW40.2 kmh NW 38.0 mph61.2 kmh 29.34 in993.6 mb 0.04 in1.0 mm 0.00 in/hr0.0 mm/hr 0.13 in3.3 mm
01:54 AM 40.3°F4.6°C 38.2°F3.4°C 92% 33.0 mph NW53.1 kmh NW 38.0 mph61.2 kmh 29.34 in993.6 mb 0.04 in1.0 mm 0.00 in/hr0.0 mm/hr 0.13 in3.3 mm
01:56 AM 40.3°F4.6°C 38.2°F3.4°C 92% 22.0 mph NW35.4 kmh NW 38.0 mph61.2 kmh 29.34 in993.6 mb 0.04 in1.0 mm 0.00 in/hr0.0 mm/hr 0.13 in3.3 mm
01:57 AM 40.3°F4.6°C 38.2°F3.4°C 92% 32.0 mph NW51.5 kmh NW 38.0 mph61.2 kmh 29.34 in993.6 mb 0.04 in1.0 mm 0.00 in/hr0.0 mm/hr 0.13 in3.3 mm
01:58 AM 40.2°F4.6°C 38.1°F3.4°C 92% 37.0 mph NW59.5 kmh NW 39.0 mph62.8 kmh 29.34 in993.6 mb 0.04 in1.0 mm 0.00 in/hr0.0 mm/hr 0.13 in3.3 mm
02:00 AM 40.1°F4.5°C 38.0°F3.3°C 92% 31.0 mph NW49.9 kmh NW 39.0 mph62.8 kmh 29.34 in993.6 mb 0.04 in1.0 mm 0.00 in/hr0.0 mm/hr 0.13 in3.3 mm
02:02 AM 40.1°F4.5°C 38.0°F3.3°C 92% 31.0 mph NW49.9 kmh NW 37.0 mph59.5 kmh 29.35 in993.9 mb 0.01 in0.3 mm 0.00 in/hr0.0 mm/hr 0.13 in3.3 mm
02:03 AM 40.1°F4.5°C 38.0°F3.3°C 92% 28.0 mph NW45.1 kmh NW 37.0 mph59.5 kmh 29.35 in993.9 mb 0.01 in0.3 mm 0.00 in/hr0.0 mm/hr 0.13 in3.3 mm
02:04 AM 40.1°F4.5°C 38.0°F3.3°C 92% 25.0 mph NW40.2 kmh NW 37.0 mph59.5 kmh 29.35 in993.9 mb 0.01 in0.3 mm 0.00 in/hr0.0 mm/hr 0.13 in3.3 mm
02:06 AM 40.0°F4.4°C 37.9°F3.3°C 92% 22.0 mph NW35.4 kmh NW 37.0 mph59.5 kmh 29.35 in993.9 mb 0.01 in0.3 mm 0.00 in/hr0.0 mm/hr 0.13 in3.3 mm
02:07 AM 40.0°F4.4°C 37.9°F3.3°C 92% 29.0 mph NW46.7 kmh NW 37.0 mph59.5 kmh 29.36 in994.2 mb 0.01 in0.3 mm 0.00 in/hr0.0 mm/hr 0.13 in3.3 mm
02:09 AM 39.8°F4.3°C 37.7°F3.2°C 92% 23.0 mph NW37.0 kmh NW 37.0 mph59.5 kmh 29.36 in994.2 mb 0.01 in0.3 mm 0.00 in/hr0.0 mm/hr 0.13 in3.3 mm
02:10 AM 39.7°F4.3°C 37.9°F3.3°C 93% 32.0 mph NW51.5 kmh NW 37.0 mph59.5 kmh 29.36 in994.2 mb 0.01 in0.3 mm 0.00 in/hr0.0 mm/hr 0.13 in3.3 mm
02:12 AM 39.5°F4.2°C 37.4°F3.0°C 92% 24.0 mph NW38.6 kmh NW 37.0 mph59.5 kmh 29.36 in994.2 mb 0.01 in0.3 mm 0.00 in/hr0.0 mm/hr 0.13 in3.3 mm
02:13 AM 39.5°F4.2°C 37.7°F3.2°C 93% 28.0 mph NW45.1 kmh NW 37.0 mph59.5 kmh 29.36 in994.2 mb 0.01 in0.3 mm 0.00 in/hr0.0 mm/hr 0.13 in3.3 mm
02:14 AM 39.3°F4.1°C 37.5°F3.1°C 93% 30.0 mph NW48.3 kmh NW 38.0 mph61.2 kmh 29.36 in994.2 mb 0.01 in0.3 mm 0.00 in/hr0.0 mm/hr 0.13 in3.3 mm
02:16 AM 39.3°F4.1°C 37.5°F3.1°C 93% 28.0 mph NW45.1 kmh NW 38.0 mph61.2 kmh 29.37 in994.6 mb 0.01 in0.3 mm 0.00 in/hr0.0 mm/hr 0.13 in3.3 mm
02:17 AM 39.2°F4.0°C 37.4°F3.0°C 93% 26.0 mph NW41.8 kmh NW 38.0 mph61.2 kmh 29.37 in994.6 mb 0.01 in0.3 mm 0.00 in/hr0.0 mm/hr 0.13 in3.3 mm
02:19 AM 39.1°F3.9°C 37.3°F2.9°C 93% 29.0 mph NW46.7 kmh NW 38.0 mph61.2 kmh 29.37 in994.6 mb 0.01 in0.3 mm 0.00 in/hr0.0 mm/hr 0.13 in3.3 mm
02:20 AM 39.1°F3.9°C 37.0°F2.8°C 92% 26.0 mph NW41.8 kmh NW 38.0 mph61.2 kmh 29.37 in994.6 mb 0.01 in0.3 mm 0.00 in/hr0.0 mm/hr 0.13 in3.3 mm
02:21 AM 38.9°F3.8°C 37.1°F2.8°C 93% 30.0 mph NW48.3 kmh NW 38.0 mph61.2 kmh 29.37 in994.6 mb 0.01 in0.3 mm 0.00 in/hr0.0 mm/hr 0.13 in3.3 mm
02:23 AM 38.9°F3.8°C 37.1°F2.8°C 93% 33.0 mph NW53.1 kmh NW 38.0 mph61.2 kmh 29.37 in994.6 mb 0.01 in0.3 mm 0.00 in/hr0.0 mm/hr 0.13 in3.3 mm
02:24 AM 38.8°F3.8°C 37.0°F2.8°C 93% 32.0 mph NW51.5 kmh NW 38.0 mph61.2 kmh 29.37 in994.6 mb 0.01 in0.3 mm 0.00 in/hr0.0 mm/hr 0.13 in3.3 mm
02:26 AM 38.8°F3.8°C 37.0°F2.8°C 93% 25.0 mph NW40.2 kmh NW 39.0 mph62.8 kmh 29.38 in994.9 mb 0.01 in0.3 mm 0.00 in/hr0.0 mm/hr 0.13 in3.3 mm
02:27 AM 38.8°F3.8°C 37.0°F2.8°C 93% 23.0 mph NW37.0 kmh NW 39.0 mph62.8 kmh 29.38 in994.9 mb 0.01 in0.3 mm 0.00 in/hr0.0 mm/hr 0.13 in3.3 mm
02:28 AM 38.8°F3.8°C 37.0°F2.8°C 93% 27.0 mph NW43.5 kmh NW 39.0 mph62.8 kmh 29.38 in994.9 mb 0.01 in0.3 mm 0.00 in/hr0.0 mm/hr 0.13 in3.3 mm
02:30 AM 38.7°F3.7°C 36.9°F2.7°C 93% 25.0 mph NW40.2 kmh NW 39.0 mph62.8 kmh 29.38 in994.9 mb 0.01 in0.3 mm 0.00 in/hr0.0 mm/hr 0.13 in3.3 mm
02:31 AM 38.7°F3.7°C 36.9°F2.7°C 93% 29.0 mph NW46.7 kmh NW 37.0 mph59.5 kmh 29.39 in995.3 mb 0.00 in0.0 mm 0.00 in/hr0.0 mm/hr 0.13 in3.3 mm
02:32 AM 38.7°F3.7°C 36.9°F2.7°C 93% 26.0 mph NW41.8 kmh NW 37.0 mph59.5 kmh 29.39 in995.3 mb 0.00 in0.0 mm 0.00 in/hr0.0 mm/hr 0.13 in3.3 mm
02:34 AM 38.6°F3.7°C 36.8°F2.7°C 93% 34.0 mph NW54.7 kmh NW 40.0 mph64.4 kmh 29.39 in995.3 mb 0.00 in0.0 mm 0.00 in/hr0.0 mm/hr 0.13 in3.3 mm
02:35 AM 38.6°F3.7°C 36.8°F2.7°C 93% 31.0 mph NNW49.9 kmh NNW 40.0 mph64.4 kmh 29.39 in995.3 mb 0.00 in0.0 mm 0.00 in/hr0.0 mm/hr 0.13 in3.3 mm
02:36 AM 38.6°F3.7°C 36.8°F2.7°C 93% 22.0 mph NW35.4 kmh NW 40.0 mph64.4 kmh 29.39 in995.3 mb 0.00 in0.0 mm 0.00 in/hr0.0 mm/hr 0.13 in3.3 mm
02:38 AM 38.5°F3.6°C 36.7°F2.6°C 93% 31.0 mph NW49.9 kmh NW 40.0 mph64.4 kmh 29.39 in995.3 mb 0.00 in0.0 mm 0.00 in/hr0.0 mm/hr 0.13 in3.3 mm
02:39 AM 38.5°F3.6°C 36.7°F2.6°C 93% 25.0 mph NW40.2 kmh NW 40.0 mph64.4 kmh 29.40 in995.6 mb 0.00 in0.0 mm 0.00 in/hr0.0 mm/hr 0.13 in3.3 mm
02:40 AM 38.4°F3.6°C 36.6°F2.6°C 93% 31.0 mph NW49.9 kmh NW 40.0 mph64.4 kmh 29.39 in995.3 mb 0.00 in0.0 mm 0.00 in/hr0.0 mm/hr 0.13 in3.3 mm
02:41 AM 38.4°F3.6°C 36.6°F2.6°C 93% 26.0 mph NW41.8 kmh NW 40.0 mph64.4 kmh 29.40 in995.6 mb 0.00 in0.0 mm 0.00 in/hr0.0 mm/hr 0.13 in3.3 mm
02:42 AM 38.4°F3.6°C 36.6°F2.6°C 93% 27.0 mph NW43.5 kmh NW 40.0 mph64.4 kmh 29.40 in995.6 mb 0.00 in0.0 mm 0.00 in/hr0.0 mm/hr 0.13 in3.3 mm
02:43 AM 38.4°F3.6°C 36.6°F2.6°C 93% 26.0 mph NW41.8 kmh NW 40.0 mph64.4 kmh 29.40 in995.6 mb 0.00 in0.0 mm 0.00 in/hr0.0 mm/hr 0.13 in3.3 mm
02:45 AM 38.4°F3.6°C 36.6°F2.6°C 93% 36.0 mph NW57.9 kmh NW 43.0 mph69.2 kmh 29.40 in995.6 mb 0.00 in0.0 mm 0.00 in/hr0.0 mm/hr 0.13 in3.3 mm
02:46 AM 38.3°F3.5°C 36.5°F2.5°C 93% 25.0 mph NW40.2 kmh NW 43.0 mph69.2 kmh 29.40 in995.6 mb 0.00 in0.0 mm 0.00 in/hr0.0 mm/hr 0.13 in3.3 mm
02:48 AM 38.3°F3.5°C 36.5°F2.5°C 93% 30.0 mph NW48.3 kmh NW 43.0 mph69.2 kmh 29.40 in995.6 mb 0.00 in0.0 mm 0.00 in/hr0.0 mm/hr 0.13 in3.3 mm
02:49 AM 38.3°F3.5°C 36.5°F2.5°C 93% 33.0 mph NW53.1 kmh NW 43.0 mph69.2 kmh 29.40 in995.6 mb 0.00 in0.0 mm 0.00 in/hr0.0 mm/hr 0.13 in3.3 mm
02:50 AM 38.3°F3.5°C 36.5°F2.5°C 93% 33.0 mph NNW53.1 kmh NNW 43.0 mph69.2 kmh 29.40 in995.6 mb 0.00 in0.0 mm 0.00 in/hr0.0 mm/hr 0.13 in3.3 mm
02:51 AM 38.3°F3.5°C 36.5°F2.5°C 93% 33.0 mph NW53.1 kmh NW 43.0 mph69.2 kmh 29.40 in995.6 mb 0.00 in0.0 mm 0.00 in/hr0.0 mm/hr 0.13 in3.3 mm
02:52 AM 38.2°F3.4°C 36.4°F2.4°C 93% 32.0 mph NW51.5 kmh NW 43.0 mph69.2 kmh 29.41 in995.9 mb 0.00 in0.0 mm 0.00 in/hr0.0 mm/hr 0.13 in3.3 mm
02:53 AM 38.3°F3.5°C 36.5°F2.5°C 93% 32.0 mph NW51.5 kmh NW 43.0 mph69.2 kmh 29.41 in995.9 mb 0.00 in0.0 mm 0.00 in/hr0.0 mm/hr 0.13 in3.3 mm
02:54 AM 38.2°F3.4°C 36.4°F2.4°C 93% 26.0 mph NW41.8 kmh NW 43.0 mph69.2 kmh 29.41 in995.9 mb 0.00 in0.0 mm 0.00 in/hr0.0 mm/hr 0.13 in3.3 mm
02:56 AM 38.2°F3.4°C 36.4°F2.4°C 93% 23.0 mph NW37.0 kmh NW 43.0 mph69.2 kmh 29.41 in995.9 mb 0.00 in0.0 mm 0.00 in/hr0.0 mm/hr 0.13 in3.3 mm
02:57 AM 38.2°F3.4°C 36.4°F2.4°C 93% 32.0 mph NNW51.5 kmh NNW 43.0 mph69.2 kmh 29.41 in995.9 mb 0.00 in0.0 mm 0.00 in/hr0.0 mm/hr 0.13 in3.3 mm
02:58 AM 38.2°F3.4°C 36.4°F2.4°C 93% 30.0 mph NW48.3 kmh NW 43.0 mph69.2 kmh 29.41 in995.9 mb 0.00 in0.0 mm 0.00 in/hr0.0 mm/hr 0.13 in3.3 mm
03:00 AM 38.2°F3.4°C 36.4°F2.4°C 93% 28.0 mph NW45.1 kmh NW 43.0 mph69.2 kmh 29.41 in995.9 mb 0.00 in0.0 mm 0.00 in/hr0.0 mm/hr 0.13 in3.3 mm
03:01 AM 38.2°F3.4°C 36.4°F2.4°C 93% 28.0 mph NW45.1 kmh NW 28.0 mph45.1 kmh 29.42 in996.3 mb 0.00 in0.0 mm 0.00 in/hr0.0 mm/hr 0.13 in3.3 mm
03:03 AM 38.2°F3.4°C 36.4°F2.4°C 93% 30.0 mph NW48.3 kmh NW 33.0 mph53.1 kmh 29.42 in996.3 mb 0.00 in0.0 mm 0.00 in/hr0.0 mm/hr 0.13 in3.3 mm
03:04 AM 38.2°F3.4°C 36.4°F2.4°C 93% 28.0 mph NW45.1 kmh NW 33.0 mph53.1 kmh 29.42 in996.3 mb 0.00 in0.0 mm 0.00 in/hr0.0 mm/hr 0.13 in3.3 mm
03:05 AM 38.2°F3.4°C 36.4°F2.4°C 93% 25.0 mph NW40.2 kmh NW 33.0 mph53.1 kmh 29.42 in996.3 mb 0.00 in0.0 mm 0.00 in/hr0.0 mm/hr 0.13 in3.3 mm
03:06 AM 38.2°F3.4°C 36.4°F2.4°C 93% 31.0 mph NW49.9 kmh NW 33.0 mph53.1 kmh 29.42 in996.3 mb 0.00 in0.0 mm 0.00 in/hr0.0 mm/hr 0.13 in3.3 mm
03:07 AM 38.2°F3.4°C 36.4°F2.4°C 93% 29.0 mph NW46.7 kmh NW 33.0 mph53.1 kmh 29.42 in996.3 mb 0.00 in0.0 mm 0.00 in/hr0.0 mm/hr 0.13 in3.3 mm
03:08 AM 38.2°F3.4°C 36.4°F2.4°C 93% 35.0 mph NW56.3 kmh NW 35.0 mph56.3 kmh 29.42 in996.3 mb 0.00 in0.0 mm 0.00 in/hr0.0 mm/hr 0.13 in3.3 mm
03:10 AM 38.2°F3.4°C 36.4°F2.4°C 93% 23.0 mph NW37.0 kmh NW 37.0 mph59.5 kmh 29.43 in996.6 mb 0.00 in0.0 mm 0.00 in/hr0.0 mm/hr 0.13 in3.3 mm
03:11 AM 38.3°F3.5°C 36.5°F2.5°C 93% 25.0 mph NW40.2 kmh NW 37.0 mph59.5 kmh 29.43 in996.6 mb 0.00 in0.0 mm 0.00 in/hr0.0 mm/hr 0.13 in3.3 mm
03:13 AM 38.3°F3.5°C 36.5°F2.5°C 93% 21.0 mph NW33.8 kmh NW 37.0 mph59.5 kmh 29.43 in996.6 mb 0.00 in0.0 mm 0.00 in/hr0.0 mm/hr 0.13 in3.3 mm
03:14 AM 38.3°F3.5°C 36.5°F2.5°C 93% 32.0 mph NW51.5 kmh NW 39.0 mph62.8 kmh 29.43 in996.6 mb 0.00 in0.0 mm 0.00 in/hr0.0 mm/hr 0.13 in3.3 mm
03:15 AM 38.3°F3.5°C 36.5°F2.5°C 93% 33.0 mph NW53.1 kmh NW 39.0 mph62.8 kmh 29.44 in997.0 mb 0.00 in0.0 mm 0.00 in/hr0.0 mm/hr 0.13 in3.3 mm
03:16 AM 38.3°F3.5°C 36.5°F2.5°C 93% 29.0 mph NW46.7 kmh NW 39.0 mph62.8 kmh 29.43 in996.6 mb 0.00 in0.0 mm 0.00 in/hr0.0 mm/hr 0.13 in3.3 mm
03:17 AM 38.3°F3.5°C 36.5°F2.5°C 93% 24.0 mph NW38.6 kmh NW 39.0 mph62.8 kmh 29.44 in997.0 mb 0.00 in0.0 mm 0.00 in/hr0.0 mm/hr 0.13 in3.3 mm
03:18 AM 38.3°F3.5°C 36.2°F2.3°C 92% 26.0 mph NW41.8 kmh NW 39.0 mph62.8 kmh 29.44 in997.0 mb 0.00 in0.0 mm 0.00 in/hr0.0 mm/hr 0.13 in3.3 mm
03:20 AM 38.3°F3.5°C 36.2°F2.3°C 92% 35.0 mph NW56.3 kmh NW 39.0 mph62.8 kmh 29.44 in997.0 mb 0.00 in0.0 mm 0.00 in/hr0.0 mm/hr 0.13 in3.3 mm
03:21 AM 38.3°F3.5°C 36.2°F2.3°C 92% 25.0 mph NNW40.2 kmh NNW 39.0 mph62.8 kmh 29.44 in997.0 mb 0.00 in0.0 mm 0.00 in/hr0.0 mm/hr 0.13 in3.3 mm
03:22 AM 38.4°F3.6°C 36.3°F2.4°C 92% 22.0 mph NNW35.4 kmh NNW 39.0 mph62.8 kmh 29.44 in997.0 mb 0.00 in0.0 mm 0.00 in/hr0.0 mm/hr 0.13 in3.3 mm
03:23 AM 38.4°F3.6°C 36.3°F2.4°C 92% 24.0 mph NW38.6 kmh NW 39.0 mph62.8 kmh 29.45 in997.3 mb 0.00 in0.0 mm 0.00 in/hr0.0 mm/hr 0.13 in3.3 mm
03:24 AM 38.4°F3.6°C 36.3°F2.4°C 92% 29.0 mph NW46.7 kmh NW 39.0 mph62.8 kmh 29.45 in997.3 mb 0.00 in0.0 mm 0.00 in/hr0.0 mm/hr 0.13 in3.3 mm
03:26 AM 38.4°F3.6°C 36.3°F2.4°C 92% 26.0 mph NW41.8 kmh NW 39.0 mph62.8 kmh 29.45 in997.3 mb 0.00 in0.0 mm 0.00 in/hr0.0 mm/hr 0.13 in3.3 mm
03:27 AM 38.4°F3.6°C 36.3°F2.4°C 92% 23.0 mph NW37.0 kmh NW 39.0 mph62.8 kmh 29.45 in997.3 mb 0.00 in0.0 mm 0.00 in/hr0.0 mm/hr 0.13 in3.3 mm
03:29 AM 38.4°F3.6°C 36.3°F2.4°C 92% 28.0 mph NW45.1 kmh NW 39.0 mph62.8 kmh 29.45 in997.3 mb 0.00 in0.0 mm 0.00 in/hr0.0 mm/hr 0.13 in3.3 mm
03:30 AM 38.4°F3.6°C 36.3°F2.4°C 92% 21.0 mph NW33.8 kmh NW 39.0 mph62.8 kmh 29.45 in997.3 mb 0.00 in0.0 mm 0.00 in/hr0.0 mm/hr 0.13 in3.3 mm
03:32 AM 38.4°F3.6°C 36.6°F2.6°C 93% 25.0 mph NW40.2 kmh NW 29.0 mph46.7 kmh 29.46 in997.6 mb 0.00 in0.0 mm 0.00 in/hr0.0 mm/hr 0.13 in3.3 mm
03:33 AM 38.3°F3.5°C 36.5°F2.5°C 93% 24.0 mph NW38.6 kmh NW 29.0 mph46.7 kmh 29.46 in997.6 mb 0.00 in0.0 mm 0.00 in/hr0.0 mm/hr 0.13 in3.3 mm
03:34 AM 38.2°F3.4°C 36.4°F2.4°C 93% 26.0 mph NW41.8 kmh NW 34.0 mph54.7 kmh 29.46 in997.6 mb 0.01 in0.3 mm 0.60 in/hr15.2 mm/hr 0.14 in3.6 mm
03:36 AM 38.0°F3.3°C 36.2°F2.3°C 93% 28.0 mph NW45.1 kmh NW 41.0 mph66.0 kmh 29.46 in997.6 mb 0.01 in0.3 mm 0.00 in/hr0.0 mm/hr 0.14 in3.6 mm
03:37 AM 38.0°F3.3°C 35.9°F2.2°C 92% 24.0 mph NW38.6 kmh NW 41.0 mph66.0 kmh 29.47 in998.0 mb 0.01 in0.3 mm 0.00 in/hr0.0 mm/hr 0.14 in3.6 mm
03:38 AM 37.8°F3.2°C 35.7°F2.1°C 92% 29.0 mph NW46.7 kmh NW 41.0 mph66.0 kmh 29.46 in997.6 mb 0.01 in0.3 mm 0.00 in/hr0.0 mm/hr 0.14 in3.6 mm
03:40 AM 37.7°F3.2°C 35.6°F2.0°C 92% 28.0 mph WNW45.1 kmh WNW 41.0 mph66.0 kmh 29.47 in998.0 mb 0.01 in0.3 mm 0.00 in/hr0.0 mm/hr 0.14 in3.6 mm
03:41 AM 37.7°F3.2°C 35.6°F2.0°C 92% 28.0 mph NW45.1 kmh NW 41.0 mph66.0 kmh 29.46 in997.6 mb 0.01 in0.3 mm 0.00 in/hr0.0 mm/hr 0.14 in3.6 mm
03:42 AM 37.7°F3.2°C 35.6°F2.0°C 92% 27.0 mph NW43.5 kmh NW 41.0 mph66.0 kmh 29.47 in998.0 mb 0.01 in0.3 mm 0.00 in/hr0.0 mm/hr 0.14 in3.6 mm
03:43 AM 37.7°F3.2°C 35.6°F2.0°C 92% 31.0 mph NW49.9 kmh NW 41.0 mph66.0 kmh 29.47 in998.0 mb 0.01 in0.3 mm 0.00 in/hr0.0 mm/hr 0.14 in3.6 mm
03:45 AM 37.7°F3.2°C 35.6°F2.0°C 92% 28.0 mph NW45.1 kmh NW 41.0 mph66.0 kmh 29.47 in998.0 mb 0.01 in0.3 mm 0.00 in/hr0.0 mm/hr 0.14 in3.6 mm
03:46 AM 37.7°F3.2°C 35.6°F2.0°C 92% 24.0 mph NW38.6 kmh NW 41.0 mph66.0 kmh 29.47 in998.0 mb 0.01 in0.3 mm 0.00 in/hr0.0 mm/hr 0.14 in3.6 mm
03:47 AM 37.7°F3.2°C 35.6°F2.0°C 92% 22.0 mph NW35.4 kmh NW 41.0 mph66.0 kmh 29.47 in998.0 mb 0.01 in0.3 mm 0.00 in/hr0.0 mm/hr 0.14 in3.6 mm
03:48 AM 37.7°F3.2°C 35.6°F2.0°C 92% 29.0 mph NW46.7 kmh NW 41.0 mph66.0 kmh 29.47 in998.0 mb 0.01 in0.3 mm 0.00 in/hr0.0 mm/hr 0.14 in3.6 mm
03:50 AM 37.7°F3.2°C 35.6°F2.0°C 92% 24.0 mph NW38.6 kmh NW 41.0 mph66.0 kmh 29.47 in998.0 mb 0.01 in0.3 mm 0.00 in/hr0.0 mm/hr 0.14 in3.6 mm
03:51 AM 37.7°F3.2°C 35.6°F2.0°C 92% 27.0 mph NW43.5 kmh NW 41.0 mph66.0 kmh 29.48 in998.3 mb 0.01 in0.3 mm 0.00 in/hr0.0 mm/hr 0.14 in3.6 mm
03:52 AM 37.7°F3.2°C 35.6°F2.0°C 92% 25.0 mph NW40.2 kmh NW 41.0 mph66.0 kmh 29.48 in998.3 mb 0.01 in0.3 mm 0.00 in/hr0.0 mm/hr 0.14 in3.6 mm
03:53 AM 37.7°F3.2°C 35.6°F2.0°C 92% 27.0 mph NW43.5 kmh NW 41.0 mph66.0 kmh 29.48 in998.3 mb 0.01 in0.3 mm 0.00 in/hr0.0 mm/hr 0.14 in3.6 mm
03:55 AM 37.7°F3.2°C 35.6°F2.0°C 92% 24.0 mph NW38.6 kmh NW 41.0 mph66.0 kmh 29.48 in998.3 mb 0.01 in0.3 mm 0.00 in/hr0.0 mm/hr 0.14 in3.6 mm
03:56 AM 37.7°F3.2°C 35.6°F2.0°C 92% 30.0 mph NW48.3 kmh NW 41.0 mph66.0 kmh 29.48 in998.3 mb 0.01 in0.3 mm 0.00 in/hr0.0 mm/hr 0.14 in3.6 mm
03:57 AM 37.7°F3.2°C 35.6°F2.0°C 92% 26.0 mph NW41.8 kmh NW 41.0 mph66.0 kmh 29.49 in998.6 mb 0.01 in0.3 mm 0.00 in/hr0.0 mm/hr 0.14 in3.6 mm
03:59 AM 37.7°F3.2°C 35.6°F2.0°C 92% 34.0 mph NW54.7 kmh NW 41.0 mph66.0 kmh 29.49 in998.6 mb 0.01 in0.3 mm 0.00 in/hr0.0 mm/hr 0.14 in3.6 mm
04:00 AM 37.7°F3.2°C 35.6°F2.0°C 92% 29.0 mph NW46.7 kmh NW 41.0 mph66.0 kmh 29.49 in998.6 mb 0.01 in0.3 mm 0.00 in/hr0.0 mm/hr 0.14 in3.6 mm
04:02 AM 37.7°F3.2°C 35.6°F2.0°C 92% 24.0 mph NW38.6 kmh NW 35.0 mph56.3 kmh 29.49 in998.6 mb 0.01 in0.3 mm 0.00 in/hr0.0 mm/hr 0.14 in3.6 mm
04:03 AM 37.8°F3.2°C 35.7°F2.1°C 92% 30.0 mph NW48.3 kmh NW 35.0 mph56.3 kmh 29.49 in998.6 mb 0.01 in0.3 mm 0.00 in/hr0.0 mm/hr 0.14 in3.6 mm
04:04 AM 37.8°F3.2°C 35.7°F2.1°C 92% 22.0 mph NW35.4 kmh NW 35.0 mph56.3 kmh 29.49 in998.6 mb 0.01 in0.3 mm 0.00 in/hr0.0 mm/hr 0.14 in3.6 mm
04:05 AM 37.8°F3.2°C 35.7°F2.1°C 92% 30.0 mph NW48.3 kmh NW 35.0 mph56.3 kmh 29.49 in998.6 mb 0.01 in0.3 mm 0.00 in/hr0.0 mm/hr 0.14 in3.6 mm
04:06 AM 37.8°F3.2°C 35.7°F2.1°C 92% 32.0 mph NW51.5 kmh NW 35.0 mph56.3 kmh 29.49 in998.6 mb 0.01 in0.3 mm 0.00 in/hr0.0 mm/hr 0.14 in3.6 mm
04:07 AM 37.8°F3.2°C 35.7°F2.1°C 92% 36.0 mph NW57.9 kmh NW 36.0 mph57.9 kmh 29.49 in998.6 mb 0.01 in0.3 mm 0.00 in/hr0.0 mm/hr 0.14 in3.6 mm
04:09 AM 37.8°F3.2°C 35.4°F1.9°C 91% 26.0 mph NW41.8 kmh NW 38.0 mph61.2 kmh 29.50 in999.0 mb 0.01 in0.3 mm 0.00 in/hr0.0 mm/hr 0.14 in3.6 mm
04:10 AM 37.8°F3.2°C 35.4°F1.9°C 91% 24.0 mph NW38.6 kmh NW 38.0 mph61.2 kmh 29.50 in999.0 mb 0.01 in0.3 mm 0.00 in/hr0.0 mm/hr 0.14 in3.6 mm
04:11 AM 37.9°F3.3°C 35.5°F1.9°C 91% 24.0 mph NW38.6 kmh NW 38.0 mph61.2 kmh 29.50 in999.0 mb 0.01 in0.3 mm 0.00 in/hr0.0 mm/hr 0.14 in3.6 mm
04:13 AM 37.9°F3.3°C 35.5°F1.9°C 91% 31.0 mph NW49.9 kmh NW 38.0 mph61.2 kmh 29.50 in999.0 mb 0.01 in0.3 mm 0.00 in/hr0.0 mm/hr 0.14 in3.6 mm
04:14 AM 37.9°F3.3°C 35.5°F1.9°C 91% 31.0 mph NNW49.9 kmh NNW 38.0 mph61.2 kmh 29.50 in999.0 mb 0.01 in0.3 mm 0.00 in/hr0.0 mm/hr 0.14 in3.6 mm
04:15 AM 37.9°F3.3°C 35.5°F1.9°C 91% 22.0 mph NW35.4 kmh NW 38.0 mph61.2 kmh 29.50 in999.0 mb 0.01 in0.3 mm 0.00 in/hr0.0 mm/hr 0.14 in3.6 mm
04:17 AM 38.0°F3.3°C 35.6°F2.0°C 91% 30.0 mph NW48.3 kmh NW 38.0 mph61.2 kmh 29.50 in999.0 mb 0.01 in0.3 mm 0.00 in/hr0.0 mm/hr 0.14 in3.6 mm
04:18 AM 38.0°F3.3°C 35.3°F1.8°C 90% 25.0 mph NW40.2 kmh NW 38.0 mph61.2 kmh 29.50 in999.0 mb 0.01 in0.3 mm 0.00 in/hr0.0 mm/hr 0.14 in3.6 mm
04:19 AM 38.0°F3.3°C 35.6°F2.0°C 91% 24.0 mph NW38.6 kmh NW 38.0 mph61.2 kmh 29.50 in999.0 mb 0.01 in0.3 mm 0.00 in/hr0.0 mm/hr 0.14 in3.6 mm
04:20 AM 38.0°F3.3°C 35.6°F2.0°C 91% 33.0 mph NW53.1 kmh NW 38.0 mph61.2 kmh 29.51 in999.3 mb 0.01 in0.3 mm 0.00 in/hr0.0 mm/hr 0.14 in3.6 mm
04:21 AM 38.0°F3.3°C 35.3°F1.8°C 90% 25.0 mph NW40.2 kmh NW 38.0 mph61.2 kmh 29.51 in999.3 mb 0.01 in0.3 mm 0.00 in/hr0.0 mm/hr 0.14 in3.6 mm
04:22 AM 38.0°F3.3°C 35.6°F2.0°C 91% 29.0 mph NW46.7 kmh NW 38.0 mph61.2 kmh 29.51 in999.3 mb 0.01 in0.3 mm 0.00 in/hr0.0 mm/hr 0.14 in3.6 mm
04:24 AM 38.1°F3.4°C 35.4°F1.9°C 90% 25.0 mph NW40.2 kmh NW 38.0 mph61.2 kmh 29.51 in999.3 mb 0.01 in0.3 mm 0.00 in/hr0.0 mm/hr 0.14 in3.6 mm
04:25 AM 38.1°F3.4°C 35.4°F1.9°C 90% 30.0 mph NW48.3 kmh NW 38.0 mph61.2 kmh 29.51 in999.3 mb 0.01 in0.3 mm 0.00 in/hr0.0 mm/hr 0.14 in3.6 mm
04:26 AM 38.1°F3.4°C 35.4°F1.9°C 90% 25.0 mph NW40.2 kmh NW 38.0 mph61.2 kmh 29.51 in999.3 mb 0.01 in0.3 mm 0.00 in/hr0.0 mm/hr 0.14 in3.6 mm
04:27 AM 38.2°F3.4°C 35.5°F1.9°C 90% 24.0 mph NW38.6 kmh NW 38.0 mph61.2 kmh 29.51 in999.3 mb 0.01 in0.3 mm 0.00 in/hr0.0 mm/hr 0.14 in3.6 mm
04:29 AM 38.2°F3.4°C 35.5°F1.9°C 90% 30.0 mph NW48.3 kmh NW 38.0 mph61.2 kmh 29.52 in999.7 mb 0.01 in0.3 mm 0.00 in/hr0.0 mm/hr 0.14 in3.6 mm
04:30 AM 38.2°F3.4°C 35.5°F1.9°C 90% 32.0 mph NW51.5 kmh NW 38.0 mph61.2 kmh 29.52 in999.7 mb 0.01 in0.3 mm 0.00 in/hr0.0 mm/hr 0.14 in3.6 mm
04:31 AM 38.2°F3.4°C 35.5°F1.9°C 90% 24.0 mph NW38.6 kmh NW 32.0 mph51.5 kmh 29.52 in999.7 mb 0.01 in0.3 mm 0.00 in/hr0.0 mm/hr 0.14 in3.6 mm
04:32 AM 38.1°F3.4°C 35.4°F1.9°C 90% 27.0 mph NW43.5 kmh NW 37.0 mph59.5 kmh 29.52 in999.7 mb 0.01 in0.3 mm 0.00 in/hr0.0 mm/hr 0.14 in3.6 mm
04:34 AM 38.0°F3.3°C 35.3°F1.8°C 90% 28.0 mph NW45.1 kmh NW 37.0 mph59.5 kmh 29.52 in999.7 mb 0.01 in0.3 mm 0.00 in/hr0.0 mm/hr 0.14 in3.6 mm
04:35 AM 38.0°F3.3°C 35.3°F1.8°C 90% 25.0 mph NW40.2 kmh NW 37.0 mph59.5 kmh 29.53 in1000.0 mb 0.01 in0.3 mm 0.00 in/hr0.0 mm/hr 0.14 in3.6 mm
04:36 AM 38.0°F3.3°C 35.6°F2.0°C 91% 23.0 mph NW37.0 kmh NW 37.0 mph59.5 kmh 29.53 in1000.0 mb 0.01 in0.3 mm 0.00 in/hr0.0 mm/hr 0.14 in3.6 mm
04:38 AM 37.9°F3.3°C 35.5°F1.9°C 91% 28.0 mph NW45.1 kmh NW 37.0 mph59.5 kmh 29.53 in1000.0 mb 0.01 in0.3 mm 0.00 in/hr0.0 mm/hr 0.14 in3.6 mm
04:39 AM 37.9°F3.3°C 35.5°F1.9°C 91% 25.0 mph NW40.2 kmh NW 37.0 mph59.5 kmh 29.53 in1000.0 mb 0.01 in0.3 mm 0.00 in/hr0.0 mm/hr 0.14 in3.6 mm
04:40 AM 37.9°F3.3°C 35.5°F1.9°C 91% 27.0 mph NW43.5 kmh NW 37.0 mph59.5 kmh 29.53 in1000.0 mb 0.01 in0.3 mm 0.00 in/hr0.0 mm/hr 0.14 in3.6 mm
04:42 AM 37.8°F3.2°C 35.4°F1.9°C 91% 20.0 mph NW32.2 kmh NW 37.0 mph59.5 kmh 29.54 in1000.3 mb 0.01 in0.3 mm 0.00 in/hr0.0 mm/hr 0.14 in3.6 mm
04:43 AM 37.8°F3.2°C 35.4°F1.9°C 91% 24.0 mph NW38.6 kmh NW 37.0 mph59.5 kmh 29.54 in1000.3 mb 0.01 in0.3 mm 0.00 in/hr0.0 mm/hr 0.14 in3.6 mm
04:44 AM 37.8°F3.2°C 35.4°F1.9°C 91% 38.0 mph NW61.2 kmh NW 38.0 mph61.2 kmh 29.54 in1000.3 mb 0.01 in0.3 mm 0.00 in/hr0.0 mm/hr 0.14 in3.6 mm
04:45 AM 37.8°F3.2°C 35.7°F2.1°C 92% 31.0 mph NW49.9 kmh NW 38.0 mph61.2 kmh 29.54 in1000.3 mb 0.01 in0.3 mm 0.00 in/hr0.0 mm/hr 0.14 in3.6 mm
04:46 AM 37.7°F3.2°C 35.3°F1.8°C 91% 25.0 mph NW40.2 kmh NW 38.0 mph61.2 kmh 29.54 in1000.3 mb 0.01 in0.3 mm 0.00 in/hr0.0 mm/hr 0.14 in3.6 mm
04:48 AM 37.7°F3.2°C 35.3°F1.8°C 91% 30.0 mph NW48.3 kmh NW 38.0 mph61.2 kmh 29.54 in1000.3 mb 0.01 in0.3 mm 0.00 in/hr0.0 mm/hr 0.14 in3.6 mm
04:50 AM 37.6°F3.1°C 35.2°F1.8°C 91% 22.0 mph NW35.4 kmh NW 38.0 mph61.2 kmh 29.55 in1000.7 mb 0.01 in0.3 mm 0.00 in/hr0.0 mm/hr 0.14 in3.6 mm
04:51 AM 37.6°F3.1°C 35.5°F1.9°C 92% 25.0 mph NW40.2 kmh NW 38.0 mph61.2 kmh 29.55 in1000.7 mb 0.01 in0.3 mm 0.00 in/hr0.0 mm/hr 0.14 in3.6 mm
04:52 AM 37.6°F3.1°C 35.5°F1.9°C 92% 25.0 mph NW40.2 kmh NW 38.0 mph61.2 kmh 29.55 in1000.7 mb 0.01 in0.3 mm 0.00 in/hr0.0 mm/hr 0.14 in3.6 mm
04:53 AM 37.6°F3.1°C 35.5°F1.9°C 92% 33.0 mph NW53.1 kmh NW 38.0 mph61.2 kmh 29.55 in1000.7 mb 0.01 in0.3 mm 0.00 in/hr0.0 mm/hr 0.14 in3.6 mm
04:55 AM 37.5°F3.1°C 35.4°F1.9°C 92% 23.0 mph NW37.0 kmh NW 38.0 mph61.2 kmh 29.55 in1000.7 mb 0.01 in0.3 mm 0.00 in/hr0.0 mm/hr 0.14 in3.6 mm
04:56 AM 37.5°F3.1°C 35.4°F1.9°C 92% 35.0 mph NW56.3 kmh NW 38.0 mph61.2 kmh 29.55 in1000.7 mb 0.01 in0.3 mm 0.00 in/hr0.0 mm/hr 0.14 in3.6 mm
04:58 AM 37.5°F3.1°C 35.4°F1.9°C 92% 28.0 mph NW45.1 kmh NW 38.0 mph61.2 kmh 29.56 in1001.0 mb 0.01 in0.3 mm 0.00 in/hr0.0 mm/hr 0.14 in3.6 mm
04:59 AM 37.5°F3.1°C 35.4°F1.9°C 92% 30.0 mph NW48.3 kmh NW 38.0 mph61.2 kmh 29.56 in1001.0 mb 0.01 in0.3 mm 0.00 in/hr0.0 mm/hr 0.14 in3.6 mm
05:00 AM 37.5°F3.1°C 35.4°F1.9°C 92% 33.0 mph NW53.1 kmh NW 38.0 mph61.2 kmh 29.56 in1001.0 mb 0.01 in0.3 mm 0.00 in/hr0.0 mm/hr 0.14 in3.6 mm
05:01 AM 37.5°F3.1°C 35.4°F1.9°C 92% 27.0 mph NW43.5 kmh NW 32.0 mph51.5 kmh 29.56 in1001.0 mb 0.00 in0.0 mm 0.00 in/hr0.0 mm/hr 0.14 in3.6 mm
05:03 AM 37.5°F3.1°C 35.4°F1.9°C 92% 27.0 mph WNW43.5 kmh WNW 32.0 mph51.5 kmh 29.56 in1001.0 mb 0.00 in0.0 mm 0.00 in/hr0.0 mm/hr 0.14 in3.6 mm
05:04 AM 37.5°F3.1°C 35.4°F1.9°C 92% 23.0 mph NW37.0 kmh NW 32.0 mph51.5 kmh 29.56 in1001.0 mb 0.00 in0.0 mm 0.00 in/hr0.0 mm/hr 0.14 in3.6 mm
05:05 AM 37.5°F3.1°C 35.4°F1.9°C 92% 28.0 mph NW45.1 kmh NW 32.0 mph51.5 kmh 29.56 in1001.0 mb 0.00 in0.0 mm 0.00 in/hr0.0 mm/hr 0.14 in3.6 mm
05:07 AM 37.5°F3.1°C 35.4°F1.9°C 92% 29.0 mph NW46.7 kmh NW 39.0 mph62.8 kmh 29.57 in1001.4 mb 0.00 in0.0 mm 0.00 in/hr0.0 mm/hr 0.14 in3.6 mm
05:08 AM 37.4°F3.0°C 35.3°F1.8°C 92% 31.0 mph NW49.9 kmh NW 41.0 mph66.0 kmh 29.57 in1001.4 mb 0.00 in0.0 mm 0.00 in/hr0.0 mm/hr 0.14 in3.6 mm
05:09 AM 37.4°F3.0°C 35.3°F1.8°C 92% 28.0 mph NW45.1 kmh NW 41.0 mph66.0 kmh 29.57 in1001.4 mb 0.00 in0.0 mm 0.00 in/hr0.0 mm/hr 0.14 in3.6 mm
05:10 AM 37.4°F3.0°C 35.3°F1.8°C 92% 29.0 mph NW46.7 kmh NW 41.0 mph66.0 kmh 29.57 in1001.4 mb 0.00 in0.0 mm 0.00 in/hr0.0 mm/hr 0.14 in3.6 mm
05:11 AM 37.4°F3.0°C 35.3°F1.8°C 92% 21.0 mph NW33.8 kmh NW 41.0 mph66.0 kmh 29.57 in1001.4 mb 0.00 in0.0 mm 0.00 in/hr0.0 mm/hr 0.14 in3.6 mm
05:12 AM 37.4°F3.0°C 35.3°F1.8°C 92% 21.0 mph NW33.8 kmh NW 41.0 mph66.0 kmh 29.57 in1001.4 mb 0.00 in0.0 mm 0.00 in/hr0.0 mm/hr 0.14 in3.6 mm
05:13 AM 37.4°F3.0°C 35.3°F1.8°C 92% 27.0 mph NW43.5 kmh NW 41.0 mph66.0 kmh 29.58 in1001.7 mb 0.00 in0.0 mm 0.00 in/hr0.0 mm/hr 0.14 in3.6 mm
05:15 AM 37.3°F2.9°C 35.2°F1.8°C 92% 31.0 mph NW49.9 kmh NW 41.0 mph66.0 kmh 29.57 in1001.4 mb 0.00 in0.0 mm 0.00 in/hr0.0 mm/hr 0.14 in3.6 mm
05:16 AM 37.3°F2.9°C 35.2°F1.8°C 92% 35.0 mph WNW56.3 kmh WNW 41.0 mph66.0 kmh 29.58 in1001.7 mb 0.00 in0.0 mm 0.00 in/hr0.0 mm/hr 0.14 in3.6 mm
05:18 AM 37.3°F2.9°C 35.2°F1.8°C 92% 30.0 mph NW48.3 kmh NW 41.0 mph66.0 kmh 29.58 in1001.7 mb 0.00 in0.0 mm 0.00 in/hr0.0 mm/hr 0.14 in3.6 mm
05:20 AM 37.3°F2.9°C 35.2°F1.8°C 92% 22.0 mph NW35.4 kmh NW 41.0 mph66.0 kmh 29.58 in1001.7 mb 0.00 in0.0 mm 0.00 in/hr0.0 mm/hr 0.14 in3.6 mm
05:21 AM 37.3°F2.9°C 35.2°F1.8°C 92% 30.0 mph NW48.3 kmh NW 41.0 mph66.0 kmh 29.59 in1002.0 mb 0.00 in0.0 mm 0.00 in/hr0.0 mm/hr 0.14 in3.6 mm
05:22 AM 37.3°F2.9°C 35.2°F1.8°C 92% 29.0 mph NW46.7 kmh NW 41.0 mph66.0 kmh 29.59 in1002.0 mb 0.00 in0.0 mm 0.00 in/hr0.0 mm/hr 0.14 in3.6 mm
05:23 AM 37.3°F2.9°C 35.2°F1.8°C 92% 27.0 mph NW43.5 kmh NW 41.0 mph66.0 kmh 29.59 in1002.0 mb 0.00 in0.0 mm 0.00 in/hr0.0 mm/hr 0.14 in3.6 mm
05:25 AM 37.3°F2.9°C 35.2°F1.8°C 92% 22.0 mph NW35.4 kmh NW 41.0 mph66.0 kmh 29.59 in1002.0 mb 0.00 in0.0 mm 0.00 in/hr0.0 mm/hr 0.14 in3.6 mm
05:27 AM 37.3°F2.9°C 35.2°F1.8°C 92% 22.0 mph NW35.4 kmh NW 41.0 mph66.0 kmh 29.59 in1002.0 mb 0.00 in0.0 mm 0.00 in/hr0.0 mm/hr 0.14 in3.6 mm
05:28 AM 37.2°F2.9°C 35.1°F1.7°C 92% 22.0 mph NW35.4 kmh NW 41.0 mph66.0 kmh 29.59 in1002.0 mb 0.00 in0.0 mm 0.00 in/hr0.0 mm/hr 0.14 in3.6 mm
05:29 AM 37.2°F2.9°C 35.1°F1.7°C 92% 29.0 mph NW46.7 kmh NW 41.0 mph66.0 kmh 29.60 in1002.4 mb 0.00 in0.0 mm 0.00 in/hr0.0 mm/hr 0.14 in3.6 mm
05:30 AM 37.2°F2.9°C 35.1°F1.7°C 92% 24.0 mph NW38.6 kmh NW 41.0 mph66.0 kmh 29.60 in1002.4 mb 0.00 in0.0 mm 0.00 in/hr0.0 mm/hr 0.14 in3.6 mm
05:31 AM 37.2°F2.9°C 35.1°F1.7°C 92% 21.0 mph NW33.8 kmh NW 25.0 mph40.2 kmh 29.60 in1002.4 mb 0.00 in0.0 mm 0.00 in/hr0.0 mm/hr 0.14 in3.6 mm
05:32 AM 37.2°F2.9°C 35.1°F1.7°C 92% 32.0 mph NW51.5 kmh NW 32.0 mph51.5 kmh 29.60 in1002.4 mb 0.00 in0.0 mm 0.00 in/hr0.0 mm/hr 0.14 in3.6 mm
05:33 AM 37.2°F2.9°C 35.1°F1.7°C 92% 30.0 mph NW48.3 kmh NW 32.0 mph51.5 kmh 29.60 in1002.4 mb 0.00 in0.0 mm 0.00 in/hr0.0 mm/hr 0.14 in3.6 mm
05:34 AM 37.2°F2.9°C 35.1°F1.7°C 92% 27.0 mph NW43.5 kmh NW 32.0 mph51.5 kmh 29.60 in1002.4 mb 0.00 in0.0 mm 0.00 in/hr0.0 mm/hr 0.14 in3.6 mm
05:36 AM 37.2°F2.9°C 35.1°F1.7°C 92% 27.0 mph NW43.5 kmh NW 34.0 mph54.7 kmh 29.60 in1002.4 mb 0.00 in0.0 mm 0.00 in/hr0.0 mm/hr 0.14 in3.6 mm
05:37 AM 37.2°F2.9°C 35.1°F1.7°C 92% 28.0 mph NW45.1 kmh NW 34.0 mph54.7 kmh 29.60 in1002.4 mb 0.00 in0.0 mm 0.00 in/hr0.0 mm/hr 0.14 in3.6 mm
05:38 AM 37.2°F2.9°C 35.1°F1.7°C 92% 24.0 mph NW38.6 kmh NW 34.0 mph54.7 kmh 29.60 in1002.4 mb 0.00 in0.0 mm 0.00 in/hr0.0 mm/hr 0.14 in3.6 mm
05:39 AM 37.2°F2.9°C 35.1°F1.7°C 92% 28.0 mph NW45.1 kmh NW 34.0 mph54.7 kmh 29.60 in1002.4 mb 0.00 in0.0 mm 0.00 in/hr0.0 mm/hr 0.14 in3.6 mm
05:40 AM 37.2°F2.9°C 35.1°F1.7°C 92% 33.0 mph NW53.1 kmh NW 34.0 mph54.7 kmh 29.60 in1002.4 mb 0.00 in0.0 mm 0.00 in/hr0.0 mm/hr 0.14 in3.6 mm
05:41 AM 37.2°F2.9°C 35.1°F1.7°C 92% 26.0 mph NW41.8 kmh NW 35.0 mph56.3 kmh 29.60 in1002.4 mb 0.00 in0.0 mm 0.00 in/hr0.0 mm/hr 0.14 in3.6 mm
05:42 AM 37.2°F2.9°C 35.1°F1.7°C 92% 26.0 mph NW41.8 kmh NW 35.0 mph56.3 kmh 29.61 in1002.7 mb 0.00 in0.0 mm 0.00 in/hr0.0 mm/hr 0.14 in3.6 mm
05:44 AM 37.3°F2.9°C 35.2°F1.8°C 92% 30.0 mph NW48.3 kmh NW 35.0 mph56.3 kmh 29.61 in1002.7 mb 0.00 in0.0 mm 0.00 in/hr0.0 mm/hr 0.14 in3.6 mm
05:45 AM 37.3°F2.9°C 35.2°F1.8°C 92% 31.0 mph NW49.9 kmh NW 35.0 mph56.3 kmh 29.61 in1002.7 mb 0.00 in0.0 mm 0.00 in/hr0.0 mm/hr 0.14 in3.6 mm
05:47 AM 37.3°F2.9°C 35.2°F1.8°C 92% 27.0 mph NW43.5 kmh NW 35.0 mph56.3 kmh 29.61 in1002.7 mb 0.01 in0.3 mm 0.30 in/hr7.6 mm/hr 0.15 in3.8 mm
05:48 AM 37.4°F3.0°C 35.3°F1.8°C 92% 21.0 mph NW33.8 kmh NW 35.0 mph56.3 kmh 29.62 in1003.0 mb 0.01 in0.3 mm 0.00 in/hr0.0 mm/hr 0.15 in3.8 mm
05:50 AM 37.4°F3.0°C 35.3°F1.8°C 92% 31.0 mph NW49.9 kmh NW 35.0 mph56.3 kmh 29.61 in1002.7 mb 0.01 in0.3 mm 0.00 in/hr0.0 mm/hr 0.15 in3.8 mm
05:51 AM 37.5°F3.1°C 35.4°F1.9°C 92% 30.0 mph NW48.3 kmh NW 35.0 mph56.3 kmh 29.62 in1003.0 mb 0.01 in0.3 mm 0.00 in/hr0.0 mm/hr 0.15 in3.8 mm
05:52 AM 37.5°F3.1°C 35.4°F1.9°C 92% 25.0 mph NW40.2 kmh NW 35.0 mph56.3 kmh 29.62 in1003.0 mb 0.01 in0.3 mm 0.00 in/hr0.0 mm/hr 0.15 in3.8 mm
05:53 AM 37.6°F3.1°C 35.5°F1.9°C 92% 31.0 mph NW49.9 kmh NW 37.0 mph59.5 kmh 29.62 in1003.0 mb 0.01 in0.3 mm 0.00 in/hr0.0 mm/hr 0.15 in3.8 mm
05:55 AM 37.6°F3.1°C 35.2°F1.8°C 91% 28.0 mph NW45.1 kmh NW 37.0 mph59.5 kmh 29.62 in1003.0 mb 0.01 in0.3 mm 0.00 in/hr0.0 mm/hr 0.15 in3.8 mm
05:56 AM 37.7°F3.2°C 35.3°F1.8°C 91% 31.0 mph NW49.9 kmh NW 37.0 mph59.5 kmh 29.62 in1003.0 mb 0.01 in0.3 mm 0.00 in/hr0.0 mm/hr 0.15 in3.8 mm
05:57 AM 37.7°F3.2°C 35.3°F1.8°C 91% 26.0 mph NW41.8 kmh NW 37.0 mph59.5 kmh 29.63 in1003.4 mb 0.01 in0.3 mm 0.00 in/hr0.0 mm/hr 0.15 in3.8 mm
05:58 AM 37.7°F3.2°C 35.3°F1.8°C 91% 32.0 mph NW51.5 kmh NW 37.0 mph59.5 kmh 29.63 in1003.4 mb 0.01 in0.3 mm 0.00 in/hr0.0 mm/hr 0.15 in3.8 mm
05:59 AM 37.7°F3.2°C 35.3°F1.8°C 91% 27.0 mph NW43.5 kmh NW 38.0 mph61.2 kmh 29.63 in1003.4 mb 0.01 in0.3 mm 0.00 in/hr0.0 mm/hr 0.15 in3.8 mm
06:00 AM 37.8°F3.2°C 35.4°F1.9°C 91% 30.0 mph NW48.3 kmh NW 38.0 mph61.2 kmh 29.63 in1003.4 mb 0.01 in0.3 mm 0.00 in/hr0.0 mm/hr 0.15 in3.8 mm
06:01 AM 37.8°F3.2°C 35.4°F1.9°C 91% 32.0 mph NW51.5 kmh NW 34.0 mph54.7 kmh 29.63 in1003.4 mb 0.01 in0.3 mm 0.00 in/hr0.0 mm/hr 0.15 in3.8 mm
06:02 AM 37.8°F3.2°C 35.4°F1.9°C 91% 30.0 mph NW48.3 kmh NW 34.0 mph54.7 kmh 29.64 in1003.7 mb 0.01 in0.3 mm 0.00 in/hr0.0 mm/hr 0.15 in3.8 mm
06:03 AM 37.7°F3.2°C 35.3°F1.8°C 91% 29.0 mph NW46.7 kmh NW 34.0 mph54.7 kmh 29.64 in1003.7 mb 0.01 in0.3 mm 0.00 in/hr0.0 mm/hr 0.15 in3.8 mm
06:05 AM 37.8°F3.2°C 35.4°F1.9°C 91% 26.0 mph NW41.8 kmh NW 34.0 mph54.7 kmh 29.64 in1003.7 mb 0.01 in0.3 mm 0.00 in/hr0.0 mm/hr 0.15 in3.8 mm
06:06 AM 37.7°F3.2°C 35.3°F1.8°C 91% 31.0 mph NW49.9 kmh NW 34.0 mph54.7 kmh 29.64 in1003.7 mb 0.01 in0.3 mm 0.00 in/hr0.0 mm/hr 0.15 in3.8 mm
06:08 AM 37.7°F3.2°C 35.3°F1.8°C 91% 31.0 mph NW49.9 kmh NW 34.0 mph54.7 kmh 29.64 in1003.7 mb 0.01 in0.3 mm 0.00 in/hr0.0 mm/hr 0.15 in3.8 mm
06:10 AM 37.7°F3.2°C 35.3°F1.8°C 91% 29.0 mph NW46.7 kmh NW 34.0 mph54.7 kmh 29.64 in1003.7 mb 0.01 in0.3 mm 0.00 in/hr0.0 mm/hr 0.15 in3.8 mm
06:11 AM 37.7°F3.2°C 35.3°F1.8°C 91% 24.0 mph NW38.6 kmh NW 34.0 mph54.7 kmh 29.65 in1004.1 mb 0.01 in0.3 mm 0.00 in/hr0.0 mm/hr 0.15 in3.8 mm
06:12 AM 37.7°F3.2°C 35.3°F1.8°C 91% 21.0 mph NW33.8 kmh NW 34.0 mph54.7 kmh 29.65 in1004.1 mb 0.01 in0.3 mm 0.00 in/hr0.0 mm/hr 0.15 in3.8 mm
06:13 AM 37.7°F3.2°C 35.3°F1.8°C 91% 24.0 mph NW38.6 kmh NW 34.0 mph54.7 kmh 29.64 in1003.7 mb 0.01 in0.3 mm 0.00 in/hr0.0 mm/hr 0.15 in3.8 mm
06:15 AM 37.6°F3.1°C 35.2°F1.8°C 91% 26.0 mph NW41.8 kmh NW 34.0 mph54.7 kmh 29.65 in1004.1 mb 0.01 in0.3 mm 0.00 in/hr0.0 mm/hr 0.15 in3.8 mm
06:16 AM 37.6°F3.1°C 35.5°F1.9°C 92% 20.0 mph NW32.2 kmh NW 34.0 mph54.7 kmh 29.65 in1004.1 mb 0.01 in0.3 mm 0.00 in/hr0.0 mm/hr 0.15 in3.8 mm
06:17 AM 37.6°F3.1°C 35.5°F1.9°C 92% 26.0 mph NW41.8 kmh NW 34.0 mph54.7 kmh 29.65 in1004.1 mb 0.01 in0.3 mm 0.00 in/hr0.0 mm/hr 0.15 in3.8 mm
06:18 AM 37.6°F3.1°C 35.2°F1.8°C 91% 30.0 mph NW48.3 kmh NW 35.0 mph56.3 kmh 29.65 in1004.1 mb 0.01 in0.3 mm 0.00 in/hr0.0 mm/hr 0.15 in3.8 mm
06:20 AM 37.6°F3.1°C 35.2°F1.8°C 91% 27.0 mph NW43.5 kmh NW 35.0 mph56.3 kmh 29.65 in1004.1 mb 0.01 in0.3 mm 0.00 in/hr0.0 mm/hr 0.15 in3.8 mm
06:21 AM 37.6°F3.1°C 35.2°F1.8°C 91% 30.0 mph NW48.3 kmh NW 35.0 mph56.3 kmh 29.65 in1004.1 mb 0.01 in0.3 mm 0.00 in/hr0.0 mm/hr 0.15 in3.8 mm
06:22 AM 37.6°F3.1°C 35.2°F1.8°C 91% 25.0 mph NW40.2 kmh NW 35.0 mph56.3 kmh 29.65 in1004.1 mb 0.01 in0.3 mm 0.00 in/hr0.0 mm/hr 0.15 in3.8 mm
06:23 AM 37.6°F3.1°C 35.2°F1.8°C 91% 27.0 mph NW43.5 kmh NW 35.0 mph56.3 kmh 29.66 in1004.4 mb 0.01 in0.3 mm 0.00 in/hr0.0 mm/hr 0.15 in3.8 mm
06:24 AM 37.6°F3.1°C 35.5°F1.9°C 92% 26.0 mph NW41.8 kmh NW 35.0 mph56.3 kmh 29.66 in1004.4 mb 0.01 in0.3 mm 0.00 in/hr0.0 mm/hr 0.15 in3.8 mm
06:26 AM 37.6°F3.1°C 35.5°F1.9°C 92% 27.0 mph NW43.5 kmh NW 35.0 mph56.3 kmh 29.66 in1004.4 mb 0.01 in0.3 mm 0.00 in/hr0.0 mm/hr 0.15 in3.8 mm
06:27 AM 37.5°F3.1°C 35.4°F1.9°C 92% 21.0 mph NW33.8 kmh NW 35.0 mph56.3 kmh 29.66 in1004.4 mb 0.01 in0.3 mm 0.00 in/hr0.0 mm/hr 0.15 in3.8 mm
06:28 AM 37.5°F3.1°C 35.4°F1.9°C 92% 27.0 mph NW43.5 kmh NW 35.0 mph56.3 kmh 29.66 in1004.4 mb 0.01 in0.3 mm 0.00 in/hr0.0 mm/hr 0.15 in3.8 mm
06:29 AM 37.5°F3.1°C 35.4°F1.9°C 92% 27.0 mph NW43.5 kmh NW 35.0 mph56.3 kmh 29.66 in1004.4 mb 0.01 in0.3 mm 0.00 in/hr0.0 mm/hr 0.15 in3.8 mm
06:30 AM 37.4°F3.0°C 35.3°F1.8°C 92% 31.0 mph NW49.9 kmh NW 35.0 mph56.3 kmh 29.66 in1004.4 mb 0.01 in0.3 mm 0.00 in/hr0.0 mm/hr 0.15 in3.8 mm
06:32 AM 37.2°F2.9°C 35.1°F1.7°C 92% 26.0 mph WNW41.8 kmh WNW 32.0 mph51.5 kmh 29.66 in1004.4 mb 0.01 in0.3 mm 0.00 in/hr0.0 mm/hr 0.15 in3.8 mm
06:33 AM 37.2°F2.9°C 35.1°F1.7°C 92% 33.0 mph NW53.1 kmh NW 33.0 mph53.1 kmh 29.67 in1004.7 mb 0.01 in0.3 mm 0.00 in/hr0.0 mm/hr 0.15 in3.8 mm
06:34 AM 37.1°F2.8°C 35.0°F1.7°C 92% 25.0 mph NW40.2 kmh NW 35.0 mph56.3 kmh 29.67 in1004.7 mb 0.01 in0.3 mm 0.00 in/hr0.0 mm/hr 0.15 in3.8 mm
06:36 AM 37.0°F2.8°C 34.9°F1.6°C 92% 21.0 mph NW33.8 kmh NW 35.0 mph56.3 kmh 29.67 in1004.7 mb 0.01 in0.3 mm 0.00 in/hr0.0 mm/hr 0.15 in3.8 mm
06:37 AM 37.0°F2.8°C 34.9°F1.6°C 92% 30.0 mph NW48.3 kmh NW 35.0 mph56.3 kmh 29.67 in1004.7 mb 0.01 in0.3 mm 0.00 in/hr0.0 mm/hr 0.15 in3.8 mm
06:38 AM 37.0°F2.8°C 34.9°F1.6°C 92% 28.0 mph NW45.1 kmh NW 35.0 mph56.3 kmh 29.68 in1005.1 mb 0.01 in0.3 mm 0.00 in/hr0.0 mm/hr 0.15 in3.8 mm
06:40 AM 36.9°F2.7°C 34.8°F1.6°C 92% 30.0 mph NW48.3 kmh NW 35.0 mph56.3 kmh 29.67 in1004.7 mb 0.01 in0.3 mm 0.00 in/hr0.0 mm/hr 0.15 in3.8 mm
06:41 AM 36.9°F2.7°C 34.8°F1.6°C 92% 24.0 mph WNW38.6 kmh WNW 35.0 mph56.3 kmh 29.68 in1005.1 mb 0.01 in0.3 mm 0.00 in/hr0.0 mm/hr 0.15 in3.8 mm
06:42 AM 36.9°F2.7°C 34.8°F1.6°C 92% 26.0 mph NW41.8 kmh NW 35.0 mph56.3 kmh 29.68 in1005.1 mb 0.01 in0.3 mm 0.00 in/hr0.0 mm/hr 0.15 in3.8 mm
06:43 AM 36.9°F2.7°C 34.8°F1.6°C 92% 26.0 mph NW41.8 kmh NW 35.0 mph56.3 kmh 29.68 in1005.1 mb 0.01 in0.3 mm 0.00 in/hr0.0 mm/hr 0.15 in3.8 mm
06:44 AM 36.9°F2.7°C 34.8°F1.6°C 92% 28.0 mph NW45.1 kmh NW 35.0 mph56.3 kmh 29.68 in1005.1 mb 0.01 in0.3 mm 0.00 in/hr0.0 mm/hr 0.15 in3.8 mm
06:45 AM 36.9°F2.7°C 34.8°F1.6°C 92% 26.0 mph NW41.8 kmh NW 35.0 mph56.3 kmh 29.68 in1005.1 mb 0.01 in0.3 mm 0.00 in/hr0.0 mm/hr 0.15 in3.8 mm
06:47 AM 36.9°F2.7°C 34.8°F1.6°C 92% 30.0 mph NW48.3 kmh NW 36.0 mph57.9 kmh 29.68 in1005.1 mb 0.01 in0.3 mm 0.00 in/hr0.0 mm/hr 0.15 in3.8 mm
06:48 AM 36.9°F2.7°C 34.8°F1.6°C 92% 29.0 mph NW46.7 kmh NW 36.0 mph57.9 kmh 29.68 in1005.1 mb 0.01 in0.3 mm 0.00 in/hr0.0 mm/hr 0.15 in3.8 mm
06:49 AM 36.9°F2.7°C 34.8°F1.6°C 92% 25.0 mph NNW40.2 kmh NNW 36.0 mph57.9 kmh 29.68 in1005.1 mb 0.01 in0.3 mm 0.00 in/hr0.0 mm/hr 0.15 in3.8 mm
06:50 AM 37.0°F2.8°C 34.9°F1.6°C 92% 20.0 mph NW32.2 kmh NW 36.0 mph57.9 kmh 29.69 in1005.4 mb 0.01 in0.3 mm 0.00 in/hr0.0 mm/hr 0.15 in3.8 mm
06:51 AM 37.0°F2.8°C 34.9°F1.6°C 92% 28.0 mph NW45.1 kmh NW 36.0 mph57.9 kmh 29.69 in1005.4 mb 0.01 in0.3 mm 0.00 in/hr0.0 mm/hr 0.15 in3.8 mm
06:52 AM 37.0°F2.8°C 34.9°F1.6°C 92% 31.0 mph NW49.9 kmh NW 36.0 mph57.9 kmh 29.69 in1005.4 mb 0.01 in0.3 mm 0.00 in/hr0.0 mm/hr 0.15 in3.8 mm
06:54 AM 37.0°F2.8°C 34.6°F1.4°C 91% 26.0 mph NW41.8 kmh NW 36.0 mph57.9 kmh 29.69 in1005.4 mb 0.01 in0.3 mm 0.00 in/hr0.0 mm/hr 0.15 in3.8 mm
06:55 AM 37.0°F2.8°C 34.6°F1.4°C 91% 28.0 mph NW45.1 kmh NW 36.0 mph57.9 kmh 29.69 in1005.4 mb 0.01 in0.3 mm 0.00 in/hr0.0 mm/hr 0.15 in3.8 mm
06:56 AM 37.1°F2.8°C 34.7°F1.5°C 91% 23.0 mph NW37.0 kmh NW 36.0 mph57.9 kmh 29.70 in1005.8 mb 0.01 in0.3 mm 0.00 in/hr0.0 mm/hr 0.15 in3.8 mm
06:58 AM 37.1°F2.8°C 34.7°F1.5°C 91% 35.0 mph WNW56.3 kmh WNW 36.0 mph57.9 kmh 29.69 in1005.4 mb 0.01 in0.3 mm 0.00 in/hr0.0 mm/hr 0.15 in3.8 mm
06:59 AM 37.1°F2.8°C 34.7°F1.5°C 91% 27.0 mph NW43.5 kmh NW 37.0 mph59.5 kmh 29.70 in1005.8 mb 0.01 in0.3 mm 0.00 in/hr0.0 mm/hr 0.15 in3.8 mm
07:00 AM 37.1°F2.8°C 34.7°F1.5°C 91% 22.0 mph WNW35.4 kmh WNW 37.0 mph59.5 kmh 29.70 in1005.8 mb 0.01 in0.3 mm 0.00 in/hr0.0 mm/hr 0.15 in3.8 mm
07:01 AM 37.1°F2.8°C 34.7°F1.5°C 91% 23.0 mph NW37.0 kmh NW 29.0 mph46.7 kmh 29.70 in1005.8 mb 0.00 in0.0 mm 0.00 in/hr0.0 mm/hr 0.15 in3.8 mm
07:02 AM 37.1°F2.8°C 34.7°F1.5°C 91% 30.0 mph NW48.3 kmh NW 35.0 mph56.3 kmh 29.70 in1005.8 mb 0.00 in0.0 mm 0.00 in/hr0.0 mm/hr 0.15 in3.8 mm
07:05 AM 37.1°F2.8°C 34.4°F1.3°C 90% 25.0 mph NW40.2 kmh NW 35.0 mph56.3 kmh 29.70 in1005.8 mb 0.00 in0.0 mm 0.00 in/hr0.0 mm/hr 0.15 in3.8 mm
07:06 AM 37.2°F2.9°C 34.8°F1.6°C 91% 30.0 mph NW48.3 kmh NW 35.0 mph56.3 kmh 29.70 in1005.8 mb 0.00 in0.0 mm 0.00 in/hr0.0 mm/hr 0.15 in3.8 mm
07:07 AM 37.2°F2.9°C 34.5°F1.4°C 90% 27.0 mph NW43.5 kmh NW 35.0 mph56.3 kmh 29.70 in1005.8 mb 0.00 in0.0 mm 0.00 in/hr0.0 mm/hr 0.15 in3.8 mm
07:09 AM 37.2°F2.9°C 34.8°F1.6°C 91% 31.0 mph NW49.9 kmh NW 35.0 mph56.3 kmh 29.70 in1005.8 mb 0.00 in0.0 mm 0.00 in/hr0.0 mm/hr 0.15 in3.8 mm
07:10 AM 37.2°F2.9°C 34.5°F1.4°C 90% 26.0 mph NW41.8 kmh NW 35.0 mph56.3 kmh 29.71 in1006.1 mb 0.00 in0.0 mm 0.00 in/hr0.0 mm/hr 0.15 in3.8 mm
07:11 AM 37.1°F2.8°C 34.4°F1.3°C 90% 27.0 mph NW43.5 kmh NW 35.0 mph56.3 kmh 29.71 in1006.1 mb 0.00 in0.0 mm 0.00 in/hr0.0 mm/hr 0.15 in3.8 mm
07:12 AM 37.2°F2.9°C 34.5°F1.4°C 90% 29.0 mph NW46.7 kmh NW 35.0 mph56.3 kmh 29.71 in1006.1 mb 0.00 in0.0 mm 0.00 in/hr0.0 mm/hr 0.15 in3.8 mm
07:14 AM 37.1°F2.8°C 34.4°F1.3°C 90% 25.0 mph NW40.2 kmh NW 37.0 mph59.5 kmh 29.71 in1006.1 mb 0.00 in0.0 mm 0.00 in/hr0.0 mm/hr 0.15 in3.8 mm
07:15 AM 37.1°F2.8°C 34.4°F1.3°C 90% 25.0 mph NW40.2 kmh NW 37.0 mph59.5 kmh 29.72 in1006.4 mb 0.00 in0.0 mm 0.00 in/hr0.0 mm/hr 0.15 in3.8 mm
07:16 AM 37.1°F2.8°C 34.4°F1.3°C 90% 20.0 mph WNW32.2 kmh WNW 37.0 mph59.5 kmh 29.72 in1006.4 mb 0.00 in0.0 mm 0.00 in/hr0.0 mm/hr 0.15 in3.8 mm
07:18 AM 37.2°F2.9°C 34.5°F1.4°C 90% 21.0 mph WNW33.8 kmh WNW 37.0 mph59.5 kmh 29.72 in1006.4 mb 0.00 in0.0 mm 0.00 in/hr0.0 mm/hr 0.15 in3.8 mm
07:20 AM 37.1°F2.8°C 34.4°F1.3°C 90% 27.0 mph NW43.5 kmh NW 37.0 mph59.5 kmh 29.72 in1006.4 mb 0.00 in0.0 mm 0.00 in/hr0.0 mm/hr 0.15 in3.8 mm
07:22 AM 37.1°F2.8°C 34.4°F1.3°C 90% 25.0 mph NW40.2 kmh NW 37.0 mph59.5 kmh 29.73 in1006.8 mb 0.00 in0.0 mm 0.00 in/hr0.0 mm/hr 0.15 in3.8 mm
07:23 AM 37.1°F2.8°C 34.4°F1.3°C 90% 27.0 mph NW43.5 kmh NW 37.0 mph59.5 kmh 29.73 in1006.8 mb 0.00 in0.0 mm 0.00 in/hr0.0 mm/hr 0.15 in3.8 mm
07:24 AM 37.1°F2.8°C 34.4°F1.3°C 90% 21.0 mph NW33.8 kmh NW 37.0 mph59.5 kmh 29.73 in1006.8 mb 0.00 in0.0 mm 0.00 in/hr0.0 mm/hr 0.15 in3.8 mm
07:25 AM 37.0°F2.8°C 34.4°F1.3°C 90% 32.0 mph NW51.5 kmh NW 37.0 mph59.5 kmh 29.73 in1006.8 mb 0.00 in0.0 mm 0.00 in/hr0.0 mm/hr 0.15 in3.8 mm
07:27 AM 37.0°F2.8°C 34.4°F1.3°C 90% 30.0 mph WNW48.3 kmh WNW 37.0 mph59.5 kmh 29.73 in1006.8 mb 0.00 in0.0 mm 0.00 in/hr0.0 mm/hr 0.15 in3.8 mm
07:28 AM 37.0°F2.8°C 34.4°F1.3°C 90% 32.0 mph WNW51.5 kmh WNW 37.0 mph59.5 kmh 29.73 in1006.8 mb 0.00 in0.0 mm 0.00 in/hr0.0 mm/hr 0.15 in3.8 mm
07:30 AM 36.9°F2.7°C 34.3°F1.3°C 90% 31.0 mph NW49.9 kmh NW 37.0 mph59.5 kmh 29.74 in1007.1 mb 0.00 in0.0 mm 0.00 in/hr0.0 mm/hr 0.15 in3.8 mm
07:31 AM 36.9°F2.7°C 34.3°F1.3°C 90% 26.0 mph WNW41.8 kmh WNW 30.0 mph48.3 kmh 29.74 in1007.1 mb 0.00 in0.0 mm 0.00 in/hr0.0 mm/hr 0.15 in3.8 mm
07:32 AM 36.9°F2.7°C 34.3°F1.3°C 90% 20.0 mph NW32.2 kmh NW 30.0 mph48.3 kmh 29.74 in1007.1 mb 0.00 in0.0 mm 0.00 in/hr0.0 mm/hr 0.15 in3.8 mm
07:33 AM 36.9°F2.7°C 34.3°F1.3°C 90% 34.0 mph NW54.7 kmh NW 34.0 mph54.7 kmh 29.75 in1007.5 mb 0.00 in0.0 mm 0.00 in/hr0.0 mm/hr 0.15 in3.8 mm
07:34 AM 36.9°F2.7°C 34.3°F1.3°C 90% 27.0 mph NW43.5 kmh NW 34.0 mph54.7 kmh 29.75 in1007.5 mb 0.00 in0.0 mm 0.00 in/hr0.0 mm/hr 0.15 in3.8 mm
07:36 AM 36.8°F2.7°C 34.2°F1.2°C 90% 21.0 mph NW33.8 kmh NW 34.0 mph54.7 kmh 29.75 in1007.5 mb 0.00 in0.0 mm 0.00 in/hr0.0 mm/hr 0.15 in3.8 mm
07:37 AM 36.8°F2.7°C 34.2°F1.2°C 90% 33.0 mph WNW53.1 kmh WNW 34.0 mph54.7 kmh 29.75 in1007.5 mb 0.00 in0.0 mm 0.00 in/hr0.0 mm/hr 0.15 in3.8 mm
07:38 AM 36.8°F2.7°C 34.2°F1.2°C 90% 24.0 mph NW38.6 kmh NW 34.0 mph54.7 kmh 29.75 in1007.5 mb 0.00 in0.0 mm 0.00 in/hr0.0 mm/hr 0.15 in3.8 mm
07:40 AM 36.7°F2.6°C 34.1°F1.2°C 90% 28.0 mph NW45.1 kmh NW 34.0 mph54.7 kmh 29.75 in1007.5 mb 0.00 in0.0 mm 0.00 in/hr0.0 mm/hr 0.15 in3.8 mm
07:41 AM 36.6°F2.6°C 34.0°F1.1°C 90% 36.0 mph NW57.9 kmh NW 36.0 mph57.9 kmh 29.75 in1007.5 mb 0.00 in0.0 mm 0.00 in/hr0.0 mm/hr 0.15 in3.8 mm
07:42 AM 36.6°F2.6°C 33.7°F0.9°C 89% 24.0 mph WNW38.6 kmh WNW 36.0 mph57.9 kmh 29.75 in1007.5 mb 0.00 in0.0 mm 0.00 in/hr0.0 mm/hr 0.15 in3.8 mm
07:43 AM 36.5°F2.5°C 33.9°F1.1°C 90% 27.0 mph NW43.5 kmh NW 36.0 mph57.9 kmh 29.75 in1007.5 mb 0.00 in0.0 mm 0.00 in/hr0.0 mm/hr 0.15 in3.8 mm
07:45 AM 36.5°F2.5°C 33.9°F1.1°C 90% 31.0 mph WNW49.9 kmh WNW 36.0 mph57.9 kmh 29.75 in1007.5 mb 0.00 in0.0 mm 0.00 in/hr0.0 mm/hr 0.15 in3.8 mm
07:46 AM 36.4°F2.4°C 33.8°F1.0°C 90% 33.0 mph NW53.1 kmh NW 37.0 mph59.5 kmh 29.76 in1007.8 mb 0.00 in0.0 mm 0.00 in/hr0.0 mm/hr 0.15 in3.8 mm
07:47 AM 36.4°F2.4°C 33.5°F0.8°C 89% 27.0 mph WNW43.5 kmh WNW 37.0 mph59.5 kmh 29.76 in1007.8 mb 0.00 in0.0 mm 0.00 in/hr0.0 mm/hr 0.15 in3.8 mm
07:48 AM 36.4°F2.4°C 33.5°F0.8°C 89% 23.0 mph WNW37.0 kmh WNW 37.0 mph59.5 kmh 29.76 in1007.8 mb 0.00 in0.0 mm 0.00 in/hr0.0 mm/hr 0.15 in3.8 mm
07:50 AM 36.4°F2.4°C 33.8°F1.0°C 90% 26.0 mph NW41.8 kmh NW 37.0 mph59.5 kmh 29.76 in1007.8 mb 0.00 in0.0 mm 0.00 in/hr0.0 mm/hr 0.15 in3.8 mm
07:51 AM 36.4°F2.4°C 33.8°F1.0°C 90% 21.0 mph NW33.8 kmh NW 37.0 mph59.5 kmh 29.76 in1007.8 mb 0.00 in0.0 mm 0.00 in/hr0.0 mm/hr 0.15 in3.8 mm
07:52 AM 36.3°F2.4°C 33.7°F0.9°C 90% 26.0 mph NW41.8 kmh NW 37.0 mph59.5 kmh 29.76 in1007.8 mb 0.00 in0.0 mm 0.00 in/hr0.0 mm/hr 0.15 in3.8 mm
07:53 AM 36.3°F2.4°C 33.4°F0.8°C 89% 26.0 mph WNW41.8 kmh WNW 37.0 mph59.5 kmh 29.76 in1007.8 mb 0.00 in0.0 mm 0.00 in/hr0.0 mm/hr 0.15 in3.8 mm
07:54 AM 36.3°F2.4°C 33.4°F0.8°C 89% 28.0 mph NW45.1 kmh NW 37.0 mph59.5 kmh 29.77 in1008.1 mb 0.00 in0.0 mm 0.00 in/hr0.0 mm/hr 0.15 in3.8 mm
07:56 AM 36.3°F2.4°C 33.4°F0.8°C 89% 28.0 mph WNW45.1 kmh WNW 37.0 mph59.5 kmh 29.77 in1008.1 mb 0.00 in0.0 mm 0.00 in/hr0.0 mm/hr 0.15 in3.8 mm
07:57 AM 36.2°F2.3°C 33.3°F0.7°C 89% 24.0 mph NW38.6 kmh NW 37.0 mph59.5 kmh 29.77 in1008.1 mb 0.00 in0.0 mm 0.00 in/hr0.0 mm/hr 0.15 in3.8 mm
07:59 AM 36.2°F2.3°C 33.3°F0.7°C 89% 24.0 mph NW38.6 kmh NW 37.0 mph59.5 kmh 29.77 in1008.1 mb 0.00 in0.0 mm 0.00 in/hr0.0 mm/hr 0.15 in3.8 mm
08:00 AM 36.3°F2.4°C 33.4°F0.8°C 89% 24.0 mph NW38.6 kmh NW 37.0 mph59.5 kmh 29.77 in1008.1 mb 0.00 in0.0 mm 0.00 in/hr0.0 mm/hr 0.15 in3.8 mm
08:01 AM 36.2°F2.3°C 33.3°F0.7°C 89% 24.0 mph NW38.6 kmh NW 28.0 mph45.1 kmh 29.77 in1008.1 mb 0.00 in0.0 mm 0.00 in/hr0.0 mm/hr 0.15 in3.8 mm
08:03 AM 36.3°F2.4°C 33.4°F0.8°C 89% 24.0 mph WNW38.6 kmh WNW 29.0 mph46.7 kmh 29.77 in1008.1 mb 0.00 in0.0 mm 0.00 in/hr0.0 mm/hr 0.15 in3.8 mm
08:04 AM 36.3°F2.4°C 33.4°F0.8°C 89% 29.0 mph NW46.7 kmh NW 33.0 mph53.1 kmh 29.77 in1008.1 mb 0.00 in0.0 mm 0.00 in/hr0.0 mm/hr 0.15 in3.8 mm
08:06 AM 36.4°F2.4°C 33.5°F0.8°C 89% 23.0 mph NW37.0 kmh NW 33.0 mph53.1 kmh 29.78 in1008.5 mb 0.00 in0.0 mm 0.00 in/hr0.0 mm/hr 0.15 in3.8 mm
08:07 AM 36.4°F2.4°C 33.8°F1.0°C 90% 31.0 mph NW49.9 kmh NW 33.0 mph53.1 kmh 29.78 in1008.5 mb 0.00 in0.0 mm 0.00 in/hr0.0 mm/hr 0.15 in3.8 mm
08:08 AM 36.4°F2.4°C 33.5°F0.8°C 89% 27.0 mph NW43.5 kmh NW 33.0 mph53.1 kmh 29.78 in1008.5 mb 0.00 in0.0 mm 0.00 in/hr0.0 mm/hr 0.15 in3.8 mm
08:10 AM 36.5°F2.5°C 33.6°F0.9°C 89% 27.0 mph NW43.5 kmh NW 33.0 mph53.1 kmh 29.78 in1008.5 mb 0.00 in0.0 mm 0.00 in/hr0.0 mm/hr 0.15 in3.8 mm
08:11 AM 36.5°F2.5°C 33.9°F1.1°C 90% 27.0 mph NW43.5 kmh NW 33.0 mph53.1 kmh 29.78 in1008.5 mb 0.00 in0.0 mm 0.00 in/hr0.0 mm/hr 0.15 in3.8 mm
08:13 AM 36.6°F2.6°C 34.0°F1.1°C 90% 18.0 mph WNW29.0 kmh WNW 33.0 mph53.1 kmh 29.79 in1008.8 mb 0.00 in0.0 mm 0.00 in/hr0.0 mm/hr 0.15 in3.8 mm
08:15 AM 36.6°F2.6°C 33.7°F0.9°C 89% 16.0 mph WNW25.7 kmh WNW 33.0 mph53.1 kmh 29.79 in1008.8 mb 0.00 in0.0 mm 0.00 in/hr0.0 mm/hr 0.15 in3.8 mm
08:17 AM 36.5°F2.5°C 33.9°F1.1°C 90% 29.0 mph NW46.7 kmh NW 33.0 mph53.1 kmh 29.79 in1008.8 mb 0.00 in0.0 mm 0.00 in/hr0.0 mm/hr 0.15 in3.8 mm
08:18 AM 36.5°F2.5°C 33.6°F0.9°C 89% 29.0 mph NW46.7 kmh NW 36.0 mph57.9 kmh 29.79 in1008.8 mb 0.00 in0.0 mm 0.00 in/hr0.0 mm/hr 0.15 in3.8 mm
08:19 AM 36.5°F2.5°C 33.6°F0.9°C 89% 28.0 mph WNW45.1 kmh WNW 36.0 mph57.9 kmh 29.79 in1008.8 mb 0.00 in0.0 mm 0.00 in/hr0.0 mm/hr 0.15 in3.8 mm
08:20 AM 36.4°F2.4°C 33.5°F0.8°C 89% 24.0 mph NW38.6 kmh NW 36.0 mph57.9 kmh 29.79 in1008.8 mb 0.00 in0.0 mm 0.00 in/hr0.0 mm/hr 0.15 in3.8 mm
08:21 AM 36.4°F2.4°C 33.5°F0.8°C 89% 26.0 mph WNW41.8 kmh WNW 36.0 mph57.9 kmh 29.79 in1008.8 mb 0.00 in0.0 mm 0.00 in/hr0.0 mm/hr 0.15 in3.8 mm
08:22 AM 36.4°F2.4°C 33.5°F0.8°C 89% 25.0 mph NW40.2 kmh NW 36.0 mph57.9 kmh 29.79 in1008.8 mb 0.00 in0.0 mm 0.00 in/hr0.0 mm/hr 0.15 in3.8 mm
08:23 AM 36.4°F2.4°C 33.8°F1.0°C 90% 29.0 mph NW46.7 kmh NW 36.0 mph57.9 kmh 29.79 in1008.8 mb 0.00 in0.0 mm 0.00 in/hr0.0 mm/hr 0.15 in3.8 mm
08:25 AM 36.4°F2.4°C 33.5°F0.8°C 89% 30.0 mph NW48.3 kmh NW 36.0 mph57.9 kmh 29.79 in1008.8 mb 0.00 in0.0 mm 0.00 in/hr0.0 mm/hr 0.15 in3.8 mm
08:26 AM 36.4°F2.4°C 33.5°F0.8°C 89% 25.0 mph NW40.2 kmh NW 36.0 mph57.9 kmh 29.79 in1008.8 mb 0.00 in0.0 mm 0.00 in/hr0.0 mm/hr 0.15 in3.8 mm
08:27 AM 36.4°F2.4°C 33.5°F0.8°C 89% 25.0 mph WNW40.2 kmh WNW 36.0 mph57.9 kmh 29.79 in1008.8 mb 0.00 in0.0 mm 0.00 in/hr0.0 mm/hr 0.15 in3.8 mm
08:28 AM 36.4°F2.4°C 33.5°F0.8°C 89% 23.0 mph NW37.0 kmh NW 36.0 mph57.9 kmh 29.80 in1009.1 mb 0.00 in0.0 mm 0.00 in/hr0.0 mm/hr 0.15 in3.8 mm
08:30 AM 36.4°F2.4°C 33.5°F0.8°C 89% 28.0 mph NW45.1 kmh NW 36.0 mph57.9 kmh 29.80 in1009.1 mb 0.00 in0.0 mm 0.00 in/hr0.0 mm/hr 0.15 in3.8 mm
08:31 AM 36.4°F2.4°C 33.5°F0.8°C 89% 29.0 mph NNW46.7 kmh NNW 34.0 mph54.7 kmh 29.80 in1009.1 mb 0.00 in0.0 mm 0.00 in/hr0.0 mm/hr 0.15 in3.8 mm
08:32 AM 36.3°F2.4°C 33.1°F0.6°C 88% 27.0 mph NW43.5 kmh NW 39.0 mph62.8 kmh 29.80 in1009.1 mb 0.00 in0.0 mm 0.00 in/hr0.0 mm/hr 0.15 in3.8 mm
08:33 AM 36.3°F2.4°C 33.1°F0.6°C 88% 25.0 mph NW40.2 kmh NW 39.0 mph62.8 kmh 29.80 in1009.1 mb 0.00 in0.0 mm 0.00 in/hr0.0 mm/hr 0.15 in3.8 mm
08:34 AM 36.3°F2.4°C 33.4°F0.8°C 89% 22.0 mph WNW35.4 kmh WNW 39.0 mph62.8 kmh 29.80 in1009.1 mb 0.00 in0.0 mm 0.00 in/hr0.0 mm/hr 0.15 in3.8 mm
08:36 AM 36.4°F2.4°C 33.5°F0.8°C 89% 24.0 mph NW38.6 kmh NW 39.0 mph62.8 kmh 29.80 in1009.1 mb 0.00 in0.0 mm 0.00 in/hr0.0 mm/hr 0.15 in3.8 mm
08:37 AM 36.4°F2.4°C 33.5°F0.8°C 89% 23.0 mph NW37.0 kmh NW 39.0 mph62.8 kmh 29.81 in1009.5 mb 0.00 in0.0 mm 0.00 in/hr0.0 mm/hr 0.15 in3.8 mm
08:38 AM 36.4°F2.4°C 33.5°F0.8°C 89% 23.0 mph NW37.0 kmh NW 39.0 mph62.8 kmh 29.81 in1009.5 mb 0.00 in0.0 mm 0.00 in/hr0.0 mm/hr 0.15 in3.8 mm
08:40 AM 36.5°F2.5°C 33.6°F0.9°C 89% 29.0 mph NW46.7 kmh NW 39.0 mph62.8 kmh 29.81 in1009.5 mb 0.00 in0.0 mm 0.00 in/hr0.0 mm/hr 0.15 in3.8 mm
08:41 AM 36.5°F2.5°C 33.6°F0.9°C 89% 22.0 mph NW35.4 kmh NW 39.0 mph62.8 kmh 29.81 in1009.5 mb 0.00 in0.0 mm 0.00 in/hr0.0 mm/hr 0.15 in3.8 mm
08:42 AM 36.6°F2.6°C 33.7°F0.9°C 89% 25.0 mph WNW40.2 kmh WNW 39.0 mph62.8 kmh 29.81 in1009.5 mb 0.00 in0.0 mm 0.00 in/hr0.0 mm/hr 0.15 in3.8 mm
08:44 AM 36.6°F2.6°C 33.7°F0.9°C 89% 25.0 mph NW40.2 kmh NW 39.0 mph62.8 kmh 29.81 in1009.5 mb 0.00 in0.0 mm 0.00 in/hr0.0 mm/hr 0.15 in3.8 mm
08:45 AM 36.6°F2.6°C 33.4°F0.8°C 88% 29.0 mph NW46.7 kmh NW 39.0 mph62.8 kmh 29.82 in1009.8 mb 0.00 in0.0 mm 0.00 in/hr0.0 mm/hr 0.15 in3.8 mm
08:46 AM 36.6°F2.6°C 33.4°F0.8°C 88% 27.0 mph NW43.5 kmh NW 39.0 mph62.8 kmh 29.82 in1009.8 mb 0.00 in0.0 mm 0.00 in/hr0.0 mm/hr 0.15 in3.8 mm
08:47 AM 36.5°F2.5°C 33.3°F0.7°C 88% 19.0 mph NW30.6 kmh NW 39.0 mph62.8 kmh 29.82 in1009.8 mb 0.00 in0.0 mm 0.00 in/hr0.0 mm/hr 0.15 in3.8 mm
08:49 AM 36.5°F2.5°C 33.6°F0.9°C 89% 27.0 mph NW43.5 kmh NW 39.0 mph62.8 kmh 29.82 in1009.8 mb 0.00 in0.0 mm 0.00 in/hr0.0 mm/hr 0.15 in3.8 mm
08:50 AM 36.6°F2.6°C 33.7°F0.9°C 89% 28.0 mph NW45.1 kmh NW 39.0 mph62.8 kmh 29.82 in1009.8 mb 0.00 in0.0 mm 0.00 in/hr0.0 mm/hr 0.15 in3.8 mm
08:51 AM 36.6°F2.6°C 33.7°F0.9°C 89% 28.0 mph NW45.1 kmh NW 39.0 mph62.8 kmh 29.82 in1009.8 mb 0.00 in0.0 mm 0.00 in/hr0.0 mm/hr 0.15 in3.8 mm
08:52 AM 36.6°F2.6°C 33.4°F0.8°C 88% 38.0 mph NW61.2 kmh NW 39.0 mph62.8 kmh 29.82 in1009.8 mb 0.00 in0.0 mm 0.00 in/hr0.0 mm/hr 0.15 in3.8 mm
08:53 AM 36.6°F2.6°C 33.4°F0.8°C 88% 26.0 mph NW41.8 kmh NW 39.0 mph62.8 kmh 29.82 in1009.8 mb 0.00 in0.0 mm 0.00 in/hr0.0 mm/hr 0.15 in3.8 mm
08:54 AM 36.6°F2.6°C 33.4°F0.8°C 88% 20.0 mph WNW32.2 kmh WNW 39.0 mph62.8 kmh 29.83 in1010.2 mb 0.00 in0.0 mm 0.00 in/hr0.0 mm/hr 0.15 in3.8 mm
08:55 AM 36.7°F2.6°C 33.5°F0.8°C 88% 26.0 mph NW41.8 kmh NW 39.0 mph62.8 kmh 29.83 in1010.2 mb 0.00 in0.0 mm 0.00 in/hr0.0 mm/hr 0.15 in3.8 mm
08:56 AM 36.7°F2.6°C 33.8°F1.0°C 89% 19.0 mph WNW30.6 kmh WNW 39.0 mph62.8 kmh 29.83 in1010.2 mb 0.00 in0.0 mm 0.00 in/hr0.0 mm/hr 0.15 in3.8 mm
08:57 AM 36.7°F2.6°C 33.8°F1.0°C 89% 22.0 mph NW35.4 kmh NW 39.0 mph62.8 kmh 29.83 in1010.2 mb 0.00 in0.0 mm 0.00 in/hr0.0 mm/hr 0.15 in3.8 mm
08:58 AM 36.7°F2.6°C 33.8°F1.0°C 89% 25.0 mph NW40.2 kmh NW 39.0 mph62.8 kmh 29.83 in1010.2 mb 0.00 in0.0 mm 0.00 in/hr0.0 mm/hr 0.15 in3.8 mm
09:00 AM 36.7°F2.6°C 33.8°F1.0°C 89% 32.0 mph NW51.5 kmh NW 39.0 mph62.8 kmh 29.83 in1010.2 mb 0.00 in0.0 mm 0.00 in/hr0.0 mm/hr 0.15 in3.8 mm
09:01 AM 36.7°F2.6°C 33.8°F1.0°C 89% 23.0 mph NW37.0 kmh NW 33.0 mph53.1 kmh 29.83 in1010.2 mb 0.00 in0.0 mm 0.00 in/hr0.0 mm/hr 0.15 in3.8 mm
09:03 AM 36.8°F2.7°C 33.9°F1.1°C 89% 22.0 mph WNW35.4 kmh WNW 33.0 mph53.1 kmh 29.83 in1010.2 mb 0.00 in0.0 mm 0.00 in/hr0.0 mm/hr 0.15 in3.8 mm
09:04 AM 36.8°F2.7°C 33.9°F1.1°C 89% 26.0 mph NW41.8 kmh NW 33.0 mph53.1 kmh 29.83 in1010.2 mb 0.00 in0.0 mm 0.00 in/hr0.0 mm/hr 0.15 in3.8 mm
09:06 AM 36.8°F2.7°C 33.9°F1.1°C 89% 24.0 mph NW38.6 kmh NW 33.0 mph53.1 kmh 29.83 in1010.2 mb 0.00 in0.0 mm 0.00 in/hr0.0 mm/hr 0.15 in3.8 mm
09:07 AM 36.8°F2.7°C 33.9°F1.1°C 89% 19.0 mph NW30.6 kmh NW 33.0 mph53.1 kmh 29.83 in1010.2 mb 0.00 in0.0 mm 0.00 in/hr0.0 mm/hr 0.15 in3.8 mm
09:08 AM 36.8°F2.7°C 33.9°F1.1°C 89% 19.0 mph NW30.6 kmh NW 33.0 mph53.1 kmh 29.84 in1010.5 mb 0.00 in0.0 mm 0.00 in/hr0.0 mm/hr 0.15 in3.8 mm
09:09 AM 36.8°F2.7°C 33.9°F1.1°C 89% 20.0 mph NW32.2 kmh NW 34.0 mph54.7 kmh 29.83 in1010.2 mb 0.00 in0.0 mm 0.00 in/hr0.0 mm/hr 0.15 in3.8 mm
09:10 AM 36.9°F2.7°C 34.0°F1.1°C 89% 22.0 mph NW35.4 kmh NW 34.0 mph54.7 kmh 29.84 in1010.5 mb 0.00 in0.0 mm 0.00 in/hr0.0 mm/hr 0.15 in3.8 mm
09:11 AM 37.0°F2.8°C 34.4°F1.3°C 90% 18.0 mph NW29.0 kmh NW 34.0 mph54.7 kmh 29.84 in1010.5 mb 0.00 in0.0 mm 0.00 in/hr0.0 mm/hr 0.15 in3.8 mm
09:13 AM 37.1°F2.8°C 34.4°F1.3°C 90% 24.0 mph WNW38.6 kmh WNW 34.0 mph54.7 kmh 29.84 in1010.5 mb 0.00 in0.0 mm 0.00 in/hr0.0 mm/hr 0.15 in3.8 mm
09:14 AM 37.1°F2.8°C 34.4°F1.3°C 90% 22.0 mph NW35.4 kmh NW 34.0 mph54.7 kmh 29.84 in1010.5 mb 0.00 in0.0 mm 0.00 in/hr0.0 mm/hr 0.15 in3.8 mm
09:15 AM 37.1°F2.8°C 34.2°F1.2°C 89% 25.0 mph NW40.2 kmh NW 34.0 mph54.7 kmh 29.84 in1010.5 mb 0.00 in0.0 mm 0.00 in/hr0.0 mm/hr 0.15 in3.8 mm
09:16 AM 37.2°F2.9°C 34.3°F1.3°C 89% 23.0 mph NW37.0 kmh NW 34.0 mph54.7 kmh 29.84 in1010.5 mb 0.00 in0.0 mm 0.00 in/hr0.0 mm/hr 0.15 in3.8 mm
09:17 AM 37.1°F2.8°C 34.2°F1.2°C 89% 22.0 mph NW35.4 kmh NW 34.0 mph54.7 kmh 29.85 in1010.8 mb 0.00 in0.0 mm 0.00 in/hr0.0 mm/hr 0.15 in3.8 mm
09:18 AM 37.0°F2.8°C 33.8°F1.0°C 88% 28.0 mph NW45.1 kmh NW 34.0 mph54.7 kmh 29.85 in1010.8 mb 0.00 in0.0 mm 0.00 in/hr0.0 mm/hr 0.15 in3.8 mm
09:20 AM 36.9°F2.7°C 33.7°F0.9°C 88% 25.0 mph NW40.2 kmh NW 34.0 mph54.7 kmh 29.85 in1010.8 mb 0.00 in0.0 mm 0.00 in/hr0.0 mm/hr 0.15 in3.8 mm
09:21 AM 36.7°F2.6°C 33.5°F0.8°C 88% 32.0 mph NW51.5 kmh NW 34.0 mph54.7 kmh 29.85 in1010.8 mb 0.00 in0.0 mm 0.00 in/hr0.0 mm/hr 0.15 in3.8 mm
09:23 AM 36.6°F2.6°C 33.7°F0.9°C 89% 22.0 mph NW35.4 kmh NW 34.0 mph54.7 kmh 29.85 in1010.8 mb 0.00 in0.0 mm 0.00 in/hr0.0 mm/hr 0.15 in3.8 mm
09:25 AM 36.6°F2.6°C 33.7°F0.9°C 89% 32.0 mph NW51.5 kmh NW 34.0 mph54.7 kmh 29.85 in1010.8 mb 0.00 in0.0 mm 0.00 in/hr0.0 mm/hr 0.15 in3.8 mm
09:26 AM 36.6°F2.6°C 33.7°F0.9°C 89% 23.0 mph NW37.0 kmh NW 34.0 mph54.7 kmh 29.86 in1011.2 mb 0.00 in0.0 mm 0.00 in/hr0.0 mm/hr 0.15 in3.8 mm
09:27 AM 36.5°F2.5°C 33.6°F0.9°C 89% 28.0 mph NW45.1 kmh NW 34.0 mph54.7 kmh 29.86 in1011.2 mb 0.00 in0.0 mm 0.00 in/hr0.0 mm/hr 0.15 in3.8 mm
09:28 AM 36.5°F2.5°C 33.6°F0.9°C 89% 28.0 mph WNW45.1 kmh WNW 34.0 mph54.7 kmh 29.86 in1011.2 mb 0.00 in0.0 mm 0.00 in/hr0.0 mm/hr 0.15 in3.8 mm
09:30 AM 36.5°F2.5°C 33.6°F0.9°C 89% 29.0 mph NW46.7 kmh NW 34.0 mph54.7 kmh 29.86 in1011.2 mb 0.00 in0.0 mm 0.00 in/hr0.0 mm/hr 0.15 in3.8 mm
09:31 AM 36.6°F2.6°C 33.7°F0.9°C 89% 25.0 mph NW40.2 kmh NW 28.0 mph45.1 kmh 29.86 in1011.2 mb 0.00 in0.0 mm 0.00 in/hr0.0 mm/hr 0.15 in3.8 mm
09:32 AM 36.6°F2.6°C 33.7°F0.9°C 89% 27.0 mph NW43.5 kmh NW 28.0 mph45.1 kmh 29.86 in1011.2 mb 0.00 in0.0 mm 0.00 in/hr0.0 mm/hr 0.15 in3.8 mm
09:33 AM 36.6°F2.6°C 33.7°F0.9°C 89% 33.0 mph WNW53.1 kmh WNW 37.0 mph59.5 kmh 29.86 in1011.2 mb 0.00 in0.0 mm 0.00 in/hr0.0 mm/hr 0.15 in3.8 mm
09:35 AM 36.6°F2.6°C 33.4°F0.8°C 88% 30.0 mph NW48.3 kmh NW 39.0 mph62.8 kmh 29.86 in1011.2 mb 0.00 in0.0 mm 0.00 in/hr0.0 mm/hr 0.15 in3.8 mm
09:37 AM 36.7°F2.6°C 33.5°F0.8°C 88% 28.0 mph NW45.1 kmh NW 39.0 mph62.8 kmh 29.86 in1011.2 mb 0.00 in0.0 mm 0.00 in/hr0.0 mm/hr 0.15 in3.8 mm
09:38 AM 36.7°F2.6°C 33.5°F0.8°C 88% 23.0 mph NW37.0 kmh NW 39.0 mph62.8 kmh 29.86 in1011.2 mb 0.00 in0.0 mm 0.00 in/hr0.0 mm/hr 0.15 in3.8 mm
09:39 AM 36.8°F2.7°C 33.6°F0.9°C 88% 28.0 mph NW45.1 kmh NW 39.0 mph62.8 kmh 29.86 in1011.2 mb 0.00 in0.0 mm 0.00 in/hr0.0 mm/hr 0.15 in3.8 mm
09:40 AM 36.8°F2.7°C 33.6°F0.9°C 88% 30.0 mph NW48.3 kmh NW 39.0 mph62.8 kmh 29.86 in1011.2 mb 0.00 in0.0 mm 0.00 in/hr0.0 mm/hr 0.15 in3.8 mm
09:42 AM 36.9°F2.7°C 33.7°F0.9°C 88% 26.0 mph NW41.8 kmh NW 39.0 mph62.8 kmh 29.87 in1011.5 mb 0.00 in0.0 mm 0.00 in/hr0.0 mm/hr 0.15 in3.8 mm
09:43 AM 36.9°F2.7°C 33.7°F0.9°C 88% 24.0 mph NW38.6 kmh NW 39.0 mph62.8 kmh 29.87 in1011.5 mb 0.00 in0.0 mm 0.00 in/hr0.0 mm/hr 0.15 in3.8 mm
09:44 AM 37.0°F2.8°C 34.1°F1.2°C 89% 21.0 mph NW33.8 kmh NW 39.0 mph62.8 kmh 29.87 in1011.5 mb 0.00 in0.0 mm 0.00 in/hr0.0 mm/hr 0.15 in3.8 mm
09:46 AM 37.1°F2.8°C 34.4°F1.3°C 90% 22.0 mph NW35.4 kmh NW 39.0 mph62.8 kmh 29.87 in1011.5 mb 0.00 in0.0 mm 0.00 in/hr0.0 mm/hr 0.15 in3.8 mm
09:47 AM 37.1°F2.8°C 34.4°F1.3°C 90% 17.0 mph WNW27.4 kmh WNW 39.0 mph62.8 kmh 29.87 in1011.5 mb 0.00 in0.0 mm 0.00 in/hr0.0 mm/hr 0.15 in3.8 mm
09:48 AM 37.1°F2.8°C 34.4°F1.3°C 90% 22.0 mph NW35.4 kmh NW 39.0 mph62.8 kmh 29.88 in1011.9 mb 0.00 in0.0 mm 0.00 in/hr0.0 mm/hr 0.15 in3.8 mm
09:50 AM 36.9°F2.7°C 34.0°F1.1°C 89% 22.0 mph WNW35.4 kmh WNW 39.0 mph62.8 kmh 29.88 in1011.9 mb 0.00 in0.0 mm 0.00 in/hr0.0 mm/hr 0.15 in3.8 mm
09:51 AM 36.9°F2.7°C 33.7°F0.9°C 88% 29.0 mph NW46.7 kmh NW 39.0 mph62.8 kmh 29.88 in1011.9 mb 0.00 in0.0 mm 0.00 in/hr0.0 mm/hr 0.15 in3.8 mm
09:52 AM 36.8°F2.7°C 33.6°F0.9°C 88% 32.0 mph NW51.5 kmh NW 39.0 mph62.8 kmh 29.88 in1011.9 mb 0.00 in0.0 mm 0.00 in/hr0.0 mm/hr 0.15 in3.8 mm
09:53 AM 36.7°F2.6°C 33.5°F0.8°C 88% 25.0 mph NW40.2 kmh NW 39.0 mph62.8 kmh 29.88 in1011.9 mb 0.00 in0.0 mm 0.00 in/hr0.0 mm/hr 0.15 in3.8 mm
09:54 AM 36.6°F2.6°C 33.4°F0.8°C 88% 29.0 mph NW46.7 kmh NW 39.0 mph62.8 kmh 29.88 in1011.9 mb 0.00 in0.0 mm 0.00 in/hr0.0 mm/hr 0.15 in3.8 mm
09:55 AM 36.6°F2.6°C 33.4°F0.8°C 88% 25.0 mph NW40.2 kmh NW 39.0 mph62.8 kmh 29.88 in1011.9 mb 0.00 in0.0 mm 0.00 in/hr0.0 mm/hr 0.15 in3.8 mm
09:56 AM 36.5°F2.5°C 33.3°F0.7°C 88% 30.0 mph WNW48.3 kmh WNW 39.0 mph62.8 kmh 29.89 in1012.2 mb 0.00 in0.0 mm 0.00 in/hr0.0 mm/hr 0.15 in3.8 mm
09:57 AM 36.5°F2.5°C 33.3°F0.7°C 88% 27.0 mph NW43.5 kmh NW 39.0 mph62.8 kmh 29.89 in1012.2 mb 0.00 in0.0 mm 0.00 in/hr0.0 mm/hr 0.15 in3.8 mm
09:58 AM 36.5°F2.5°C 33.3°F0.7°C 88% 24.0 mph NW38.6 kmh NW 39.0 mph62.8 kmh 29.89 in1012.2 mb 0.00 in0.0 mm 0.00 in/hr0.0 mm/hr 0.15 in3.8 mm
10:00 AM 36.5°F2.5°C 33.3°F0.7°C 88% 27.0 mph NW43.5 kmh NW 39.0 mph62.8 kmh 29.89 in1012.2 mb 0.00 in0.0 mm 0.00 in/hr0.0 mm/hr 0.15 in3.8 mm
10:01 AM 36.5°F2.5°C 33.3°F0.7°C 88% 17.0 mph W27.4 kmh W 25.0 mph40.2 kmh 29.90 in1012.5 mb 0.00 in0.0 mm 0.00 in/hr0.0 mm/hr 0.15 in3.8 mm
10:03 AM 36.5°F2.5°C 33.6°F0.9°C 89% 25.0 mph NW40.2 kmh NW 27.0 mph43.5 kmh 29.90 in1012.5 mb 0.00 in0.0 mm 0.00 in/hr0.0 mm/hr 0.15 in3.8 mm
10:04 AM 36.5°F2.5°C 33.3°F0.7°C 88% 22.0 mph WNW35.4 kmh WNW 27.0 mph43.5 kmh 29.90 in1012.5 mb 0.00 in0.0 mm 0.00 in/hr0.0 mm/hr 0.15 in3.8 mm
10:05 AM 36.5°F2.5°C 33.3°F0.7°C 88% 25.0 mph NW40.2 kmh NW 29.0 mph46.7 kmh 29.90 in1012.5 mb 0.00 in0.0 mm 0.00 in/hr0.0 mm/hr 0.15 in3.8 mm
10:07 AM 36.5°F2.5°C 33.3°F0.7°C 88% 20.0 mph WNW32.2 kmh WNW 29.0 mph46.7 kmh 29.90 in1012.5 mb 0.00 in0.0 mm 0.00 in/hr0.0 mm/hr 0.15 in3.8 mm
10:08 AM 36.5°F2.5°C 33.6°F0.9°C 89% 22.0 mph WNW35.4 kmh WNW 29.0 mph46.7 kmh 29.90 in1012.5 mb 0.00 in0.0 mm 0.00 in/hr0.0 mm/hr 0.15 in3.8 mm
10:10 AM 36.5°F2.5°C 33.3°F0.7°C 88% 23.0 mph NW37.0 kmh NW 29.0 mph46.7 kmh 29.91 in1012.9 mb 0.00 in0.0 mm 0.00 in/hr0.0 mm/hr 0.15 in3.8 mm
10:11 AM 36.6°F2.6°C 33.7°F0.9°C 89% 22.0 mph NW35.4 kmh NW 29.0 mph46.7 kmh 29.91 in1012.9 mb 0.00 in0.0 mm 0.00 in/hr0.0 mm/hr 0.15 in3.8 mm
10:13 AM 36.6°F2.6°C 33.7°F0.9°C 89% 23.0 mph NW37.0 kmh NW 29.0 mph46.7 kmh 29.91 in1012.9 mb 0.00 in0.0 mm 0.00 in/hr0.0 mm/hr 0.15 in3.8 mm
10:14 AM 36.6°F2.6°C 33.7°F0.9°C 89% 26.0 mph WNW41.8 kmh WNW 29.0 mph46.7 kmh 29.91 in1012.9 mb 0.00 in0.0 mm 0.00 in/hr0.0 mm/hr 0.15 in3.8 mm
10:15 AM 36.6°F2.6°C 33.7°F0.9°C 89% 25.0 mph NW40.2 kmh NW 32.0 mph51.5 kmh 29.91 in1012.9 mb 0.00 in0.0 mm 0.00 in/hr0.0 mm/hr 0.15 in3.8 mm
10:16 AM 36.6°F2.6°C 33.7°F0.9°C 89% 28.0 mph NW45.1 kmh NW 32.0 mph51.5 kmh 29.91 in1012.9 mb 0.00 in0.0 mm 0.00 in/hr0.0 mm/hr 0.15 in3.8 mm
10:18 AM 36.6°F2.6°C 33.7°F0.9°C 89% 16.0 mph WNW25.7 kmh WNW 32.0 mph51.5 kmh 29.91 in1012.9 mb 0.00 in0.0 mm 0.00 in/hr0.0 mm/hr 0.15 in3.8 mm
10:19 AM 36.6°F2.6°C 33.4°F0.8°C 88% 20.0 mph WNW32.2 kmh WNW 32.0 mph51.5 kmh 29.91 in1012.9 mb 0.00 in0.0 mm 0.00 in/hr0.0 mm/hr 0.15 in3.8 mm
10:20 AM 36.6°F2.6°C 33.4°F0.8°C 88% 25.0 mph NW40.2 kmh NW 32.0 mph51.5 kmh 29.91 in1012.9 mb 0.00 in0.0 mm 0.00 in/hr0.0 mm/hr 0.15 in3.8 mm
10:21 AM 36.6°F2.6°C 33.4°F0.8°C 88% 20.0 mph NW32.2 kmh NW 32.0 mph51.5 kmh 29.91 in1012.9 mb 0.00 in0.0 mm 0.00 in/hr0.0 mm/hr 0.15 in3.8 mm
10:22 AM 36.6°F2.6°C 33.4°F0.8°C 88% 22.0 mph NW35.4 kmh NW 32.0 mph51.5 kmh 29.91 in1012.9 mb 0.00 in0.0 mm 0.00 in/hr0.0 mm/hr 0.15 in3.8 mm
10:24 AM 36.6°F2.6°C 33.4°F0.8°C 88% 23.0 mph NW37.0 kmh NW 32.0 mph51.5 kmh 29.91 in1012.9 mb 0.00 in0.0 mm 0.00 in/hr0.0 mm/hr 0.15 in3.8 mm
10:25 AM 36.7°F2.6°C 33.5°F0.8°C 88% 21.0 mph NW33.8 kmh NW 32.0 mph51.5 kmh 29.92 in1013.2 mb 0.00 in0.0 mm 0.00 in/hr0.0 mm/hr 0.15 in3.8 mm
10:26 AM 36.7°F2.6°C 33.5°F0.8°C 88% 19.0 mph NW30.6 kmh NW 32.0 mph51.5 kmh 29.92 in1013.2 mb 0.00 in0.0 mm 0.00 in/hr0.0 mm/hr 0.15 in3.8 mm
10:28 AM 36.8°F2.7°C 33.6°F0.9°C 88% 27.0 mph NW43.5 kmh NW 32.0 mph51.5 kmh 29.92 in1013.2 mb 0.00 in0.0 mm 0.00 in/hr0.0 mm/hr 0.15 in3.8 mm
10:29 AM 36.8°F2.7°C 33.6°F0.9°C 88% 19.0 mph WNW30.6 kmh WNW 32.0 mph51.5 kmh 29.92 in1013.2 mb 0.00 in0.0 mm 0.00 in/hr0.0 mm/hr 0.15 in3.8 mm
10:30 AM 36.8°F2.7°C 33.6°F0.9°C 88% 24.0 mph NW38.6 kmh NW 32.0 mph51.5 kmh 29.92 in1013.2 mb 0.00 in0.0 mm 0.00 in/hr0.0 mm/hr 0.15 in3.8 mm
10:31 AM 36.8°F2.7°C 33.6°F0.9°C 88% 21.0 mph WNW33.8 kmh WNW 27.0 mph43.5 kmh 29.92 in1013.2 mb 0.00 in0.0 mm 0.00 in/hr0.0 mm/hr 0.15 in3.8 mm
10:32 AM 36.8°F2.7°C 33.6°F0.9°C 88% 22.0 mph NW35.4 kmh NW 27.0 mph43.5 kmh 29.92 in1013.2 mb 0.00 in0.0 mm 0.00 in/hr0.0 mm/hr 0.15 in3.8 mm
10:33 AM 36.9°F2.7°C 33.7°F0.9°C 88% 25.0 mph NW40.2 kmh NW 27.0 mph43.5 kmh 29.92 in1013.2 mb 0.00 in0.0 mm 0.00 in/hr0.0 mm/hr 0.15 in3.8 mm
10:34 AM 36.9°F2.7°C 33.7°F0.9°C 88% 20.0 mph NW32.2 kmh NW 27.0 mph43.5 kmh 29.92 in1013.2 mb 0.00 in0.0 mm 0.00 in/hr0.0 mm/hr 0.15 in3.8 mm
10:35 AM 36.9°F2.7°C 33.7°F0.9°C 88% 23.0 mph NW37.0 kmh NW 27.0 mph43.5 kmh 29.92 in1013.2 mb 0.00 in0.0 mm 0.00 in/hr0.0 mm/hr 0.15 in3.8 mm
10:36 AM 36.9°F2.7°C 33.7°F0.9°C 88% 26.0 mph NW41.8 kmh NW 27.0 mph43.5 kmh 29.92 in1013.2 mb 0.00 in0.0 mm 0.00 in/hr0.0 mm/hr 0.15 in3.8 mm
10:37 AM 36.9°F2.7°C 33.7°F0.9°C 88% 29.0 mph WNW46.7 kmh WNW 30.0 mph48.3 kmh 29.92 in1013.2 mb 0.00 in0.0 mm 0.00 in/hr0.0 mm/hr 0.15 in3.8 mm
10:38 AM 36.9°F2.7°C 33.4°F0.8°C 87% 27.0 mph NW43.5 kmh NW 30.0 mph48.3 kmh 29.92 in1013.2 mb 0.00 in0.0 mm 0.00 in/hr0.0 mm/hr 0.15 in3.8 mm
10:39 AM 36.9°F2.7°C 33.4°F0.8°C 87% 19.0 mph NW30.6 kmh NW 30.0 mph48.3 kmh 29.92 in1013.2 mb 0.00 in0.0 mm 0.00 in/hr0.0 mm/hr 0.15 in3.8 mm
10:40 AM 36.9°F2.7°C 33.7°F0.9°C 88% 17.0 mph WNW27.4 kmh WNW 30.0 mph48.3 kmh 29.93 in1013.5 mb 0.00 in0.0 mm 0.00 in/hr0.0 mm/hr 0.15 in3.8 mm
10:41 AM 36.9°F2.7°C 33.7°F0.9°C 88% 22.0 mph NW35.4 kmh NW 30.0 mph48.3 kmh 29.93 in1013.5 mb 0.00 in0.0 mm 0.00 in/hr0.0 mm/hr 0.15 in3.8 mm
10:42 AM 36.9°F2.7°C 33.7°F0.9°C 88% 23.0 mph NW37.0 kmh NW 30.0 mph48.3 kmh 29.93 in1013.5 mb 0.00 in0.0 mm 0.00 in/hr0.0 mm/hr 0.15 in3.8 mm
10:43 AM 36.9°F2.7°C 33.4°F0.8°C 87% 21.0 mph NW33.8 kmh NW 30.0 mph48.3 kmh 29.93 in1013.5 mb 0.00 in0.0 mm 0.00 in/hr0.0 mm/hr 0.15 in3.8 mm
10:44 AM 37.0°F2.8°C 33.8°F1.0°C 88% 18.0 mph WNW29.0 kmh WNW 30.0 mph48.3 kmh 29.93 in1013.5 mb 0.00 in0.0 mm 0.00 in/hr0.0 mm/hr 0.15 in3.8 mm
10:45 AM 37.0°F2.8°C 33.5°F0.8°C 87% 23.0 mph NW37.0 kmh NW 30.0 mph48.3 kmh 29.92 in1013.2 mb 0.00 in0.0 mm 0.00 in/hr0.0 mm/hr 0.15 in3.8 mm
10:46 AM 37.0°F2.8°C 33.5°F0.8°C 87% 23.0 mph NW37.0 kmh NW 30.0 mph48.3 kmh 29.93 in1013.5 mb 0.00 in0.0 mm 0.00 in/hr0.0 mm/hr 0.15 in3.8 mm
10:48 AM 36.9°F2.7°C 33.4°F0.8°C 87% 25.0 mph NW40.2 kmh NW 30.0 mph48.3 kmh 29.93 in1013.5 mb 0.00 in0.0 mm 0.00 in/hr0.0 mm/hr 0.15 in3.8 mm
10:50 AM 37.0°F2.8°C 33.5°F0.8°C 87% 24.0 mph NW38.6 kmh NW 32.0 mph51.5 kmh 29.93 in1013.5 mb 0.00 in0.0 mm 0.00 in/hr0.0 mm/hr 0.15 in3.8 mm
10:52 AM 37.0°F2.8°C 33.5°F0.8°C 87% 21.0 mph WNW33.8 kmh WNW 32.0 mph51.5 kmh 29.93 in1013.5 mb 0.00 in0.0 mm 0.00 in/hr0.0 mm/hr 0.15 in3.8 mm
10:54 AM 37.1°F2.8°C 33.9°F1.1°C 88% 23.0 mph WNW37.0 kmh WNW 32.0 mph51.5 kmh 29.93 in1013.5 mb 0.00 in0.0 mm 0.00 in/hr0.0 mm/hr 0.15 in3.8 mm
10:56 AM 37.2°F2.9°C 33.7°F0.9°C 87% 24.0 mph NW38.6 kmh NW 32.0 mph51.5 kmh 29.93 in1013.5 mb 0.00 in0.0 mm 0.00 in/hr0.0 mm/hr 0.15 in3.8 mm
10:57 AM 37.2°F2.9°C 33.7°F0.9°C 87% 22.0 mph NW35.4 kmh NW 32.0 mph51.5 kmh 29.93 in1013.5 mb 0.00 in0.0 mm 0.00 in/hr0.0 mm/hr 0.15 in3.8 mm
10:58 AM 37.3°F2.9°C 33.8°F1.0°C 87% 24.0 mph WNW38.6 kmh WNW 32.0 mph51.5 kmh 29.93 in1013.5 mb 0.00 in0.0 mm 0.00 in/hr0.0 mm/hr 0.15 in3.8 mm
10:59 AM 37.3°F2.9°C 33.8°F1.0°C 87% 22.0 mph WNW35.4 kmh WNW 32.0 mph51.5 kmh 29.93 in1013.5 mb 0.00 in0.0 mm 0.00 in/hr0.0 mm/hr 0.15 in3.8 mm
11:00 AM 37.3°F2.9°C 33.8°F1.0°C 87% 20.0 mph WNW32.2 kmh WNW 32.0 mph51.5 kmh 29.93 in1013.5 mb 0.00 in0.0 mm 0.00 in/hr0.0 mm/hr 0.15 in3.8 mm
11:02 AM 37.5°F3.1°C 34.3°F1.3°C 88% 21.0 mph NW33.8 kmh NW 25.0 mph40.2 kmh 29.93 in1013.5 mb 0.00 in0.0 mm 0.00 in/hr0.0 mm/hr 0.15 in3.8 mm
11:04 AM 37.7°F3.2°C 34.5°F1.4°C 88% 25.0 mph NW40.2 kmh NW 28.0 mph45.1 kmh 29.93 in1013.5 mb 0.00 in0.0 mm 0.00 in/hr0.0 mm/hr 0.15 in3.8 mm
11:05 AM 37.8°F3.2°C 34.6°F1.4°C 88% 22.0 mph NW35.4 kmh NW 28.0 mph45.1 kmh 29.93 in1013.5 mb 0.00 in0.0 mm 0.00 in/hr0.0 mm/hr 0.15 in3.8 mm
11:06 AM 37.9°F3.3°C 34.7°F1.5°C 88% 20.0 mph NW32.2 kmh NW 28.0 mph45.1 kmh 29.94 in1013.9 mb 0.00 in0.0 mm 0.00 in/hr0.0 mm/hr 0.15 in3.8 mm
11:08 AM 37.9°F3.3°C 34.4°F1.3°C 87% 25.0 mph NW40.2 kmh NW 28.0 mph45.1 kmh 29.94 in1013.9 mb 0.00 in0.0 mm 0.00 in/hr0.0 mm/hr 0.15 in3.8 mm
11:09 AM 37.9°F3.3°C 34.4°F1.3°C 87% 20.0 mph NW32.2 kmh NW 28.0 mph45.1 kmh 29.94 in1013.9 mb 0.00 in0.0 mm 0.00 in/hr0.0 mm/hr 0.15 in3.8 mm
11:10 AM 38.0°F3.3°C 34.5°F1.4°C 87% 26.0 mph NW41.8 kmh NW 28.0 mph45.1 kmh 29.94 in1013.9 mb 0.00 in0.0 mm 0.00 in/hr0.0 mm/hr 0.15 in3.8 mm
11:11 AM 38.0°F3.3°C 34.5°F1.4°C 87% 25.0 mph NW40.2 kmh NW 29.0 mph46.7 kmh 29.94 in1013.9 mb 0.00 in0.0 mm 0.00 in/hr0.0 mm/hr 0.15 in3.8 mm
11:13 AM 38.0°F3.3°C 34.2°F1.2°C 86% 23.0 mph NW37.0 kmh NW 29.0 mph46.7 kmh 29.94 in1013.9 mb 0.00 in0.0 mm 0.00 in/hr0.0 mm/hr 0.15 in3.8 mm
11:14 AM 38.0°F3.3°C 34.2°F1.2°C 86% 21.0 mph NW33.8 kmh NW 29.0 mph46.7 kmh 29.94 in1013.9 mb 0.00 in0.0 mm 0.00 in/hr0.0 mm/hr 0.15 in3.8 mm
11:15 AM 38.0°F3.3°C 34.5°F1.4°C 87% 20.0 mph NW32.2 kmh NW 29.0 mph46.7 kmh 29.94 in1013.9 mb 0.00 in0.0 mm 0.00 in/hr0.0 mm/hr 0.15 in3.8 mm
11:17 AM 37.9°F3.3°C 34.1°F1.2°C 86% 23.0 mph NW37.0 kmh NW 29.0 mph46.7 kmh 29.94 in1013.9 mb 0.00 in0.0 mm 0.00 in/hr0.0 mm/hr 0.15 in3.8 mm
11:18 AM 37.9°F3.3°C 34.4°F1.3°C 87% 22.0 mph NW35.4 kmh NW 29.0 mph46.7 kmh 29.94 in1013.9 mb 0.00 in0.0 mm 0.00 in/hr0.0 mm/hr 0.15 in3.8 mm
11:19 AM 37.9°F3.3°C 34.4°F1.3°C 87% 21.0 mph NW33.8 kmh NW 29.0 mph46.7 kmh 29.94 in1013.9 mb 0.00 in0.0 mm 0.00 in/hr0.0 mm/hr 0.15 in3.8 mm
11:20 AM 37.9°F3.3°C 34.4°F1.3°C 87% 22.0 mph NW35.4 kmh NW 29.0 mph46.7 kmh 29.94 in1013.9 mb 0.00 in0.0 mm 0.00 in/hr0.0 mm/hr 0.15 in3.8 mm
11:21 AM 37.9°F3.3°C 34.4°F1.3°C 87% 16.0 mph NW25.7 kmh NW 29.0 mph46.7 kmh 29.94 in1013.9 mb 0.00 in0.0 mm 0.00 in/hr0.0 mm/hr 0.15 in3.8 mm
11:22 AM 37.9°F3.3°C 34.4°F1.3°C 87% 23.0 mph NW37.0 kmh NW 29.0 mph46.7 kmh 29.94 in1013.9 mb 0.00 in0.0 mm 0.00 in/hr0.0 mm/hr 0.15 in3.8 mm
11:23 AM 38.0°F3.3°C 34.8°F1.6°C 88% 23.0 mph NW37.0 kmh NW 29.0 mph46.7 kmh 29.94 in1013.9 mb 0.00 in0.0 mm 0.00 in/hr0.0 mm/hr 0.15 in3.8 mm
11:24 AM 38.0°F3.3°C 34.8°F1.6°C 88% 24.0 mph NW38.6 kmh NW 29.0 mph46.7 kmh 29.94 in1013.9 mb 0.00 in0.0 mm 0.00 in/hr0.0 mm/hr 0.15 in3.8 mm
11:26 AM 38.0°F3.3°C 34.2°F1.2°C 86% 24.0 mph NW38.6 kmh NW 29.0 mph46.7 kmh 29.94 in1013.9 mb 0.00 in0.0 mm 0.00 in/hr0.0 mm/hr 0.15 in3.8 mm
11:27 AM 38.0°F3.3°C 34.2°F1.2°C 86% 26.0 mph NW41.8 kmh NW 29.0 mph46.7 kmh 29.94 in1013.9 mb 0.00 in0.0 mm 0.00 in/hr0.0 mm/hr 0.15 in3.8 mm
11:28 AM 38.0°F3.3°C 34.2°F1.2°C 86% 18.0 mph NW29.0 kmh NW 29.0 mph46.7 kmh 29.94 in1013.9 mb 0.00 in0.0 mm 0.00 in/hr0.0 mm/hr 0.15 in3.8 mm
11:30 AM 38.0°F3.3°C 34.8°F1.6°C 88% 18.0 mph WNW29.0 kmh WNW 29.0 mph46.7 kmh 29.94 in1013.9 mb 0.00 in0.0 mm 0.00 in/hr0.0 mm/hr 0.15 in3.8 mm
11:32 AM 38.3°F3.5°C 34.8°F1.6°C 87% 25.0 mph NW40.2 kmh NW 25.0 mph40.2 kmh 29.94 in1013.9 mb 0.00 in0.0 mm 0.00 in/hr0.0 mm/hr 0.15 in3.8 mm
11:33 AM 38.3°F3.5°C 34.8°F1.6°C 87% 21.0 mph NW33.8 kmh NW 25.0 mph40.2 kmh 29.95 in1014.2 mb 0.00 in0.0 mm 0.00 in/hr0.0 mm/hr 0.15 in3.8 mm
11:34 AM 38.4°F3.6°C 34.6°F1.4°C 86% 25.0 mph WNW40.2 kmh WNW 27.0 mph43.5 kmh 29.95 in1014.2 mb 0.00 in0.0 mm 0.00 in/hr0.0 mm/hr 0.15 in3.8 mm
11:35 AM 38.4°F3.6°C 34.3°F1.3°C 85% 21.0 mph WNW33.8 kmh WNW 27.0 mph43.5 kmh 29.95 in1014.2 mb 0.00 in0.0 mm 0.00 in/hr0.0 mm/hr 0.15 in3.8 mm
11:36 AM 38.4°F3.6°C 34.6°F1.4°C 86% 20.0 mph NW32.2 kmh NW 27.0 mph43.5 kmh 29.95 in1014.2 mb 0.00 in0.0 mm 0.00 in/hr0.0 mm/hr 0.15 in3.8 mm
11:38 AM 38.5°F3.6°C 35.0°F1.7°C 87% 15.0 mph NW24.1 kmh NW 27.0 mph43.5 kmh 29.95 in1014.2 mb 0.00 in0.0 mm 0.00 in/hr0.0 mm/hr 0.15 in3.8 mm
11:39 AM 38.6°F3.7°C 35.1°F1.7°C 87% 21.0 mph NW33.8 kmh NW 27.0 mph43.5 kmh 29.95 in1014.2 mb 0.00 in0.0 mm 0.00 in/hr0.0 mm/hr 0.15 in3.8 mm
11:40 AM 38.6°F3.7°C 34.8°F1.6°C 86% 18.0 mph NW29.0 kmh NW 27.0 mph43.5 kmh 29.95 in1014.2 mb 0.00 in0.0 mm 0.00 in/hr0.0 mm/hr 0.15 in3.8 mm
11:41 AM 38.6°F3.7°C 34.8°F1.6°C 86% 20.0 mph WNW32.2 kmh WNW 27.0 mph43.5 kmh 29.95 in1014.2 mb 0.00 in0.0 mm 0.00 in/hr0.0 mm/hr 0.15 in3.8 mm
11:42 AM 38.6°F3.7°C 34.8°F1.6°C 86% 13.0 mph WNW20.9 kmh WNW 27.0 mph43.5 kmh 29.95 in1014.2 mb 0.00 in0.0 mm 0.00 in/hr0.0 mm/hr 0.15 in3.8 mm
11:43 AM 38.6°F3.7°C 34.8°F1.6°C 86% 18.0 mph NW29.0 kmh NW 27.0 mph43.5 kmh 29.96 in1014.6 mb 0.00 in0.0 mm 0.00 in/hr0.0 mm/hr 0.15 in3.8 mm
11:44 AM 38.6°F3.7°C 34.8°F1.6°C 86% 20.0 mph WNW32.2 kmh WNW 27.0 mph43.5 kmh 29.96 in1014.6 mb 0.00 in0.0 mm 0.00 in/hr0.0 mm/hr 0.15 in3.8 mm
11:45 AM 38.7°F3.7°C 34.9°F1.6°C 86% 24.0 mph NW38.6 kmh NW 27.0 mph43.5 kmh 29.95 in1014.2 mb 0.00 in0.0 mm 0.00 in/hr0.0 mm/hr 0.15 in3.8 mm
11:47 AM 38.7°F3.7°C 34.6°F1.4°C 85% 22.0 mph WNW35.4 kmh WNW 27.0 mph43.5 kmh 29.96 in1014.6 mb 0.00 in0.0 mm 0.00 in/hr0.0 mm/hr 0.15 in3.8 mm
11:48 AM 38.7°F3.7°C 34.6°F1.4°C 85% 20.0 mph NW32.2 kmh NW 27.0 mph43.5 kmh 29.96 in1014.6 mb 0.00 in0.0 mm 0.00 in/hr0.0 mm/hr 0.15 in3.8 mm
11:49 AM 38.7°F3.7°C 34.3°F1.3°C 84% 19.0 mph WNW30.6 kmh WNW 27.0 mph43.5 kmh 29.96 in1014.6 mb 0.00 in0.0 mm 0.00 in/hr0.0 mm/hr 0.15 in3.8 mm
11:50 AM 38.7°F3.7°C 34.3°F1.3°C 84% 20.0 mph NW32.2 kmh NW 27.0 mph43.5 kmh 29.96 in1014.6 mb 0.00 in0.0 mm 0.00 in/hr0.0 mm/hr 0.15 in3.8 mm
11:52 AM 38.7°F3.7°C 34.3°F1.3°C 84% 21.0 mph NW33.8 kmh NW 27.0 mph43.5 kmh 29.96 in1014.6 mb 0.00 in0.0 mm 0.00 in/hr0.0 mm/hr 0.15 in3.8 mm
11:53 AM 38.8°F3.8°C 34.4°F1.3°C 84% 22.0 mph NW35.4 kmh NW 27.0 mph43.5 kmh 29.96 in1014.6 mb 0.00 in0.0 mm 0.00 in/hr0.0 mm/hr 0.15 in3.8 mm
11:54 AM 38.8°F3.8°C 34.7°F1.5°C 85% 20.0 mph NW32.2 kmh NW 27.0 mph43.5 kmh 29.96 in1014.6 mb 0.00 in0.0 mm 0.00 in/hr0.0 mm/hr 0.15 in3.8 mm
11:56 AM 38.8°F3.8°C 34.4°F1.3°C 84% 26.0 mph NW41.8 kmh NW 30.0 mph48.3 kmh 29.96 in1014.6 mb 0.00 in0.0 mm 0.00 in/hr0.0 mm/hr 0.15 in3.8 mm
11:57 AM 38.8°F3.8°C 34.4°F1.3°C 84% 19.0 mph NW30.6 kmh NW 30.0 mph48.3 kmh 29.97 in1014.9 mb 0.00 in0.0 mm 0.00 in/hr0.0 mm/hr 0.15 in3.8 mm
11:58 AM 38.8°F3.8°C 34.4°F1.3°C 84% 26.0 mph NW41.8 kmh NW 30.0 mph48.3 kmh 29.97 in1014.9 mb 0.00 in0.0 mm 0.00 in/hr0.0 mm/hr 0.15 in3.8 mm
12:00 PM 38.8°F3.8°C 34.4°F1.3°C 84% 19.0 mph NW30.6 kmh NW 30.0 mph48.3 kmh 29.97 in1014.9 mb 0.00 in0.0 mm 0.00 in/hr0.0 mm/hr 0.15 in3.8 mm
12:01 PM 38.8°F3.8°C 34.4°F1.3°C 84% 19.0 mph NW30.6 kmh NW 23.0 mph37.0 kmh 29.97 in1014.9 mb 0.00 in0.0 mm 0.00 in/hr0.0 mm/hr 0.15 in3.8 mm
12:02 PM 38.9°F3.8°C 34.8°F1.6°C 85% 20.0 mph WNW32.2 kmh WNW 23.0 mph37.0 kmh 29.97 in1014.9 mb 0.00 in0.0 mm 0.00 in/hr0.0 mm/hr 0.15 in3.8 mm
12:03 PM 38.9°F3.8°C 34.5°F1.4°C 84% 15.0 mph NW24.1 kmh NW 25.0 mph40.2 kmh 29.97 in1014.9 mb 0.00 in0.0 mm 0.00 in/hr0.0 mm/hr 0.15 in3.8 mm
12:05 PM 38.9°F3.8°C 34.2°F1.2°C 83% 16.0 mph WNW25.7 kmh WNW 25.0 mph40.2 kmh 29.97 in1014.9 mb 0.00 in0.0 mm 0.00 in/hr0.0 mm/hr 0.15 in3.8 mm
12:06 PM 39.0°F3.9°C 34.3°F1.3°C 83% 19.0 mph NW30.6 kmh NW 27.0 mph43.5 kmh 29.97 in1014.9 mb 0.00 in0.0 mm 0.00 in/hr0.0 mm/hr 0.15 in3.8 mm
12:07 PM 39.1°F3.9°C 34.4°F1.3°C 83% 19.0 mph NW30.6 kmh NW 27.0 mph43.5 kmh 29.97 in1014.9 mb 0.00 in0.0 mm 0.00 in/hr0.0 mm/hr 0.15 in3.8 mm
12:09 PM 39.1°F3.9°C 34.4°F1.3°C 83% 27.0 mph NW43.5 kmh NW 27.0 mph43.5 kmh 29.98 in1015.2 mb 0.00 in0.0 mm 0.00 in/hr0.0 mm/hr 0.15 in3.8 mm
12:10 PM 39.1°F3.9°C 34.4°F1.3°C 83% 24.0 mph NW38.6 kmh NW 27.0 mph43.5 kmh 29.98 in1015.2 mb 0.00 in0.0 mm 0.00 in/hr0.0 mm/hr 0.15 in3.8 mm
12:11 PM 39.0°F3.9°C 34.0°F1.1°C 82% 24.0 mph NW38.6 kmh NW 27.0 mph43.5 kmh 29.98 in1015.2 mb 0.00 in0.0 mm 0.00 in/hr0.0 mm/hr 0.15 in3.8 mm
12:13 PM 39.0°F3.9°C 34.6°F1.4°C 84% 24.0 mph NW38.6 kmh NW 27.0 mph43.5 kmh 29.98 in1015.2 mb 0.00 in0.0 mm 0.00 in/hr0.0 mm/hr 0.15 in3.8 mm
12:15 PM 39.1°F3.9°C 34.4°F1.3°C 83% 22.0 mph NW35.4 kmh NW 27.0 mph43.5 kmh 29.98 in1015.2 mb 0.00 in0.0 mm 0.00 in/hr0.0 mm/hr 0.15 in3.8 mm
12:16 PM 39.1°F3.9°C 34.4°F1.3°C 83% 23.0 mph NNW37.0 kmh NNW 27.0 mph43.5 kmh 29.98 in1015.2 mb 0.00 in0.0 mm 0.00 in/hr0.0 mm/hr 0.15 in3.8 mm
12:18 PM 39.2°F4.0°C 34.5°F1.4°C 83% 21.0 mph NW33.8 kmh NW 27.0 mph43.5 kmh 29.98 in1015.2 mb 0.00 in0.0 mm 0.00 in/hr0.0 mm/hr 0.15 in3.8 mm
12:19 PM 39.4°F4.1°C 35.3°F1.8°C 85% 17.0 mph NW27.4 kmh NW 27.0 mph43.5 kmh 29.98 in1015.2 mb 0.00 in0.0 mm 0.00 in/hr0.0 mm/hr 0.15 in3.8 mm
12:20 PM 39.6°F4.2°C 35.5°F1.9°C 85% 17.0 mph NW27.4 kmh NW 27.0 mph43.5 kmh 29.98 in1015.2 mb 0.00 in0.0 mm 0.00 in/hr0.0 mm/hr 0.15 in3.8 mm
12:21 PM 39.8°F4.3°C 36.0°F2.2°C 86% 22.0 mph NW35.4 kmh NW 27.0 mph43.5 kmh 29.99 in1015.6 mb 0.00 in0.0 mm 0.00 in/hr0.0 mm/hr 0.15 in3.8 mm
12:23 PM 39.9°F4.4°C 35.5°F1.9°C 84% 18.0 mph NW29.0 kmh NW 27.0 mph43.5 kmh 29.99 in1015.6 mb 0.00 in0.0 mm 0.00 in/hr0.0 mm/hr 0.15 in3.8 mm
12:25 PM 39.9°F4.4°C 35.5°F1.9°C 84% 15.0 mph NW24.1 kmh NW 27.0 mph43.5 kmh 29.99 in1015.6 mb 0.00 in0.0 mm 0.00 in/hr0.0 mm/hr 0.15 in3.8 mm
12:26 PM 40.0°F4.4°C 35.6°F2.0°C 84% 22.0 mph NW35.4 kmh NW 27.0 mph43.5 kmh 29.99 in1015.6 mb 0.00 in0.0 mm 0.00 in/hr0.0 mm/hr 0.15 in3.8 mm
12:28 PM 39.9°F4.4°C 35.2°F1.8°C 83% 19.0 mph NW30.6 kmh NW 27.0 mph43.5 kmh 29.99 in1015.6 mb 0.00 in0.0 mm 0.00 in/hr0.0 mm/hr 0.15 in3.8 mm
12:30 PM 39.8°F4.3°C 35.4°F1.9°C 84% 20.0 mph WNW32.2 kmh WNW 27.0 mph43.5 kmh 29.99 in1015.6 mb 0.00 in0.0 mm 0.00 in/hr0.0 mm/hr 0.15 in3.8 mm
12:32 PM 39.7°F4.3°C 35.3°F1.8°C 84% 21.0 mph NW33.8 kmh NW 25.0 mph40.2 kmh 29.99 in1015.6 mb 0.00 in0.0 mm 0.00 in/hr0.0 mm/hr 0.15 in3.8 mm
12:33 PM 39.7°F4.3°C 35.0°F1.7°C 83% 18.0 mph NW29.0 kmh NW 25.0 mph40.2 kmh 29.99 in1015.6 mb 0.00 in0.0 mm 0.00 in/hr0.0 mm/hr 0.15 in3.8 mm
12:34 PM 39.6°F4.2°C 34.9°F1.6°C 83% 19.0 mph NW30.6 kmh NW 25.0 mph40.2 kmh 29.99 in1015.6 mb 0.00 in0.0 mm 0.00 in/hr0.0 mm/hr 0.15 in3.8 mm
12:35 PM 39.6°F4.2°C 34.9°F1.6°C 83% 24.0 mph NW38.6 kmh NW 27.0 mph43.5 kmh 29.99 in1015.6 mb 0.00 in0.0 mm 0.00 in/hr0.0 mm/hr 0.15 in3.8 mm
12:37 PM 39.5°F4.2°C 35.1°F1.7°C 84% 14.0 mph WNW22.5 kmh WNW 27.0 mph43.5 kmh 29.99 in1015.6 mb 0.00 in0.0 mm 0.00 in/hr0.0 mm/hr 0.15 in3.8 mm
12:38 PM 39.4°F4.1°C 34.7°F1.5°C 83% 21.0 mph NW33.8 kmh NW 27.0 mph43.5 kmh 30.00 in1015.9 mb 0.00 in0.0 mm 0.00 in/hr0.0 mm/hr 0.15 in3.8 mm
12:40 PM 39.3°F4.1°C 34.9°F1.6°C 84% 22.0 mph WNW35.4 kmh WNW 27.0 mph43.5 kmh 30.00 in1015.9 mb 0.00 in0.0 mm 0.00 in/hr0.0 mm/hr 0.15 in3.8 mm
12:41 PM 39.2°F4.0°C 34.5°F1.4°C 83% 17.0 mph NW27.4 kmh NW 27.0 mph43.5 kmh 30.00 in1015.9 mb 0.00 in0.0 mm 0.00 in/hr0.0 mm/hr 0.15 in3.8 mm
12:43 PM 39.1°F3.9°C 34.4°F1.3°C 83% 19.0 mph NW30.6 kmh NW 27.0 mph43.5 kmh 30.00 in1015.9 mb 0.00 in0.0 mm 0.00 in/hr0.0 mm/hr 0.15 in3.8 mm
12:45 PM 39.1°F3.9°C 34.7°F1.5°C 84% 28.0 mph NW45.1 kmh NW 28.0 mph45.1 kmh 30.01 in1016.3 mb 0.00 in0.0 mm 0.00 in/hr0.0 mm/hr 0.15 in3.8 mm
12:46 PM 39.1°F3.9°C 34.4°F1.3°C 83% 20.0 mph NW32.2 kmh NW 28.0 mph45.1 kmh 30.01 in1016.3 mb 0.00 in0.0 mm 0.00 in/hr0.0 mm/hr 0.15 in3.8 mm
12:47 PM 39.1°F3.9°C 34.4°F1.3°C 83% 20.0 mph WNW32.2 kmh WNW 28.0 mph45.1 kmh 30.01 in1016.3 mb 0.00 in0.0 mm 0.00 in/hr0.0 mm/hr 0.15 in3.8 mm
12:48 PM 39.1°F3.9°C 34.1°F1.2°C 82% 22.0 mph NW35.4 kmh NW 28.0 mph45.1 kmh 30.01 in1016.3 mb 0.00 in0.0 mm 0.00 in/hr0.0 mm/hr 0.15 in3.8 mm
12:50 PM 39.0°F3.9°C 34.3°F1.3°C 83% 20.0 mph NW32.2 kmh NW 28.0 mph45.1 kmh 30.01 in1016.3 mb 0.00 in0.0 mm 0.00 in/hr0.0 mm/hr 0.15 in3.8 mm
12:51 PM 39.1°F3.9°C 34.1°F1.2°C 82% 20.0 mph NW32.2 kmh NW 28.0 mph45.1 kmh 30.01 in1016.3 mb 0.00 in0.0 mm 0.00 in/hr0.0 mm/hr 0.15 in3.8 mm
12:53 PM 39.1°F3.9°C 34.4°F1.3°C 83% 22.0 mph NW35.4 kmh NW 28.0 mph45.1 kmh 30.01 in1016.3 mb 0.00 in0.0 mm 0.00 in/hr0.0 mm/hr 0.15 in3.8 mm
12:55 PM 39.1°F3.9°C 34.4°F1.3°C 83% 19.0 mph NW30.6 kmh NW 28.0 mph45.1 kmh 30.01 in1016.3 mb 0.00 in0.0 mm 0.00 in/hr0.0 mm/hr 0.15 in3.8 mm
12:56 PM 39.1°F3.9°C 34.4°F1.3°C 83% 16.0 mph WNW25.7 kmh WNW 28.0 mph45.1 kmh 30.01 in1016.3 mb 0.00 in0.0 mm 0.00 in/hr0.0 mm/hr 0.15 in3.8 mm
12:57 PM 39.1°F3.9°C 34.1°F1.2°C 82% 18.0 mph W29.0 kmh W 28.0 mph45.1 kmh 30.01 in1016.3 mb 0.00 in0.0 mm 0.00 in/hr0.0 mm/hr 0.15 in3.8 mm
12:59 PM 39.2°F4.0°C 34.5°F1.4°C 83% 17.0 mph WNW27.4 kmh WNW 28.0 mph45.1 kmh 30.01 in1016.3 mb 0.00 in0.0 mm 0.00 in/hr0.0 mm/hr 0.15 in3.8 mm
01:00 PM 39.2°F4.0°C 34.5°F1.4°C 83% 15.0 mph NW24.1 kmh NW 28.0 mph45.1 kmh 30.02 in1016.6 mb 0.00 in0.0 mm 0.00 in/hr0.0 mm/hr 0.15 in3.8 mm
01:01 PM 39.2°F4.0°C 34.8°F1.6°C 84% 18.0 mph WNW29.0 kmh WNW 18.0 mph29.0 kmh 30.02 in1016.6 mb 0.00 in0.0 mm 0.00 in/hr0.0 mm/hr 0.15 in3.8 mm
01:02 PM 39.3°F4.1°C 34.6°F1.4°C 83% 17.0 mph NW27.4 kmh NW 26.0 mph41.8 kmh 30.02 in1016.6 mb 0.00 in0.0 mm 0.00 in/hr0.0 mm/hr 0.15 in3.8 mm
01:03 PM 39.4°F4.1°C 35.0°F1.7°C 84% 17.0 mph NW27.4 kmh NW 26.0 mph41.8 kmh 30.02 in1016.6 mb 0.00 in0.0 mm 0.00 in/hr0.0 mm/hr 0.15 in3.8 mm
01:05 PM 39.5°F4.2°C 35.1°F1.7°C 84% 20.0 mph WNW32.2 kmh WNW 26.0 mph41.8 kmh 30.02 in1016.6 mb 0.00 in0.0 mm 0.00 in/hr0.0 mm/hr 0.15 in3.8 mm
01:07 PM 39.8°F4.3°C 35.1°F1.7°C 83% 19.0 mph WNW30.6 kmh WNW 26.0 mph41.8 kmh 30.02 in1016.6 mb 0.00 in0.0 mm 0.00 in/hr0.0 mm/hr 0.15 in3.8 mm
01:08 PM 40.0°F4.4°C 35.3°F1.8°C 83% 20.0 mph NW32.2 kmh NW 26.0 mph41.8 kmh 30.02 in1016.6 mb 0.00 in0.0 mm 0.00 in/hr0.0 mm/hr 0.15 in3.8 mm
01:09 PM 40.1°F4.5°C 35.4°F1.9°C 83% 16.0 mph NW25.7 kmh NW 26.0 mph41.8 kmh 30.02 in1016.6 mb 0.00 in0.0 mm 0.00 in/hr0.0 mm/hr 0.15 in3.8 mm
01:11 PM 40.2°F4.6°C 35.2°F1.8°C 82% 15.0 mph NW24.1 kmh NW 26.0 mph41.8 kmh 30.02 in1016.6 mb 0.00 in0.0 mm 0.00 in/hr0.0 mm/hr 0.15 in3.8 mm
01:12 PM 40.3°F4.6°C 35.6°F2.0°C 83% 20.0 mph NW32.2 kmh NW 26.0 mph41.8 kmh 30.02 in1016.6 mb 0.00 in0.0 mm 0.00 in/hr0.0 mm/hr 0.15 in3.8 mm
01:13 PM 40.5°F4.7°C 35.8°F2.1°C 83% 19.0 mph NW30.6 kmh NW 26.0 mph41.8 kmh 30.02 in1016.6 mb 0.00 in0.0 mm 0.00 in/hr0.0 mm/hr 0.15 in3.8 mm
01:15 PM 40.5°F4.7°C 35.8°F2.1°C 83% 12.0 mph WNW19.3 kmh WNW 26.0 mph41.8 kmh 30.02 in1016.6 mb 0.00 in0.0 mm 0.00 in/hr0.0 mm/hr 0.15 in3.8 mm
01:16 PM 40.7°F4.8°C 36.0°F2.2°C 83% 24.0 mph NW38.6 kmh NW 26.0 mph41.8 kmh 30.02 in1016.6 mb 0.00 in0.0 mm 0.00 in/hr0.0 mm/hr 0.15 in3.8 mm
01:17 PM 40.7°F4.8°C 35.6°F2.0°C 82% 19.0 mph NW30.6 kmh NW 26.0 mph41.8 kmh 30.02 in1016.6 mb 0.00 in0.0 mm 0.00 in/hr0.0 mm/hr 0.15 in3.8 mm
01:19 PM 40.7°F4.8°C 35.6°F2.0°C 82% 21.0 mph NW33.8 kmh NW 26.0 mph41.8 kmh 30.02 in1016.6 mb 0.00 in0.0 mm 0.00 in/hr0.0 mm/hr 0.15 in3.8 mm
01:20 PM 40.7°F4.8°C 35.6°F2.0°C 82% 26.0 mph NW41.8 kmh NW 27.0 mph43.5 kmh 30.03 in1016.9 mb 0.00 in0.0 mm 0.00 in/hr0.0 mm/hr 0.15 in3.8 mm
01:21 PM 40.7°F4.8°C 35.3°F1.8°C 81% 24.0 mph WNW38.6 kmh WNW 28.0 mph45.1 kmh 30.03 in1016.9 mb 0.00 in0.0 mm 0.00 in/hr0.0 mm/hr 0.15 in3.8 mm
01:22 PM 40.6°F4.8°C 34.9°F1.6°C 80% 16.0 mph NW25.7 kmh NW 28.0 mph45.1 kmh 30.03 in1016.9 mb 0.00 in0.0 mm 0.00 in/hr0.0 mm/hr 0.15 in3.8 mm
01:24 PM 40.5°F4.7°C 35.5°F1.9°C 82% 21.0 mph NW33.8 kmh NW 28.0 mph45.1 kmh 30.03 in1016.9 mb 0.00 in0.0 mm 0.00 in/hr0.0 mm/hr 0.15 in3.8 mm
01:25 PM 40.6°F4.8°C 35.6°F2.0°C 82% 19.0 mph NW30.6 kmh NW 28.0 mph45.1 kmh 30.03 in1016.9 mb 0.00 in0.0 mm 0.00 in/hr0.0 mm/hr 0.15 in3.8 mm
01:26 PM 40.7°F4.8°C 36.0°F2.2°C 83% 19.0 mph NW30.6 kmh NW 28.0 mph45.1 kmh 30.03 in1016.9 mb 0.00 in0.0 mm 0.00 in/hr0.0 mm/hr 0.15 in3.8 mm
01:27 PM 40.9°F4.9°C 36.5°F2.5°C 84% 24.0 mph NW38.6 kmh NW 28.0 mph45.1 kmh 30.03 in1016.9 mb 0.00 in0.0 mm 0.00 in/hr0.0 mm/hr 0.15 in3.8 mm
01:30 PM 41.0°F5.0°C 35.6°F2.0°C 81% 13.0 mph WNW20.9 kmh WNW 28.0 mph45.1 kmh 30.03 in1016.9 mb 0.00 in0.0 mm 0.00 in/hr0.0 mm/hr 0.15 in3.8 mm
01:31 PM 41.1°F5.1°C 35.7°F2.1°C 81% 20.0 mph NW32.2 kmh NW 21.0 mph33.8 kmh 30.03 in1016.9 mb 0.00 in0.0 mm 0.00 in/hr0.0 mm/hr 0.15 in3.8 mm
01:32 PM 41.1°F5.1°C 36.0°F2.2°C 82% 20.0 mph NW32.2 kmh NW 25.0 mph40.2 kmh 30.03 in1016.9 mb 0.00 in0.0 mm 0.00 in/hr0.0 mm/hr 0.15 in3.8 mm
01:33 PM 41.4°F5.2°C 36.3°F2.4°C 82% 17.0 mph NW27.4 kmh NW 25.0 mph40.2 kmh 30.03 in1016.9 mb 0.00 in0.0 mm 0.00 in/hr0.0 mm/hr 0.15 in3.8 mm
01:34 PM 41.5°F5.3°C 36.4°F2.4°C 82% 20.0 mph WNW32.2 kmh WNW 25.0 mph40.2 kmh 30.03 in1016.9 mb 0.00 in0.0 mm 0.00 in/hr0.0 mm/hr 0.15 in3.8 mm
01:36 PM 41.6°F5.3°C 35.9°F2.2°C 80% 22.0 mph WNW35.4 kmh WNW 26.0 mph41.8 kmh 30.03 in1016.9 mb 0.00 in0.0 mm 0.00 in/hr0.0 mm/hr 0.15 in3.8 mm
01:37 PM 41.6°F5.3°C 35.6°F2.0°C 79% 12.0 mph WNW19.3 kmh WNW 26.0 mph41.8 kmh 30.03 in1016.9 mb 0.00 in0.0 mm 0.00 in/hr0.0 mm/hr 0.15 in3.8 mm
01:38 PM 41.7°F5.4°C 36.0°F2.2°C 80% 17.0 mph NW27.4 kmh NW 26.0 mph41.8 kmh 30.03 in1016.9 mb 0.00 in0.0 mm 0.00 in/hr0.0 mm/hr 0.15 in3.8 mm
01:40 PM 42.0°F5.6°C 37.2°F2.9°C 83% 20.0 mph NW32.2 kmh NW 26.0 mph41.8 kmh 30.03 in1016.9 mb 0.00 in0.0 mm 0.00 in/hr0.0 mm/hr 0.15 in3.8 mm
01:41 PM 42.1°F5.6°C 36.7°F2.6°C 81% 21.0 mph NW33.8 kmh NW 26.0 mph41.8 kmh 30.03 in1016.9 mb 0.00 in0.0 mm 0.00 in/hr0.0 mm/hr 0.15 in3.8 mm
01:42 PM 42.2°F5.7°C 36.2°F2.3°C 79% 18.0 mph NW29.0 kmh NW 26.0 mph41.8 kmh 30.03 in1016.9 mb 0.00 in0.0 mm 0.00 in/hr0.0 mm/hr 0.15 in3.8 mm
01:44 PM 42.5°F5.8°C 37.4°F3.0°C 82% 22.0 mph NW35.4 kmh NW 26.0 mph41.8 kmh 30.03 in1016.9 mb 0.00 in0.0 mm 0.00 in/hr0.0 mm/hr 0.15 in3.8 mm
01:45 PM 42.5°F5.8°C 37.1°F2.8°C 81% 21.0 mph NW33.8 kmh NW 26.0 mph41.8 kmh 30.03 in1016.9 mb 0.00 in0.0 mm 0.00 in/hr0.0 mm/hr 0.15 in3.8 mm
01:46 PM 42.5°F5.8°C 36.5°F2.5°C 79% 17.0 mph NW27.4 kmh NW 26.0 mph41.8 kmh 30.03 in1016.9 mb 0.00 in0.0 mm 0.00 in/hr0.0 mm/hr 0.15 in3.8 mm
01:47 PM 42.5°F5.8°C 37.1°F2.8°C 81% 18.0 mph NW29.0 kmh NW 26.0 mph41.8 kmh 30.03 in1016.9 mb 0.00 in0.0 mm 0.00 in/hr0.0 mm/hr 0.15 in3.8 mm
01:48 PM 42.6°F5.9°C 36.9°F2.7°C 80% 16.0 mph NW25.7 kmh NW 26.0 mph41.8 kmh 30.03 in1016.9 mb 0.00 in0.0 mm 0.00 in/hr0.0 mm/hr 0.15 in3.8 mm
01:50 PM 42.5°F5.8°C 36.8°F2.7°C 80% 16.0 mph WNW25.7 kmh WNW 26.0 mph41.8 kmh 30.03 in1016.9 mb 0.00 in0.0 mm 0.00 in/hr0.0 mm/hr 0.15 in3.8 mm
01:51 PM 42.5°F5.8°C 36.5°F2.5°C 79% 18.0 mph WNW29.0 kmh WNW 26.0 mph41.8 kmh 30.03 in1016.9 mb 0.00 in0.0 mm 0.00 in/hr0.0 mm/hr 0.15 in3.8 mm
01:53 PM 42.7°F5.9°C 37.9°F3.3°C 83% 17.0 mph WNW27.4 kmh WNW 26.0 mph41.8 kmh 30.04 in1017.3 mb 0.00 in0.0 mm 0.00 in/hr0.0 mm/hr 0.15 in3.8 mm
01:54 PM 42.9°F6.1°C 37.5°F3.1°C 81% 22.0 mph NW35.4 kmh NW 26.0 mph41.8 kmh 30.03 in1016.9 mb 0.00 in0.0 mm 0.00 in/hr0.0 mm/hr 0.15 in3.8 mm
01:55 PM 43.0°F6.1°C 37.3°F2.9°C 80% 19.0 mph NW30.6 kmh NW 26.0 mph41.8 kmh 30.03 in1016.9 mb 0.00 in0.0 mm 0.00 in/hr0.0 mm/hr 0.15 in3.8 mm
01:57 PM 43.3°F6.3°C 37.6°F3.1°C 80% 21.0 mph WNW33.8 kmh WNW 26.0 mph41.8 kmh 30.03 in1016.9 mb 0.00 in0.0 mm 0.00 in/hr0.0 mm/hr 0.15 in3.8 mm
01:58 PM 43.4°F6.3°C 37.7°F3.2°C 80% 16.0 mph NW25.7 kmh NW 26.0 mph41.8 kmh 30.03 in1016.9 mb 0.00 in0.0 mm 0.00 in/hr0.0 mm/hr 0.15 in3.8 mm
02:00 PM 43.4°F6.3°C 37.7°F3.2°C 80% 12.0 mph W19.3 kmh W 26.0 mph41.8 kmh 30.04 in1017.3 mb 0.00 in0.0 mm 0.00 in/hr0.0 mm/hr 0.15 in3.8 mm
02:01 PM 43.4°F6.3°C 37.3°F2.9°C 79% 16.0 mph NW25.7 kmh NW 21.0 mph33.8 kmh 30.04 in1017.3 mb 0.00 in0.0 mm 0.00 in/hr0.0 mm/hr 0.15 in3.8 mm
02:03 PM 43.7°F6.5°C 38.3°F3.5°C 81% 13.0 mph WNW20.9 kmh WNW 21.0 mph33.8 kmh 30.04 in1017.3 mb 0.00 in0.0 mm 0.00 in/hr0.0 mm/hr 0.15 in3.8 mm
02:04 PM 43.7°F6.5°C 37.6°F3.1°C 79% 13.0 mph NW20.9 kmh NW 21.0 mph33.8 kmh 30.04 in1017.3 mb 0.00 in0.0 mm 0.00 in/hr0.0 mm/hr 0.15 in3.8 mm
02:05 PM 43.6°F6.4°C 37.9°F3.3°C 80% 23.0 mph NW37.0 kmh NW 24.0 mph38.6 kmh 30.04 in1017.3 mb 0.00 in0.0 mm 0.00 in/hr0.0 mm/hr 0.15 in3.8 mm
02:07 PM 43.5°F6.4°C 37.4°F3.0°C 79% 15.0 mph WNW24.1 kmh WNW 24.0 mph38.6 kmh 30.04 in1017.3 mb 0.00 in0.0 mm 0.00 in/hr0.0 mm/hr 0.15 in3.8 mm
02:08 PM 43.4°F6.3°C 37.7°F3.2°C 80% 15.0 mph WNW24.1 kmh WNW 24.0 mph38.6 kmh 30.04 in1017.3 mb 0.00 in0.0 mm 0.00 in/hr0.0 mm/hr 0.15 in3.8 mm
02:09 PM 43.3°F6.3°C 36.9°F2.7°C 78% 16.0 mph NW25.7 kmh NW 24.0 mph38.6 kmh 30.04 in1017.3 mb 0.00 in0.0 mm 0.00 in/hr0.0 mm/hr 0.15 in3.8 mm
02:10 PM 43.5°F6.4°C 37.4°F3.0°C 79% 22.0 mph WNW35.4 kmh WNW 24.0 mph38.6 kmh 30.04 in1017.3 mb 0.00 in0.0 mm 0.00 in/hr0.0 mm/hr 0.15 in3.8 mm
02:11 PM 43.6°F6.4°C 37.2°F2.9°C 78% 21.0 mph NW33.8 kmh NW 24.0 mph38.6 kmh 30.04 in1017.3 mb 0.00 in0.0 mm 0.00 in/hr0.0 mm/hr 0.15 in3.8 mm
02:12 PM 43.6°F6.4°C 36.6°F2.6°C 76% 18.0 mph NW29.0 kmh NW 24.0 mph38.6 kmh 30.04 in1017.3 mb 0.00 in0.0 mm 0.00 in/hr0.0 mm/hr 0.15 in3.8 mm
02:14 PM 43.6°F6.4°C 36.9°F2.7°C 77% 15.0 mph WNW24.1 kmh WNW 24.0 mph38.6 kmh 30.04 in1017.3 mb 0.00 in0.0 mm 0.00 in/hr0.0 mm/hr 0.15 in3.8 mm
02:15 PM 43.7°F6.5°C 37.6°F3.1°C 79% 20.0 mph NW32.2 kmh NW 24.0 mph38.6 kmh 30.04 in1017.3 mb 0.00 in0.0 mm 0.00 in/hr0.0 mm/hr 0.15 in3.8 mm
02:17 PM 43.6°F6.4°C 36.9°F2.7°C 77% 16.0 mph NW25.7 kmh NW 24.0 mph38.6 kmh 30.04 in1017.3 mb 0.00 in0.0 mm 0.00 in/hr0.0 mm/hr 0.15 in3.8 mm
02:18 PM 43.6°F6.4°C 37.5°F3.1°C 79% 12.0 mph NW19.3 kmh NW 24.0 mph38.6 kmh 30.04 in1017.3 mb 0.00 in0.0 mm 0.00 in/hr0.0 mm/hr 0.15 in3.8 mm
02:20 PM 43.7°F6.5°C 37.6°F3.1°C 79% 18.0 mph NW29.0 kmh NW 24.0 mph38.6 kmh 30.04 in1017.3 mb 0.00 in0.0 mm 0.00 in/hr0.0 mm/hr 0.15 in3.8 mm
02:21 PM 43.7°F6.5°C 37.6°F3.1°C 79% 22.0 mph NW35.4 kmh NW 24.0 mph38.6 kmh 30.04 in1017.3 mb 0.00 in0.0 mm 0.00 in/hr0.0 mm/hr 0.15 in3.8 mm
02:22 PM 43.6°F6.4°C 36.9°F2.7°C 77% 19.0 mph NW30.6 kmh NW 26.0 mph41.8 kmh 30.04 in1017.3 mb 0.00 in0.0 mm 0.00 in/hr0.0 mm/hr 0.15 in3.8 mm
02:23 PM 43.6°F6.4°C 37.2°F2.9°C 78% 17.0 mph NW27.4 kmh NW 26.0 mph41.8 kmh 30.04 in1017.3 mb 0.00 in0.0 mm 0.00 in/hr0.0 mm/hr 0.15 in3.8 mm
02:24 PM 43.6°F6.4°C 37.5°F3.1°C 79% 21.0 mph NW33.8 kmh NW 26.0 mph41.8 kmh 30.04 in1017.3 mb 0.00 in0.0 mm 0.00 in/hr0.0 mm/hr 0.15 in3.8 mm
02:25 PM 43.6°F6.4°C 37.9°F3.3°C 80% 21.0 mph NW33.8 kmh NW 26.0 mph41.8 kmh 30.04 in1017.3 mb 0.00 in0.0 mm 0.00 in/hr0.0 mm/hr 0.15 in3.8 mm
02:26 PM 43.6°F6.4°C 37.9°F3.3°C 80% 21.0 mph WNW33.8 kmh WNW 26.0 mph41.8 kmh 30.04 in1017.3 mb 0.00 in0.0 mm 0.00 in/hr0.0 mm/hr 0.15 in3.8 mm
02:27 PM 43.6°F6.4°C 37.5°F3.1°C 79% 17.0 mph NW27.4 kmh NW 26.0 mph41.8 kmh 30.04 in1017.3 mb 0.00 in0.0 mm 0.00 in/hr0.0 mm/hr 0.15 in3.8 mm
02:28 PM 43.6°F6.4°C 37.5°F3.1°C 79% 15.0 mph NW24.1 kmh NW 26.0 mph41.8 kmh 30.04 in1017.3 mb 0.00 in0.0 mm 0.00 in/hr0.0 mm/hr 0.15 in3.8 mm
02:30 PM 43.9°F6.6°C 38.1°F3.4°C 80% 10.0 mph WNW16.1 kmh WNW 26.0 mph41.8 kmh 30.04 in1017.3 mb 0.00 in0.0 mm 0.00 in/hr0.0 mm/hr 0.15 in3.8 mm
02:31 PM 43.9°F6.6°C 37.2°F2.9°C 77% 11.0 mph W17.7 kmh W 16.0 mph25.7 kmh 30.04 in1017.3 mb 0.00 in0.0 mm 0.00 in/hr0.0 mm/hr 0.15 in3.8 mm
02:32 PM 43.8°F6.6°C 36.7°F2.6°C 76% 7.0 mph WNW11.3 kmh WNW 17.0 mph27.4 kmh 30.04 in1017.3 mb 0.00 in0.0 mm 0.00 in/hr0.0 mm/hr 0.15 in3.8 mm
02:33 PM 43.7°F6.5°C 37.0°F2.8°C 77% 11.0 mph W17.7 kmh W 17.0 mph27.4 kmh 30.04 in1017.3 mb 0.00 in0.0 mm 0.00 in/hr0.0 mm/hr 0.15 in3.8 mm
02:34 PM 43.6°F6.4°C 37.2°F2.9°C 78% 13.0 mph NW20.9 kmh NW 19.0 mph30.6 kmh 30.04 in1017.3 mb 0.00 in0.0 mm 0.00 in/hr0.0 mm/hr 0.15 in3.8 mm
02:36 PM 43.6°F6.4°C 37.2°F2.9°C 78% 20.0 mph NW32.2 kmh NW 21.0 mph33.8 kmh 30.04 in1017.3 mb 0.00 in0.0 mm 0.00 in/hr0.0 mm/hr 0.15 in3.8 mm
02:37 PM 43.5°F6.4°C 36.8°F2.7°C 77% 14.0 mph WNW22.5 kmh WNW 21.0 mph33.8 kmh 30.05 in1017.6 mb 0.00 in0.0 mm 0.00 in/hr0.0 mm/hr 0.15 in3.8 mm
02:38 PM 43.4°F6.3°C 37.7°F3.2°C 80% 14.0 mph NW22.5 kmh NW 21.0 mph33.8 kmh 30.04 in1017.3 mb 0.00 in0.0 mm 0.00 in/hr0.0 mm/hr 0.15 in3.8 mm
02:39 PM 43.4°F6.3°C 37.3°F2.9°C 79% 16.0 mph NW25.7 kmh NW 22.0 mph35.4 kmh 30.05 in1017.6 mb 0.00 in0.0 mm 0.00 in/hr0.0 mm/hr 0.15 in3.8 mm
02:41 PM 43.5°F6.4°C 36.8°F2.7°C 77% 20.0 mph NW32.2 kmh NW 26.0 mph41.8 kmh 30.05 in1017.6 mb 0.00 in0.0 mm 0.00 in/hr0.0 mm/hr 0.15 in3.8 mm
02:42 PM 43.5°F6.4°C 36.8°F2.7°C 77% 18.0 mph NW29.0 kmh NW 26.0 mph41.8 kmh 30.05 in1017.6 mb 0.00 in0.0 mm 0.00 in/hr0.0 mm/hr 0.15 in3.8 mm
02:43 PM 43.6°F6.4°C 37.5°F3.1°C 79% 16.0 mph WNW25.7 kmh WNW 26.0 mph41.8 kmh 30.05 in1017.6 mb 0.00 in0.0 mm 0.00 in/hr0.0 mm/hr 0.15 in3.8 mm
02:45 PM 43.6°F6.4°C 37.2°F2.9°C 78% 15.0 mph WNW24.1 kmh WNW 26.0 mph41.8 kmh 30.05 in1017.6 mb 0.00 in0.0 mm 0.00 in/hr0.0 mm/hr 0.15 in3.8 mm
02:47 PM 43.6°F6.4°C 36.9°F2.7°C 77% 15.0 mph NW24.1 kmh NW 26.0 mph41.8 kmh 30.05 in1017.6 mb 0.00 in0.0 mm 0.00 in/hr0.0 mm/hr 0.15 in3.8 mm
02:48 PM 43.6°F6.4°C 37.5°F3.1°C 79% 14.0 mph NW22.5 kmh NW 26.0 mph41.8 kmh 30.05 in1017.6 mb 0.00 in0.0 mm 0.00 in/hr0.0 mm/hr 0.15 in3.8 mm
02:49 PM 43.6°F6.4°C 37.2°F2.9°C 78% 16.0 mph WNW25.7 kmh WNW 26.0 mph41.8 kmh 30.05 in1017.6 mb 0.00 in0.0 mm 0.00 in/hr0.0 mm/hr 0.15 in3.8 mm
02:50 PM 43.5°F6.4°C 36.8°F2.7°C 77% 8.0 mph WNW12.9 kmh WNW 26.0 mph41.8 kmh 30.05 in1017.6 mb 0.00 in0.0 mm 0.00 in/hr0.0 mm/hr 0.15 in3.8 mm
02:51 PM 43.4°F6.3°C 36.7°F2.6°C 77% 14.0 mph NW22.5 kmh NW 26.0 mph41.8 kmh 30.05 in1017.6 mb 0.00 in0.0 mm 0.00 in/hr0.0 mm/hr 0.15 in3.8 mm
02:52 PM 43.4°F6.3°C 37.0°F2.8°C 78% 14.0 mph NW22.5 kmh NW 26.0 mph41.8 kmh 30.05 in1017.6 mb 0.00 in0.0 mm 0.00 in/hr0.0 mm/hr 0.15 in3.8 mm
02:53 PM 43.3°F6.3°C 37.2°F2.9°C 79% 18.0 mph NW29.0 kmh NW 26.0 mph41.8 kmh 30.05 in1017.6 mb 0.00 in0.0 mm 0.00 in/hr0.0 mm/hr 0.15 in3.8 mm
02:54 PM 43.4°F6.3°C 36.7°F2.6°C 77% 16.0 mph WNW25.7 kmh WNW 26.0 mph41.8 kmh 30.06 in1017.9 mb 0.00 in0.0 mm 0.00 in/hr0.0 mm/hr 0.15 in3.8 mm
02:55 PM 43.8°F6.6°C 37.4°F3.0°C 78% 19.0 mph NW30.6 kmh NW 26.0 mph41.8 kmh 30.06 in1017.9 mb 0.00 in0.0 mm 0.00 in/hr0.0 mm/hr 0.15 in3.8 mm
02:56 PM 44.1°F6.7°C 37.4°F3.0°C 77% 20.0 mph NW32.2 kmh NW 26.0 mph41.8 kmh 30.06 in1017.9 mb 0.00 in0.0 mm 0.00 in/hr0.0 mm/hr 0.15 in3.8 mm
02:58 PM 44.3°F6.8°C 37.6°F3.1°C 77% 20.0 mph NW32.2 kmh NW 26.0 mph41.8 kmh 30.06 in1017.9 mb 0.00 in0.0 mm 0.00 in/hr0.0 mm/hr 0.15 in3.8 mm
02:59 PM 44.4°F6.9°C 37.3°F2.9°C 76% 20.0 mph WNW32.2 kmh WNW 26.0 mph41.8 kmh 30.06 in1017.9 mb 0.00 in0.0 mm 0.00 in/hr0.0 mm/hr 0.15 in3.8 mm
03:00 PM 44.4°F6.9°C 36.7°F2.6°C 74% 18.0 mph NW29.0 kmh NW 26.0 mph41.8 kmh 30.06 in1017.9 mb 0.00 in0.0 mm 0.00 in/hr0.0 mm/hr 0.15 in3.8 mm
03:01 PM 44.3°F6.8°C 36.9°F2.7°C 75% 16.0 mph NW25.7 kmh NW 21.0 mph33.8 kmh 30.06 in1017.9 mb 0.00 in0.0 mm 0.00 in/hr0.0 mm/hr 0.15 in3.8 mm
03:02 PM 44.2°F6.8°C 36.5°F2.5°C 74% 18.0 mph NW29.0 kmh NW 21.0 mph33.8 kmh 30.06 in1017.9 mb 0.00 in0.0 mm 0.00 in/hr0.0 mm/hr 0.15 in3.8 mm
03:03 PM 44.1°F6.7°C 37.0°F2.8°C 76% 17.0 mph NW27.4 kmh NW 21.0 mph33.8 kmh 30.06 in1017.9 mb 0.00 in0.0 mm 0.00 in/hr0.0 mm/hr 0.15 in3.8 mm
03:04 PM 43.9°F6.6°C 36.8°F2.7°C 76% 9.0 mph WNW14.5 kmh WNW 21.0 mph33.8 kmh 30.06 in1017.9 mb 0.00 in0.0 mm 0.00 in/hr0.0 mm/hr 0.15 in3.8 mm
03:06 PM 43.8°F6.6°C 36.7°F2.6°C 76% 6.0 mph W9.7 kmh W 21.0 mph33.8 kmh 30.07 in1018.3 mb 0.00 in0.0 mm 0.00 in/hr0.0 mm/hr 0.15 in3.8 mm
03:07 PM 43.6°F6.4°C 36.6°F2.6°C 76% 9.0 mph NW14.5 kmh NW 21.0 mph33.8 kmh 30.07 in1018.3 mb 0.00 in0.0 mm 0.00 in/hr0.0 mm/hr 0.15 in3.8 mm
03:08 PM 43.4°F6.3°C 36.7°F2.6°C 77% 17.0 mph WNW27.4 kmh WNW 21.0 mph33.8 kmh 30.07 in1018.3 mb 0.00 in0.0 mm 0.00 in/hr0.0 mm/hr 0.15 in3.8 mm
03:10 PM 43.3°F6.3°C 36.6°F2.6°C 77% 16.0 mph WNW25.7 kmh WNW 21.0 mph33.8 kmh 30.07 in1018.3 mb 0.00 in0.0 mm 0.00 in/hr0.0 mm/hr 0.15 in3.8 mm
03:11 PM 43.3°F6.3°C 36.3°F2.4°C 76% 17.0 mph NW27.4 kmh NW 22.0 mph35.4 kmh 30.07 in1018.3 mb 0.00 in0.0 mm 0.00 in/hr0.0 mm/hr 0.15 in3.8 mm
03:12 PM 43.3°F6.3°C 36.3°F2.4°C 76% 12.0 mph W19.3 kmh W 22.0 mph35.4 kmh 30.07 in1018.3 mb 0.00 in0.0 mm 0.00 in/hr0.0 mm/hr 0.15 in3.8 mm
03:14 PM 43.3°F6.3°C 36.3°F2.4°C 76% 15.0 mph WNW24.1 kmh WNW 22.0 mph35.4 kmh 30.07 in1018.3 mb 0.00 in0.0 mm 0.00 in/hr0.0 mm/hr 0.15 in3.8 mm
03:15 PM 43.4°F6.3°C 36.7°F2.6°C 77% 17.0 mph NW27.4 kmh NW 22.0 mph35.4 kmh 30.07 in1018.3 mb 0.00 in0.0 mm 0.00 in/hr0.0 mm/hr 0.15 in3.8 mm
03:17 PM 43.4°F6.3°C 36.4°F2.4°C 76% 13.0 mph WNW20.9 kmh WNW 23.0 mph37.0 kmh 30.07 in1018.3 mb 0.00 in0.0 mm 0.00 in/hr0.0 mm/hr 0.15 in3.8 mm
03:18 PM 43.4°F6.3°C 36.0°F2.2°C 75% 16.0 mph WNW25.7 kmh WNW 23.0 mph37.0 kmh 30.07 in1018.3 mb 0.00 in0.0 mm 0.00 in/hr0.0 mm/hr 0.15 in3.8 mm
03:19 PM 43.4°F6.3°C 36.0°F2.2°C 75% 13.0 mph NW20.9 kmh NW 23.0 mph37.0 kmh 30.07 in1018.3 mb 0.00 in0.0 mm 0.00 in/hr0.0 mm/hr 0.15 in3.8 mm
03:20 PM 43.4°F6.3°C 36.4°F2.4°C 76% 13.0 mph W20.9 kmh W 23.0 mph37.0 kmh 30.07 in1018.3 mb 0.00 in0.0 mm 0.00 in/hr0.0 mm/hr 0.15 in3.8 mm
03:21 PM 43.4°F6.3°C 36.4°F2.4°C 76% 16.0 mph NW25.7 kmh NW 23.0 mph37.0 kmh 30.07 in1018.3 mb 0.00 in0.0 mm 0.00 in/hr0.0 mm/hr 0.15 in3.8 mm
03:22 PM 43.4°F6.3°C 37.0°F2.8°C 78% 12.0 mph WNW19.3 kmh WNW 23.0 mph37.0 kmh 30.07 in1018.3 mb 0.00 in0.0 mm 0.00 in/hr0.0 mm/hr 0.15 in3.8 mm
03:23 PM 43.5°F6.4°C 37.4°F3.0°C 79% 14.0 mph WNW22.5 kmh WNW 23.0 mph37.0 kmh 30.08 in1018.6 mb 0.00 in0.0 mm 0.00 in/hr0.0 mm/hr 0.15 in3.8 mm
03:25 PM 43.6°F6.4°C 36.6°F2.6°C 76% 18.0 mph WNW29.0 kmh WNW 23.0 mph37.0 kmh 30.08 in1018.6 mb 0.00 in0.0 mm 0.00 in/hr0.0 mm/hr 0.15 in3.8 mm
03:26 PM 43.6°F6.4°C 36.2°F2.3°C 75% 11.0 mph WNW17.7 kmh WNW 23.0 mph37.0 kmh 30.08 in1018.6 mb 0.00 in0.0 mm 0.00 in/hr0.0 mm/hr 0.15 in3.8 mm
03:27 PM 43.5°F6.4°C 35.8°F2.1°C 74% 13.0 mph W20.9 kmh W 23.0 mph37.0 kmh 30.08 in1018.6 mb 0.00 in0.0 mm 0.00 in/hr0.0 mm/hr 0.15 in3.8 mm
03:29 PM 43.4°F6.3°C 35.7°F2.1°C 74% 15.0 mph W24.1 kmh W 23.0 mph37.0 kmh 30.08 in1018.6 mb 0.00 in0.0 mm 0.00 in/hr0.0 mm/hr 0.15 in3.8 mm
03:30 PM 43.3°F6.3°C 35.9°F2.2°C 75% 16.0 mph W25.7 kmh W 23.0 mph37.0 kmh 30.08 in1018.6 mb 0.00 in0.0 mm 0.00 in/hr0.0 mm/hr 0.15 in3.8 mm
03:31 PM 43.3°F6.3°C 35.9°F2.2°C 75% 16.0 mph NW25.7 kmh NW 19.0 mph30.6 kmh 30.08 in1018.6 mb 0.00 in0.0 mm 0.00 in/hr0.0 mm/hr 0.15 in3.8 mm
03:32 PM 43.3°F6.3°C 35.9°F2.2°C 75% 16.0 mph NW25.7 kmh NW 20.0 mph32.2 kmh 30.08 in1018.6 mb 0.00 in0.0 mm 0.00 in/hr0.0 mm/hr 0.15 in3.8 mm
03:33 PM 43.3°F6.3°C 35.9°F2.2°C 75% 12.0 mph NW19.3 kmh NW 20.0 mph32.2 kmh 30.08 in1018.6 mb 0.00 in0.0 mm 0.00 in/hr0.0 mm/hr 0.15 in3.8 mm
03:34 PM 43.3°F6.3°C 36.3°F2.4°C 76% 3.0 mph NNW4.8 kmh NNW 20.0 mph32.2 kmh 30.08 in1018.6 mb 0.00 in0.0 mm 0.00 in/hr0.0 mm/hr 0.15 in3.8 mm
03:36 PM 43.3°F6.3°C 36.6°F2.6°C 77% 7.0 mph W11.3 kmh W 20.0 mph32.2 kmh 30.08 in1018.6 mb 0.00 in0.0 mm 0.00 in/hr0.0 mm/hr 0.15 in3.8 mm
03:37 PM 43.4°F6.3°C 36.4°F2.4°C 76% 10.0 mph WNW16.1 kmh WNW 20.0 mph32.2 kmh 30.08 in1018.6 mb 0.00 in0.0 mm 0.00 in/hr0.0 mm/hr 0.15 in3.8 mm
03:38 PM 43.4°F6.3°C 36.7°F2.6°C 77% 17.0 mph NW27.4 kmh NW 20.0 mph32.2 kmh 30.08 in1018.6 mb 0.00 in0.0 mm 0.00 in/hr0.0 mm/hr 0.15 in3.8 mm
03:40 PM 43.4°F6.3°C 36.0°F2.2°C 75% 18.0 mph NW29.0 kmh NW 22.0 mph35.4 kmh 30.08 in1018.6 mb 0.00 in0.0 mm 0.00 in/hr0.0 mm/hr 0.15 in3.8 mm
03:41 PM 43.4°F6.3°C 36.0°F2.2°C 75% 20.0 mph WNW32.2 kmh WNW 22.0 mph35.4 kmh 30.08 in1018.6 mb 0.00 in0.0 mm 0.00 in/hr0.0 mm/hr 0.15 in3.8 mm
03:42 PM 43.4°F6.3°C 35.7°F2.1°C 74% 18.0 mph WNW29.0 kmh WNW 22.0 mph35.4 kmh 30.08 in1018.6 mb 0.00 in0.0 mm 0.00 in/hr0.0 mm/hr 0.15 in3.8 mm
03:44 PM 43.4°F6.3°C 35.7°F2.1°C 74% 11.0 mph NW17.7 kmh NW 22.0 mph35.4 kmh 30.09 in1019.0 mb 0.00 in0.0 mm 0.00 in/hr0.0 mm/hr 0.15 in3.8 mm
03:45 PM 43.5°F6.4°C 35.8°F2.1°C 74% 13.0 mph W20.9 kmh W 22.0 mph35.4 kmh 30.09 in1019.0 mb 0.00 in0.0 mm 0.00 in/hr0.0 mm/hr 0.15 in3.8 mm
03:46 PM 43.4°F6.3°C 35.7°F2.1°C 74% 13.0 mph NW20.9 kmh NW 22.0 mph35.4 kmh 30.09 in1019.0 mb 0.00 in0.0 mm 0.00 in/hr0.0 mm/hr 0.15 in3.8 mm
03:47 PM 43.4°F6.3°C 35.7°F2.1°C 74% 12.0 mph WNW19.3 kmh WNW 22.0 mph35.4 kmh 30.09 in1019.0 mb 0.00 in0.0 mm 0.00 in/hr0.0 mm/hr 0.15 in3.8 mm
03:48 PM 43.3°F6.3°C 35.6°F2.0°C 74% 11.0 mph NW17.7 kmh NW 22.0 mph35.4 kmh 30.09 in1019.0 mb 0.00 in0.0 mm 0.00 in/hr0.0 mm/hr 0.15 in3.8 mm
03:50 PM 43.3°F6.3°C 35.9°F2.2°C 75% 15.0 mph NW24.1 kmh NW 22.0 mph35.4 kmh 30.09 in1019.0 mb 0.00 in0.0 mm 0.00 in/hr0.0 mm/hr 0.15 in3.8 mm
03:51 PM 43.2°F6.2°C 35.5°F1.9°C 74% 8.0 mph WNW12.9 kmh WNW 22.0 mph35.4 kmh 30.09 in1019.0 mb 0.00 in0.0 mm 0.00 in/hr0.0 mm/hr 0.15 in3.8 mm
03:53 PM 43.1°F6.2°C 35.7°F2.1°C 75% 10.0 mph WSW16.1 kmh WSW 22.0 mph35.4 kmh 30.09 in1019.0 mb 0.00 in0.0 mm 0.00 in/hr0.0 mm/hr 0.15 in3.8 mm
03:55 PM 43.0°F6.1°C 35.6°F2.0°C 75% 12.0 mph W19.3 kmh W 22.0 mph35.4 kmh 30.09 in1019.0 mb 0.00 in0.0 mm 0.00 in/hr0.0 mm/hr 0.15 in3.8 mm
03:57 PM 42.9°F6.1°C 35.5°F1.9°C 75% 9.0 mph WNW14.5 kmh WNW 22.0 mph35.4 kmh 30.09 in1019.0 mb 0.00 in0.0 mm 0.00 in/hr0.0 mm/hr 0.15 in3.8 mm
03:58 PM 42.9°F6.1°C 35.9°F2.2°C 76% 12.0 mph NW19.3 kmh NW 22.0 mph35.4 kmh 30.09 in1019.0 mb 0.00 in0.0 mm 0.00 in/hr0.0 mm/hr 0.15 in3.8 mm
04:00 PM 42.9°F6.1°C 35.9°F2.2°C 76% 6.0 mph W9.7 kmh W 22.0 mph35.4 kmh 30.10 in1019.3 mb 0.00 in0.0 mm 0.00 in/hr0.0 mm/hr 0.15 in3.8 mm
04:02 PM 43.0°F6.1°C 35.6°F2.0°C 75% 10.0 mph WNW16.1 kmh WNW 18.0 mph29.0 kmh 30.10 in1019.3 mb 0.00 in0.0 mm 0.00 in/hr0.0 mm/hr 0.15 in3.8 mm
04:03 PM 42.9°F6.1°C 35.5°F1.9°C 75% 13.0 mph W20.9 kmh W 18.0 mph29.0 kmh 30.10 in1019.3 mb 0.00 in0.0 mm 0.00 in/hr0.0 mm/hr 0.15 in3.8 mm
04:05 PM 42.9°F6.1°C 35.5°F1.9°C 75% 3.0 mph NW4.8 kmh NW 18.0 mph29.0 kmh 30.10 in1019.3 mb 0.00 in0.0 mm 0.00 in/hr0.0 mm/hr 0.15 in3.8 mm
04:06 PM 42.9°F6.1°C 35.9°F2.2°C 76% 12.0 mph NW19.3 kmh NW 22.0 mph35.4 kmh 30.10 in1019.3 mb 0.00 in0.0 mm 0.00 in/hr0.0 mm/hr 0.15 in3.8 mm
04:07 PM 42.8°F6.0°C 36.1°F2.3°C 77% 12.0 mph WNW19.3 kmh WNW 22.0 mph35.4 kmh 30.10 in1019.3 mb 0.00 in0.0 mm 0.00 in/hr0.0 mm/hr 0.15 in3.8 mm
04:08 PM 42.8°F6.0°C 35.8°F2.1°C 76% 13.0 mph WNW20.9 kmh WNW 22.0 mph35.4 kmh 30.10 in1019.3 mb 0.00 in0.0 mm 0.00 in/hr0.0 mm/hr 0.15 in3.8 mm
04:10 PM 42.9°F6.1°C 36.2°F2.3°C 77% 11.0 mph WNW17.7 kmh WNW 22.0 mph35.4 kmh 30.10 in1019.3 mb 0.00 in0.0 mm 0.00 in/hr0.0 mm/hr 0.15 in3.8 mm
04:11 PM 42.8°F6.0°C 35.4°F1.9°C 75% 14.0 mph W22.5 kmh W 22.0 mph35.4 kmh 30.10 in1019.3 mb 0.00 in0.0 mm 0.00 in/hr0.0 mm/hr 0.15 in3.8 mm
04:12 PM 42.8°F6.0°C 35.4°F1.9°C 75% 16.0 mph W25.7 kmh W 22.0 mph35.4 kmh 30.10 in1019.3 mb 0.00 in0.0 mm 0.00 in/hr0.0 mm/hr 0.15 in3.8 mm
04:13 PM 42.9°F6.1°C 36.2°F2.3°C 77% 15.0 mph WNW24.1 kmh WNW 22.0 mph35.4 kmh 30.10 in1019.3 mb 0.00 in0.0 mm 0.00 in/hr0.0 mm/hr 0.15 in3.8 mm
04:15 PM 42.9°F6.1°C 35.9°F2.2°C 76% 12.0 mph WNW19.3 kmh WNW 22.0 mph35.4 kmh 30.10 in1019.3 mb 0.00 in0.0 mm 0.00 in/hr0.0 mm/hr 0.15 in3.8 mm
04:16 PM 42.9°F6.1°C 35.5°F1.9°C 75% 15.0 mph NW24.1 kmh NW 22.0 mph35.4 kmh 30.11 in1019.6 mb 0.00 in0.0 mm 0.00 in/hr0.0 mm/hr 0.15 in3.8 mm
04:18 PM 42.8°F6.0°C 35.1°F1.7°C 74% 6.0 mph W9.7 kmh W 22.0 mph35.4 kmh 30.10 in1019.3 mb 0.00 in0.0 mm 0.00 in/hr0.0 mm/hr 0.15 in3.8 mm
04:19 PM 42.8°F6.0°C 35.1°F1.7°C 74% 9.0 mph WNW14.5 kmh WNW 22.0 mph35.4 kmh 30.11 in1019.6 mb 0.00 in0.0 mm 0.00 in/hr0.0 mm/hr 0.15 in3.8 mm
04:20 PM 42.8°F6.0°C 35.4°F1.9°C 75% 11.0 mph W17.7 kmh W 22.0 mph35.4 kmh 30.11 in1019.6 mb 0.00 in0.0 mm 0.00 in/hr0.0 mm/hr 0.15 in3.8 mm
04:22 PM 42.8°F6.0°C 35.8°F2.1°C 76% 9.0 mph W14.5 kmh W 22.0 mph35.4 kmh 30.11 in1019.6 mb 0.00 in0.0 mm 0.00 in/hr0.0 mm/hr 0.15 in3.8 mm
04:23 PM 42.7°F5.9°C 35.3°F1.8°C 75% 4.0 mph SW6.4 kmh SW 22.0 mph35.4 kmh 30.11 in1019.6 mb 0.00 in0.0 mm 0.00 in/hr0.0 mm/hr 0.15 in3.8 mm
04:24 PM 42.7°F5.9°C 35.3°F1.8°C 75% 6.0 mph WSW9.7 kmh WSW 22.0 mph35.4 kmh 30.11 in1019.6 mb 0.00 in0.0 mm 0.00 in/hr0.0 mm/hr 0.15 in3.8 mm
04:25 PM 42.7°F5.9°C 35.7°F2.1°C 76% 11.0 mph WNW17.7 kmh WNW 22.0 mph35.4 kmh 30.11 in1019.6 mb 0.00 in0.0 mm 0.00 in/hr0.0 mm/hr 0.15 in3.8 mm
04:26 PM 42.8°F6.0°C 35.8°F2.1°C 76% 7.0 mph NW11.3 kmh NW 22.0 mph35.4 kmh 30.11 in1019.6 mb 0.00 in0.0 mm 0.00 in/hr0.0 mm/hr 0.15 in3.8 mm
04:27 PM 42.8°F6.0°C 35.8°F2.1°C 76% 19.0 mph WNW30.6 kmh WNW 22.0 mph35.4 kmh 30.11 in1019.6 mb 0.00 in0.0 mm 0.00 in/hr0.0 mm/hr 0.15 in3.8 mm
04:28 PM 42.8°F6.0°C 35.4°F1.9°C 75% 13.0 mph NW20.9 kmh NW 22.0 mph35.4 kmh 30.11 in1019.6 mb 0.00 in0.0 mm 0.00 in/hr0.0 mm/hr 0.15 in3.8 mm
04:30 PM 42.8°F6.0°C 35.8°F2.1°C 76% 8.0 mph WSW12.9 kmh WSW 22.0 mph35.4 kmh 30.11 in1019.6 mb 0.00 in0.0 mm 0.00 in/hr0.0 mm/hr 0.15 in3.8 mm
04:31 PM 42.7°F5.9°C 35.3°F1.8°C 75% 19.0 mph NW30.6 kmh NW 19.0 mph30.6 kmh 30.11 in1019.6 mb 0.00 in0.0 mm 0.00 in/hr0.0 mm/hr 0.15 in3.8 mm
04:32 PM 42.7°F5.9°C 35.0°F1.7°C 74% 7.0 mph NW11.3 kmh NW 19.0 mph30.6 kmh 30.12 in1020.0 mb 0.00 in0.0 mm 0.00 in/hr0.0 mm/hr 0.15 in3.8 mm
04:33 PM 42.7°F5.9°C 35.0°F1.7°C 74% 13.0 mph NW20.9 kmh NW 19.0 mph30.6 kmh 30.12 in1020.0 mb 0.00 in0.0 mm 0.00 in/hr0.0 mm/hr 0.15 in3.8 mm
04:34 PM 42.6°F5.9°C 35.2°F1.8°C 75% 4.0 mph WNW6.4 kmh WNW 19.0 mph30.6 kmh 30.12 in1020.0 mb 0.00 in0.0 mm 0.00 in/hr0.0 mm/hr 0.15 in3.8 mm
04:36 PM 42.6°F5.9°C 34.9°F1.6°C 74% 6.0 mph W9.7 kmh W 19.0 mph30.6 kmh 30.12 in1020.0 mb 0.00 in0.0 mm 0.00 in/hr0.0 mm/hr 0.15 in3.8 mm
04:37 PM 42.6°F5.9°C 35.2°F1.8°C 75% 12.0 mph W19.3 kmh W 19.0 mph30.6 kmh 30.12 in1020.0 mb 0.00 in0.0 mm 0.00 in/hr0.0 mm/hr 0.15 in3.8 mm
04:38 PM 42.6°F5.9°C 35.9°F2.2°C 77% 18.0 mph NW29.0 kmh NW 19.0 mph30.6 kmh 30.12 in1020.0 mb 0.00 in0.0 mm 0.00 in/hr0.0 mm/hr 0.15 in3.8 mm
04:40 PM 42.6°F5.9°C 34.9°F1.6°C 74% 10.0 mph WNW16.1 kmh WNW 19.0 mph30.6 kmh 30.12 in1020.0 mb 0.00 in0.0 mm 0.00 in/hr0.0 mm/hr 0.15 in3.8 mm
04:41 PM 42.5°F5.8°C 35.2°F1.8°C 75% 10.0 mph NW16.1 kmh NW 19.0 mph30.6 kmh 30.12 in1020.0 mb 0.00 in0.0 mm 0.00 in/hr0.0 mm/hr 0.15 in3.8 mm
04:42 PM 42.5°F5.8°C 35.2°F1.8°C 75% 6.0 mph WSW9.7 kmh WSW 19.0 mph30.6 kmh 30.12 in1020.0 mb 0.00 in0.0 mm 0.00 in/hr0.0 mm/hr 0.15 in3.8 mm
04:44 PM 42.5°F5.8°C 35.5°F1.9°C 76% 10.0 mph SSW16.1 kmh SSW 19.0 mph30.6 kmh 30.12 in1020.0 mb 0.00 in0.0 mm 0.00 in/hr0.0 mm/hr 0.15 in3.8 mm
04:45 PM 42.5°F5.8°C 35.2°F1.8°C 75% 15.0 mph WNW24.1 kmh WNW 19.0 mph30.6 kmh 30.12 in1020.0 mb 0.00 in0.0 mm 0.00 in/hr0.0 mm/hr 0.15 in3.8 mm
04:46 PM 42.5°F5.8°C 34.8°F1.6°C 74% 9.0 mph WNW14.5 kmh WNW 19.0 mph30.6 kmh 30.12 in1020.0 mb 0.00 in0.0 mm 0.00 in/hr0.0 mm/hr 0.15 in3.8 mm
04:47 PM 42.5°F5.8°C 34.8°F1.6°C 74% 7.0 mph W11.3 kmh W 19.0 mph30.6 kmh 30.12 in1020.0 mb 0.00 in0.0 mm 0.00 in/hr0.0 mm/hr 0.15 in3.8 mm
04:48 PM 42.6°F5.9°C 35.2°F1.8°C 75% 10.0 mph WNW16.1 kmh WNW 19.0 mph30.6 kmh 30.12 in1020.0 mb 0.00 in0.0 mm 0.00 in/hr0.0 mm/hr 0.15 in3.8 mm
04:49 PM 42.6°F5.9°C 34.9°F1.6°C 74% 12.0 mph WNW19.3 kmh WNW 19.0 mph30.6 kmh 30.12 in1020.0 mb 0.00 in0.0 mm 0.00 in/hr0.0 mm/hr 0.15 in3.8 mm
04:50 PM 42.7°F5.9°C 35.3°F1.8°C 75% 14.0 mph WNW22.5 kmh WNW 19.0 mph30.6 kmh 30.12 in1020.0 mb 0.00 in0.0 mm 0.00 in/hr0.0 mm/hr 0.15 in3.8 mm
04:52 PM 42.7°F5.9°C 35.3°F1.8°C 75% 13.0 mph WNW20.9 kmh WNW 19.0 mph30.6 kmh 30.13 in1020.3 mb 0.00 in0.0 mm 0.00 in/hr0.0 mm/hr 0.15 in3.8 mm
04:53 PM 42.7°F5.9°C 34.7°F1.5°C 73% 12.0 mph WNW19.3 kmh WNW 19.0 mph30.6 kmh 30.13 in1020.3 mb 0.00 in0.0 mm 0.00 in/hr0.0 mm/hr 0.15 in3.8 mm
04:54 PM 42.7°F5.9°C 34.7°F1.5°C 73% 16.0 mph NW25.7 kmh NW 19.0 mph30.6 kmh 30.13 in1020.3 mb 0.00 in0.0 mm 0.00 in/hr0.0 mm/hr 0.15 in3.8 mm
04:55 PM 42.7°F5.9°C 34.7°F1.5°C 73% 12.0 mph WNW19.3 kmh WNW 19.0 mph30.6 kmh 30.13 in1020.3 mb 0.00 in0.0 mm 0.00 in/hr0.0 mm/hr 0.15 in3.8 mm
04:56 PM 42.7°F5.9°C 35.0°F1.7°C 74% 10.0 mph WNW16.1 kmh WNW 19.0 mph30.6 kmh 30.13 in1020.3 mb 0.00 in0.0 mm 0.00 in/hr0.0 mm/hr 0.15 in3.8 mm
04:58 PM 42.8°F6.0°C 35.1°F1.7°C 74% 14.0 mph WNW22.5 kmh WNW 19.0 mph30.6 kmh 30.13 in1020.3 mb 0.00 in0.0 mm 0.00 in/hr0.0 mm/hr 0.15 in3.8 mm
04:59 PM 42.7°F5.9°C 35.0°F1.7°C 74% 10.0 mph WNW16.1 kmh WNW 19.0 mph30.6 kmh 30.13 in1020.3 mb 0.00 in0.0 mm 0.00 in/hr0.0 mm/hr 0.15 in3.8 mm
05:00 PM 42.7°F5.9°C 34.3°F1.3°C 72% 7.0 mph W11.3 kmh W 19.0 mph30.6 kmh 30.13 in1020.3 mb 0.00 in0.0 mm 0.00 in/hr0.0 mm/hr 0.15 in3.8 mm
05:01 PM 42.7°F5.9°C 34.3°F1.3°C 72% 8.0 mph WNW12.9 kmh WNW 14.0 mph22.5 kmh 30.13 in1020.3 mb 0.00 in0.0 mm 0.00 in/hr0.0 mm/hr 0.15 in3.8 mm
05:02 PM 42.6°F5.9°C 34.9°F1.6°C 74% 9.0 mph WNW14.5 kmh WNW 14.0 mph22.5 kmh 30.13 in1020.3 mb 0.00 in0.0 mm 0.00 in/hr0.0 mm/hr 0.15 in3.8 mm
05:04 PM 42.6°F5.9°C 34.9°F1.6°C 74% 5.0 mph WNW8.0 kmh WNW 16.0 mph25.7 kmh 30.13 in1020.3 mb 0.00 in0.0 mm 0.00 in/hr0.0 mm/hr 0.15 in3.8 mm
05:05 PM 42.6°F5.9°C 34.9°F1.6°C 74% 9.0 mph WNW14.5 kmh WNW 16.0 mph25.7 kmh 30.13 in1020.3 mb 0.00 in0.0 mm 0.00 in/hr0.0 mm/hr 0.15 in3.8 mm
05:06 PM 42.6°F5.9°C 34.9°F1.6°C 74% 9.0 mph WNW14.5 kmh WNW 18.0 mph29.0 kmh 30.14 in1020.7 mb 0.00 in0.0 mm 0.00 in/hr0.0 mm/hr 0.15 in3.8 mm
05:08 PM 42.6°F5.9°C 34.9°F1.6°C 74% 8.0 mph WNW12.9 kmh WNW 18.0 mph29.0 kmh 30.13 in1020.3 mb 0.00 in0.0 mm 0.00 in/hr0.0 mm/hr 0.15 in3.8 mm
05:09 PM 42.5°F5.8°C 34.8°F1.6°C 74% 9.0 mph W14.5 kmh W 18.0 mph29.0 kmh 30.14 in1020.7 mb 0.00 in0.0 mm 0.00 in/hr0.0 mm/hr 0.15 in3.8 mm
05:10 PM 42.5°F5.8°C 34.8°F1.6°C 74% 12.0 mph NW19.3 kmh NW 18.0 mph29.0 kmh 30.14 in1020.7 mb 0.00 in0.0 mm 0.00 in/hr0.0 mm/hr 0.15 in3.8 mm
05:12 PM 42.5°F5.8°C 34.8°F1.6°C 74% 19.0 mph WNW30.6 kmh WNW 19.0 mph30.6 kmh 30.14 in1020.7 mb 0.00 in0.0 mm 0.00 in/hr0.0 mm/hr 0.15 in3.8 mm
05:13 PM 42.4°F5.8°C 34.4°F1.3°C 73% 6.0 mph WNW9.7 kmh WNW 19.0 mph30.6 kmh 30.14 in1020.7 mb 0.00 in0.0 mm 0.00 in/hr0.0 mm/hr 0.15 in3.8 mm
05:14 PM 42.4°F5.8°C 34.4°F1.3°C 73% 6.0 mph WNW9.7 kmh WNW 19.0 mph30.6 kmh 30.14 in1020.7 mb 0.00 in0.0 mm 0.00 in/hr0.0 mm/hr 0.15 in3.8 mm
05:15 PM 42.3°F5.7°C 34.3°F1.3°C 73% 8.0 mph NNW12.9 kmh NNW 19.0 mph30.6 kmh 30.14 in1020.7 mb 0.00 in0.0 mm 0.00 in/hr0.0 mm/hr 0.15 in3.8 mm
05:16 PM 42.3°F5.7°C 34.6°F1.4°C 74% 4.0 mph NW6.4 kmh NW 19.0 mph30.6 kmh 30.14 in1020.7 mb 0.00 in0.0 mm 0.00 in/hr0.0 mm/hr 0.15 in3.8 mm
05:18 PM 42.3°F5.7°C 35.0°F1.7°C 75% 8.0 mph WSW12.9 kmh WSW 19.0 mph30.6 kmh 30.14 in1020.7 mb 0.00 in0.0 mm 0.00 in/hr0.0 mm/hr 0.15 in3.8 mm
05:19 PM 42.3°F5.7°C 34.3°F1.3°C 73% 10.0 mph WNW16.1 kmh WNW 19.0 mph30.6 kmh 30.14 in1020.7 mb 0.00 in0.0 mm 0.00 in/hr0.0 mm/hr 0.15 in3.8 mm
05:20 PM 42.3°F5.7°C 34.3°F1.3°C 73% 11.0 mph W17.7 kmh W 19.0 mph30.6 kmh 30.14 in1020.7 mb 0.00 in0.0 mm 0.00 in/hr0.0 mm/hr 0.15 in3.8 mm
05:22 PM 42.3°F5.7°C 34.3°F1.3°C 73% 8.0 mph W12.9 kmh W 19.0 mph30.6 kmh 30.14 in1020.7 mb 0.00 in0.0 mm 0.00 in/hr0.0 mm/hr 0.15 in3.8 mm
05:23 PM 42.3°F5.7°C 34.3°F1.3°C 73% 15.0 mph NW24.1 kmh NW 19.0 mph30.6 kmh 30.14 in1020.7 mb 0.00 in0.0 mm 0.00 in/hr0.0 mm/hr 0.15 in3.8 mm
05:24 PM 42.4°F5.8°C 34.0°F1.1°C 72% 15.0 mph WNW24.1 kmh WNW 19.0 mph30.6 kmh 30.14 in1020.7 mb 0.00 in0.0 mm 0.00 in/hr0.0 mm/hr 0.15 in3.8 mm
05:25 PM 42.3°F5.7°C 33.6°F0.9°C 71% 13.0 mph NW20.9 kmh NW 19.0 mph30.6 kmh 30.14 in1020.7 mb 0.00 in0.0 mm 0.00 in/hr0.0 mm/hr 0.15 in3.8 mm
05:26 PM 42.3°F5.7°C 33.9°F1.1°C 72% 15.0 mph WNW24.1 kmh WNW 19.0 mph30.6 kmh 30.15 in1021.0 mb 0.00 in0.0 mm 0.00 in/hr0.0 mm/hr 0.15 in3.8 mm
05:27 PM 42.3°F5.7°C 33.9°F1.1°C 72% 13.0 mph W20.9 kmh W 19.0 mph30.6 kmh 30.15 in1021.0 mb 0.00 in0.0 mm 0.00 in/hr0.0 mm/hr 0.15 in3.8 mm
05:28 PM 42.2°F5.7°C 33.8°F1.0°C 72% 14.0 mph WNW22.5 kmh WNW 19.0 mph30.6 kmh 30.15 in1021.0 mb 0.00 in0.0 mm 0.00 in/hr0.0 mm/hr 0.15 in3.8 mm
05:30 PM 42.2°F5.7°C 33.8°F1.0°C 72% 10.0 mph WNW16.1 kmh WNW 19.0 mph30.6 kmh 30.15 in1021.0 mb 0.00 in0.0 mm 0.00 in/hr0.0 mm/hr 0.15 in3.8 mm
05:31 PM 42.2°F5.7°C 33.8°F1.0°C 72% 9.0 mph NW14.5 kmh NW 12.0 mph19.3 kmh 30.15 in1021.0 mb 0.00 in0.0 mm 0.00 in/hr0.0 mm/hr 0.15 in3.8 mm
05:32 PM 42.2°F5.7°C 34.2°F1.2°C 73% 13.0 mph WNW20.9 kmh WNW 13.0 mph20.9 kmh 30.15 in1021.0 mb 0.00 in0.0 mm 0.00 in/hr0.0 mm/hr 0.15 in3.8 mm
05:33 PM 42.1°F5.6°C 34.1°F1.2°C 73% 15.0 mph NW24.1 kmh NW 16.0 mph25.7 kmh 30.15 in1021.0 mb 0.00 in0.0 mm 0.00 in/hr0.0 mm/hr 0.15 in3.8 mm
05:34 PM 42.1°F5.6°C 33.7°F0.9°C 72% 12.0 mph WNW19.3 kmh WNW 17.0 mph27.4 kmh 30.15 in1021.0 mb 0.00 in0.0 mm 0.00 in/hr0.0 mm/hr 0.15 in3.8 mm
05:36 PM 42.0°F5.6°C 33.6°F0.9°C 72% 11.0 mph WNW17.7 kmh WNW 17.0 mph27.4 kmh 30.15 in1021.0 mb 0.00 in0.0 mm 0.00 in/hr0.0 mm/hr 0.15 in3.8 mm
05:37 PM 42.0°F5.6°C 33.3°F0.7°C 71% 18.0 mph NW29.0 kmh NW 18.0 mph29.0 kmh 30.15 in1021.0 mb 0.00 in0.0 mm 0.00 in/hr0.0 mm/hr 0.15 in3.8 mm
05:38 PM 42.0°F5.6°C 33.3°F0.7°C 71% 8.0 mph W12.9 kmh W 18.0 mph29.0 kmh 30.15 in1021.0 mb 0.00 in0.0 mm 0.00 in/hr0.0 mm/hr 0.15 in3.8 mm
05:39 PM 42.0°F5.6°C 33.3°F0.7°C 71% 15.0 mph NW24.1 kmh NW 18.0 mph29.0 kmh 30.15 in1021.0 mb 0.00 in0.0 mm 0.00 in/hr0.0 mm/hr 0.15 in3.8 mm
05:40 PM 41.9°F5.5°C 32.8°F0.4°C 70% 11.0 mph NW17.7 kmh NW 18.0 mph29.0 kmh 30.15 in1021.0 mb 0.00 in0.0 mm 0.00 in/hr0.0 mm/hr 0.15 in3.8 mm
05:42 PM 41.9°F5.5°C 33.2°F0.7°C 71% 8.0 mph WNW12.9 kmh WNW 18.0 mph29.0 kmh 30.15 in1021.0 mb 0.00 in0.0 mm 0.00 in/hr0.0 mm/hr 0.15 in3.8 mm
05:43 PM 41.9°F5.5°C 33.2°F0.7°C 71% 12.0 mph WNW19.3 kmh WNW 18.0 mph29.0 kmh 30.15 in1021.0 mb 0.00 in0.0 mm 0.00 in/hr0.0 mm/hr 0.15 in3.8 mm
05:44 PM 41.9°F5.5°C 33.2°F0.7°C 71% 6.0 mph WNW9.7 kmh WNW 18.0 mph29.0 kmh 30.15 in1021.0 mb 0.00 in0.0 mm 0.00 in/hr0.0 mm/hr 0.15 in3.8 mm
05:45 PM 41.8°F5.4°C 33.5°F0.8°C 72% 6.0 mph W9.7 kmh W 18.0 mph29.0 kmh 30.15 in1021.0 mb 0.00 in0.0 mm 0.00 in/hr0.0 mm/hr 0.15 in3.8 mm
05:47 PM 41.8°F5.4°C 33.8°F1.0°C 73% 10.0 mph WNW16.1 kmh WNW 18.0 mph29.0 kmh 30.15 in1021.0 mb 0.00 in0.0 mm 0.00 in/hr0.0 mm/hr 0.15 in3.8 mm
05:48 PM 41.7°F5.4°C 33.7°F0.9°C 73% 8.0 mph NW12.9 kmh NW 18.0 mph29.0 kmh 30.16 in1021.3 mb 0.00 in0.0 mm 0.00 in/hr0.0 mm/hr 0.15 in3.8 mm
05:49 PM 41.8°F5.4°C 33.8°F1.0°C 73% 11.0 mph NW17.7 kmh NW 18.0 mph29.0 kmh 30.16 in1021.3 mb 0.00 in0.0 mm 0.00 in/hr0.0 mm/hr 0.15 in3.8 mm
05:50 PM 41.7°F5.4°C 34.0°F1.1°C 74% 11.0 mph NW17.7 kmh NW 18.0 mph29.0 kmh 30.16 in1021.3 mb 0.00 in0.0 mm 0.00 in/hr0.0 mm/hr 0.15 in3.8 mm
05:51 PM 41.7°F5.4°C 34.7°F1.5°C 76% 11.0 mph NW17.7 kmh NW 18.0 mph29.0 kmh 30.16 in1021.3 mb 0.00 in0.0 mm 0.00 in/hr0.0 mm/hr 0.15 in3.8 mm
05:53 PM 41.7°F5.4°C 34.4°F1.3°C 75% 16.0 mph NW25.7 kmh NW 18.0 mph29.0 kmh 30.16 in1021.3 mb 0.00 in0.0 mm 0.00 in/hr0.0 mm/hr 0.15 in3.8 mm
05:54 PM 41.6°F5.3°C 33.9°F1.1°C 74% 14.0 mph NW22.5 kmh NW 18.0 mph29.0 kmh 30.16 in1021.3 mb 0.00 in0.0 mm 0.00 in/hr0.0 mm/hr 0.15 in3.8 mm
05:55 PM 41.6°F5.3°C 33.6°F0.9°C 73% 17.0 mph NW27.4 kmh NW 18.0 mph29.0 kmh 30.16 in1021.3 mb 0.00 in0.0 mm 0.00 in/hr0.0 mm/hr 0.15 in3.8 mm
05:56 PM 41.6°F5.3°C 33.9°F1.1°C 74% 14.0 mph WNW22.5 kmh WNW 18.0 mph29.0 kmh 30.16 in1021.3 mb 0.00 in0.0 mm 0.00 in/hr0.0 mm/hr 0.15 in3.8 mm
05:58 PM 41.6°F5.3°C 33.6°F0.9°C 73% 13.0 mph NW20.9 kmh NW 18.0 mph29.0 kmh 30.16 in1021.3 mb 0.00 in0.0 mm 0.00 in/hr0.0 mm/hr 0.15 in3.8 mm
06:00 PM 41.5°F5.3°C 33.5°F0.8°C 73% 13.0 mph NW20.9 kmh NW 18.0 mph29.0 kmh 30.16 in1021.3 mb 0.00 in0.0 mm 0.00 in/hr0.0 mm/hr 0.15 in3.8 mm
06:01 PM 41.5°F5.3°C 33.5°F0.8°C 73% 14.0 mph NW22.5 kmh NW 15.0 mph24.1 kmh 30.16 in1021.3 mb 0.00 in0.0 mm 0.00 in/hr0.0 mm/hr 0.15 in3.8 mm
06:02 PM 41.5°F5.3°C 33.2°F0.7°C 72% 13.0 mph NW20.9 kmh NW 15.0 mph24.1 kmh 30.16 in1021.3 mb 0.00 in0.0 mm 0.00 in/hr0.0 mm/hr 0.15 in3.8 mm
06:03 PM 41.4°F5.2°C 33.4°F0.8°C 73% 10.0 mph NW16.1 kmh NW 15.0 mph24.1 kmh 30.16 in1021.3 mb 0.00 in0.0 mm 0.00 in/hr0.0 mm/hr 0.15 in3.8 mm
06:05 PM 41.4°F5.2°C 33.8°F1.0°C 74% 11.0 mph NW17.7 kmh NW 15.0 mph24.1 kmh 30.16 in1021.3 mb 0.00 in0.0 mm 0.00 in/hr0.0 mm/hr 0.15 in3.8 mm
06:06 PM 41.4°F5.2°C 34.1°F1.2°C 75% 11.0 mph NW17.7 kmh NW 15.0 mph24.1 kmh 30.16 in1021.3 mb 0.00 in0.0 mm 0.00 in/hr0.0 mm/hr 0.15 in3.8 mm
06:07 PM 41.4°F5.2°C 33.8°F1.0°C 74% 11.0 mph NW17.7 kmh NW 15.0 mph24.1 kmh 30.16 in1021.3 mb 0.00 in0.0 mm 0.00 in/hr0.0 mm/hr 0.15 in3.8 mm
06:09 PM 41.4°F5.2°C 33.4°F0.8°C 73% 11.0 mph NW17.7 kmh NW 15.0 mph24.1 kmh 30.16 in1021.3 mb 0.00 in0.0 mm 0.00 in/hr0.0 mm/hr 0.15 in3.8 mm
06:10 PM 41.4°F5.2°C 33.8°F1.0°C 74% 8.0 mph WNW12.9 kmh WNW 15.0 mph24.1 kmh 30.16 in1021.3 mb 0.00 in0.0 mm 0.00 in/hr0.0 mm/hr 0.15 in3.8 mm
06:11 PM 41.4°F5.2°C 34.1°F1.2°C 75% 8.0 mph NW12.9 kmh NW 15.0 mph24.1 kmh 30.16 in1021.3 mb 0.00 in0.0 mm 0.00 in/hr0.0 mm/hr 0.15 in3.8 mm
06:13 PM 41.4°F5.2°C 34.1°F1.2°C 75% 8.0 mph WNW12.9 kmh WNW 15.0 mph24.1 kmh 30.16 in1021.3 mb 0.00 in0.0 mm 0.00 in/hr0.0 mm/hr 0.15 in3.8 mm
06:14 PM 41.3°F5.2°C 34.0°F1.1°C 75% 8.0 mph WNW12.9 kmh WNW 15.0 mph24.1 kmh 30.17 in1021.7 mb 0.00 in0.0 mm 0.00 in/hr0.0 mm/hr 0.15 in3.8 mm
06:15 PM 41.3°F5.2°C 34.0°F1.1°C 75% 9.0 mph WNW14.5 kmh WNW 15.0 mph24.1 kmh 30.17 in1021.7 mb 0.00 in0.0 mm 0.00 in/hr0.0 mm/hr 0.15 in3.8 mm
06:16 PM 41.3°F5.2°C 34.3°F1.3°C 76% 10.0 mph WNW16.1 kmh WNW 15.0 mph24.1 kmh 30.17 in1021.7 mb 0.00 in0.0 mm 0.00 in/hr0.0 mm/hr 0.15 in3.8 mm
06:17 PM 41.3°F5.2°C 34.0°F1.1°C 75% 7.0 mph NW11.3 kmh NW 15.0 mph24.1 kmh 30.17 in1021.7 mb 0.00 in0.0 mm 0.00 in/hr0.0 mm/hr 0.15 in3.8 mm
06:18 PM 41.3°F5.2°C 34.3°F1.3°C 76% 9.0 mph NW14.5 kmh NW 15.0 mph24.1 kmh 30.17 in1021.7 mb 0.00 in0.0 mm 0.00 in/hr0.0 mm/hr 0.15 in3.8 mm
06:20 PM 41.3°F5.2°C 34.3°F1.3°C 76% 6.0 mph NW9.7 kmh NW 15.0 mph24.1 kmh 30.17 in1021.7 mb 0.00 in0.0 mm 0.00 in/hr0.0 mm/hr 0.15 in3.8 mm
06:21 PM 41.3°F5.2°C 34.3°F1.3°C 76% 9.0 mph NW14.5 kmh NW 15.0 mph24.1 kmh 30.17 in1021.7 mb 0.00 in0.0 mm 0.00 in/hr0.0 mm/hr 0.15 in3.8 mm
06:23 PM 41.2°F5.1°C 34.2°F1.2°C 76% 9.0 mph NW14.5 kmh NW 15.0 mph24.1 kmh 30.17 in1021.7 mb 0.00 in0.0 mm 0.00 in/hr0.0 mm/hr 0.15 in3.8 mm
06:24 PM 41.2°F5.1°C 34.2°F1.2°C 76% 8.0 mph NW12.9 kmh NW 15.0 mph24.1 kmh 30.17 in1021.7 mb 0.00 in0.0 mm 0.00 in/hr0.0 mm/hr 0.15 in3.8 mm
06:25 PM 41.2°F5.1°C 34.2°F1.2°C 76% 7.0 mph NW11.3 kmh NW 15.0 mph24.1 kmh 30.17 in1021.7 mb 0.00 in0.0 mm 0.00 in/hr0.0 mm/hr 0.15 in3.8 mm
06:27 PM 41.2°F5.1°C 34.6°F1.4°C 77% 9.0 mph NW14.5 kmh NW 15.0 mph24.1 kmh 30.17 in1021.7 mb 0.00 in0.0 mm 0.00 in/hr0.0 mm/hr 0.15 in3.8 mm
06:28 PM 41.2°F5.1°C 34.6°F1.4°C 77% 7.0 mph NW11.3 kmh NW 15.0 mph24.1 kmh 30.17 in1021.7 mb 0.00 in0.0 mm 0.00 in/hr0.0 mm/hr 0.15 in3.8 mm
06:30 PM 41.2°F5.1°C 34.6°F1.4°C 77% 7.0 mph NW11.3 kmh NW 15.0 mph24.1 kmh 30.17 in1021.7 mb 0.00 in0.0 mm 0.00 in/hr0.0 mm/hr 0.15 in3.8 mm
06:31 PM 41.2°F5.1°C 34.9°F1.6°C 78% 8.0 mph NW12.9 kmh NW 8.0 mph12.9 kmh 30.17 in1021.7 mb 0.00 in0.0 mm 0.00 in/hr0.0 mm/hr 0.15 in3.8 mm
06:32 PM 41.2°F5.1°C 34.9°F1.6°C 78% 5.0 mph WNW8.0 kmh WNW 10.0 mph16.1 kmh 30.17 in1021.7 mb 0.00 in0.0 mm 0.00 in/hr0.0 mm/hr 0.15 in3.8 mm
06:33 PM 41.1°F5.1°C 34.8°F1.6°C 78% 7.0 mph WNW11.3 kmh WNW 10.0 mph16.1 kmh 30.17 in1021.7 mb 0.00 in0.0 mm 0.00 in/hr0.0 mm/hr 0.15 in3.8 mm
06:35 PM 41.1°F5.1°C 34.1°F1.2°C 76% 5.0 mph WNW8.0 kmh WNW 10.0 mph16.1 kmh 30.17 in1021.7 mb 0.00 in0.0 mm 0.00 in/hr0.0 mm/hr 0.15 in3.8 mm
06:36 PM 41.1°F5.1°C 34.5°F1.4°C 77% 6.0 mph NW9.7 kmh NW 10.0 mph16.1 kmh 30.17 in1021.7 mb 0.00 in0.0 mm 0.00 in/hr0.0 mm/hr 0.15 in3.8 mm
06:38 PM 41.1°F5.1°C 34.5°F1.4°C 77% 6.0 mph NW9.7 kmh NW 10.0 mph16.1 kmh 30.17 in1021.7 mb 0.00 in0.0 mm 0.00 in/hr0.0 mm/hr 0.15 in3.8 mm
06:39 PM 41.1°F5.1°C 34.1°F1.2°C 76% 6.0 mph NW9.7 kmh NW 10.0 mph16.1 kmh 30.17 in1021.7 mb 0.00 in0.0 mm 0.00 in/hr0.0 mm/hr 0.15 in3.8 mm
06:40 PM 41.0°F5.0°C 34.0°F1.1°C 76% 7.0 mph WNW11.3 kmh WNW 10.0 mph16.1 kmh 30.17 in1021.7 mb 0.00 in0.0 mm 0.00 in/hr0.0 mm/hr 0.15 in3.8 mm
06:41 PM 41.0°F5.0°C 34.0°F1.1°C 76% 6.0 mph NW9.7 kmh NW 10.0 mph16.1 kmh 30.17 in1021.7 mb 0.00 in0.0 mm 0.00 in/hr0.0 mm/hr 0.15 in3.8 mm
06:42 PM 41.1°F5.1°C 34.5°F1.4°C 77% 6.0 mph WNW9.7 kmh WNW 11.0 mph17.7 kmh 30.18 in1022.0 mb 0.00 in0.0 mm 0.00 in/hr0.0 mm/hr 0.15 in3.8 mm
06:43 PM 41.0°F5.0°C 34.0°F1.1°C 76% 8.0 mph WNW12.9 kmh WNW 11.0 mph17.7 kmh 30.18 in1022.0 mb 0.00 in0.0 mm 0.00 in/hr0.0 mm/hr 0.15 in3.8 mm
06:44 PM 41.0°F5.0°C 34.0°F1.1°C 76% 7.0 mph WNW11.3 kmh WNW 11.0 mph17.7 kmh 30.18 in1022.0 mb 0.00 in0.0 mm 0.00 in/hr0.0 mm/hr 0.15 in3.8 mm
06:45 PM 41.0°F5.0°C 34.0°F1.1°C 76% 6.0 mph WNW9.7 kmh WNW 11.0 mph17.7 kmh 30.18 in1022.0 mb 0.00 in0.0 mm 0.00 in/hr0.0 mm/hr 0.15 in3.8 mm
06:46 PM 41.0°F5.0°C 34.0°F1.1°C 76% 6.0 mph WNW9.7 kmh WNW 11.0 mph17.7 kmh 30.18 in1022.0 mb 0.00 in0.0 mm 0.00 in/hr0.0 mm/hr 0.15 in3.8 mm
06:48 PM 41.0°F5.0°C 34.0°F1.1°C 76% 8.0 mph NW12.9 kmh NW 11.0 mph17.7 kmh 30.18 in1022.0 mb 0.00 in0.0 mm 0.00 in/hr0.0 mm/hr 0.15 in3.8 mm
06:49 PM 41.0°F5.0°C 34.0°F1.1°C 76% 5.0 mph WNW8.0 kmh WNW 11.0 mph17.7 kmh 30.18 in1022.0 mb 0.00 in0.0 mm 0.00 in/hr0.0 mm/hr 0.15 in3.8 mm
06:50 PM 41.0°F5.0°C 34.4°F1.3°C 77% 6.0 mph NW9.7 kmh NW 11.0 mph17.7 kmh 30.18 in1022.0 mb 0.00 in0.0 mm 0.00 in/hr0.0 mm/hr 0.15 in3.8 mm
06:51 PM 41.0°F5.0°C 34.4°F1.3°C 77% 9.0 mph NW14.5 kmh NW 11.0 mph17.7 kmh 30.18 in1022.0 mb 0.00 in0.0 mm 0.00 in/hr0.0 mm/hr 0.15 in3.8 mm
06:53 PM 41.0°F5.0°C 34.4°F1.3°C 77% 7.0 mph NW11.3 kmh NW 11.0 mph17.7 kmh 30.18 in1022.0 mb 0.00 in0.0 mm 0.00 in/hr0.0 mm/hr 0.15 in3.8 mm
06:54 PM 41.0°F5.0°C 34.7°F1.5°C 78% 7.0 mph NW11.3 kmh NW 11.0 mph17.7 kmh 30.18 in1022.0 mb 0.00 in0.0 mm 0.00 in/hr0.0 mm/hr 0.15 in3.8 mm
06:55 PM 41.0°F5.0°C 34.7°F1.5°C 78% 7.0 mph NW11.3 kmh NW 11.0 mph17.7 kmh 30.19 in1022.4 mb 0.00 in0.0 mm 0.00 in/hr0.0 mm/hr 0.15 in3.8 mm
06:56 PM 40.9°F4.9°C 34.9°F1.6°C 79% 7.0 mph NW11.3 kmh NW 11.0 mph17.7 kmh 30.19 in1022.4 mb 0.00 in0.0 mm 0.00 in/hr0.0 mm/hr 0.15 in3.8 mm
06:58 PM 40.9°F4.9°C 34.6°F1.4°C 78% 7.0 mph NW11.3 kmh NW 11.0 mph17.7 kmh 30.19 in1022.4 mb 0.00 in0.0 mm 0.00 in/hr0.0 mm/hr 0.15 in3.8 mm
06:59 PM 40.9°F4.9°C 34.6°F1.4°C 78% 7.0 mph NW11.3 kmh NW 11.0 mph17.7 kmh 30.19 in1022.4 mb 0.00 in0.0 mm 0.00 in/hr0.0 mm/hr 0.15 in3.8 mm
07:00 PM 40.8°F4.9°C 34.5°F1.4°C 78% 5.0 mph NW8.0 kmh NW 11.0 mph17.7 kmh 30.19 in1022.4 mb 0.00 in0.0 mm 0.00 in/hr0.0 mm/hr 0.15 in3.8 mm
07:01 PM 40.8°F4.9°C 34.5°F1.4°C 78% 6.0 mph NW9.7 kmh NW 7.0 mph11.3 kmh 30.19 in1022.4 mb 0.00 in0.0 mm 0.00 in/hr0.0 mm/hr 0.15 in3.8 mm
07:02 PM 40.8°F4.9°C 34.5°F1.4°C 78% 6.0 mph NW9.7 kmh NW 7.0 mph11.3 kmh 30.19 in1022.4 mb 0.00 in0.0 mm 0.00 in/hr0.0 mm/hr 0.15 in3.8 mm
07:03 PM 40.8°F4.9°C 34.5°F1.4°C 78% 5.0 mph NW8.0 kmh NW 8.0 mph12.9 kmh 30.19 in1022.4 mb 0.00 in0.0 mm 0.00 in/hr0.0 mm/hr 0.15 in3.8 mm
07:04 PM 40.7°F4.8°C 34.4°F1.3°C 78% 5.0 mph NW8.0 kmh NW 8.0 mph12.9 kmh 30.19 in1022.4 mb 0.00 in0.0 mm 0.00 in/hr0.0 mm/hr 0.15 in3.8 mm
07:06 PM 40.7°F4.8°C 34.4°F1.3°C 78% 6.0 mph NW9.7 kmh NW 8.0 mph12.9 kmh 30.19 in1022.4 mb 0.00 in0.0 mm 0.00 in/hr0.0 mm/hr 0.15 in3.8 mm
07:07 PM 40.7°F4.8°C 34.4°F1.3°C 78% 5.0 mph NW8.0 kmh NW 8.0 mph12.9 kmh 30.19 in1022.4 mb 0.00 in0.0 mm 0.00 in/hr0.0 mm/hr 0.15 in3.8 mm
07:09 PM 40.7°F4.8°C 34.7°F1.5°C 79% 5.0 mph NW8.0 kmh NW 8.0 mph12.9 kmh 30.19 in1022.4 mb 0.00 in0.0 mm 0.00 in/hr0.0 mm/hr 0.15 in3.8 mm
07:10 PM 40.6°F4.8°C 34.6°F1.4°C 79% 5.0 mph NW8.0 kmh NW 8.0 mph12.9 kmh 30.19 in1022.4 mb 0.00 in0.0 mm 0.00 in/hr0.0 mm/hr 0.15 in3.8 mm
07:11 PM 40.6°F4.8°C 34.6°F1.4°C 79% 6.0 mph NW9.7 kmh NW 8.0 mph12.9 kmh 30.19 in1022.4 mb 0.00 in0.0 mm 0.00 in/hr0.0 mm/hr 0.15 in3.8 mm
07:13 PM 40.5°F4.7°C 34.5°F1.4°C 79% 5.0 mph NW8.0 kmh NW 8.0 mph12.9 kmh 30.19 in1022.4 mb 0.00 in0.0 mm 0.00 in/hr0.0 mm/hr 0.15 in3.8 mm
07:14 PM 40.5°F4.7°C 34.5°F1.4°C 79% 4.0 mph NW6.4 kmh NW 8.0 mph12.9 kmh 30.19 in1022.4 mb 0.00 in0.0 mm 0.00 in/hr0.0 mm/hr 0.15 in3.8 mm
07:16 PM 40.4°F4.7°C 34.7°F1.5°C 80% 4.0 mph NW6.4 kmh NW 8.0 mph12.9 kmh 30.19 in1022.4 mb 0.00 in0.0 mm 0.00 in/hr0.0 mm/hr 0.15 in3.8 mm
07:17 PM 40.3°F4.6°C 34.6°F1.4°C 80% 4.0 mph NW6.4 kmh NW 8.0 mph12.9 kmh 30.19 in1022.4 mb 0.00 in0.0 mm 0.00 in/hr0.0 mm/hr 0.15 in3.8 mm
07:19 PM 40.2°F4.6°C 34.9°F1.6°C 81% 5.0 mph NW8.0 kmh NW 8.0 mph12.9 kmh 30.20 in1022.7 mb 0.00 in0.0 mm 0.00 in/hr0.0 mm/hr 0.15 in3.8 mm
07:20 PM 40.2°F4.6°C 34.9°F1.6°C 81% 4.0 mph NW6.4 kmh NW 8.0 mph12.9 kmh 30.20 in1022.7 mb 0.00 in0.0 mm 0.00 in/hr0.0 mm/hr 0.15 in3.8 mm
07:21 PM 40.1°F4.5°C 34.8°F1.6°C 81% 4.0 mph NW6.4 kmh NW 8.0 mph12.9 kmh 30.20 in1022.7 mb 0.00 in0.0 mm 0.00 in/hr0.0 mm/hr 0.15 in3.8 mm
07:22 PM 40.1°F4.5°C 34.8°F1.6°C 81% 4.0 mph NW6.4 kmh NW 8.0 mph12.9 kmh 30.20 in1022.7 mb 0.00 in0.0 mm 0.00 in/hr0.0 mm/hr 0.15 in3.8 mm
07:24 PM 39.9°F4.4°C 34.6°F1.4°C 81% 5.0 mph NW8.0 kmh NW 8.0 mph12.9 kmh 30.20 in1022.7 mb 0.00 in0.0 mm 0.00 in/hr0.0 mm/hr 0.15 in3.8 mm
07:25 PM 39.9°F4.4°C 34.6°F1.4°C 81% 4.0 mph NW6.4 kmh NW 8.0 mph12.9 kmh 30.20 in1022.7 mb 0.00 in0.0 mm 0.00 in/hr0.0 mm/hr 0.15 in3.8 mm
07:27 PM 39.7°F4.3°C 34.7°F1.5°C 82% 3.0 mph NW4.8 kmh NW 8.0 mph12.9 kmh 30.20 in1022.7 mb 0.00 in0.0 mm 0.00 in/hr0.0 mm/hr 0.15 in3.8 mm
07:28 PM 39.6°F4.2°C 34.6°F1.4°C 82% 3.0 mph NW4.8 kmh NW 8.0 mph12.9 kmh 30.20 in1022.7 mb 0.00 in0.0 mm 0.00 in/hr0.0 mm/hr 0.15 in3.8 mm
07:29 PM 39.5°F4.2°C 34.8°F1.6°C 83% 3.0 mph NW4.8 kmh NW 8.0 mph12.9 kmh 30.20 in1022.7 mb 0.00 in0.0 mm 0.00 in/hr0.0 mm/hr 0.15 in3.8 mm
07:30 PM 39.4°F4.1°C 34.7°F1.5°C 83% 3.0 mph NW4.8 kmh NW 8.0 mph12.9 kmh 30.20 in1022.7 mb 0.00 in0.0 mm 0.00 in/hr0.0 mm/hr 0.15 in3.8 mm
07:31 PM 39.3°F4.1°C 34.6°F1.4°C 83% 4.0 mph NW6.4 kmh NW 4.0 mph6.4 kmh 30.20 in1022.7 mb 0.00 in0.0 mm 0.00 in/hr0.0 mm/hr 0.15 in3.8 mm
07:32 PM 39.2°F4.0°C 34.5°F1.4°C 83% 3.0 mph NW4.8 kmh NW 4.0 mph6.4 kmh 30.20 in1022.7 mb 0.00 in0.0 mm 0.00 in/hr0.0 mm/hr 0.15 in3.8 mm
07:33 PM 39.1°F3.9°C 34.4°F1.3°C 83% 3.0 mph NW4.8 kmh NW 4.0 mph6.4 kmh 30.20 in1022.7 mb 0.00 in0.0 mm 0.00 in/hr0.0 mm/hr 0.15 in3.8 mm
07:34 PM 39.1°F3.9°C 34.4°F1.3°C 83% 2.0 mph NW3.2 kmh NW 4.0 mph6.4 kmh 30.20 in1022.7 mb 0.00 in0.0 mm 0.00 in/hr0.0 mm/hr 0.15 in3.8 mm
07:35 PM 39.0°F3.9°C 34.3°F1.3°C 83% 2.0 mph NW3.2 kmh NW 4.0 mph6.4 kmh 30.21 in1023.0 mb 0.00 in0.0 mm 0.00 in/hr0.0 mm/hr 0.15 in3.8 mm
07:36 PM 38.8°F3.8°C 34.4°F1.3°C 84% 2.0 mph NW3.2 kmh NW 4.0 mph6.4 kmh 30.21 in1023.0 mb 0.00 in0.0 mm 0.00 in/hr0.0 mm/hr 0.15 in3.8 mm
07:37 PM 38.8°F3.8°C 34.4°F1.3°C 84% 2.0 mph NW3.2 kmh NW 4.0 mph6.4 kmh 30.21 in1023.0 mb 0.00 in0.0 mm 0.00 in/hr0.0 mm/hr 0.15 in3.8 mm
07:39 PM 38.7°F3.7°C 34.3°F1.3°C 84% 2.0 mph NW3.2 kmh NW 4.0 mph6.4 kmh 30.21 in1023.0 mb 0.00 in0.0 mm 0.00 in/hr0.0 mm/hr 0.15 in3.8 mm
07:40 PM 38.6°F3.7°C 34.2°F1.2°C 84% 1.0 mph NW1.6 kmh NW 4.0 mph6.4 kmh 30.21 in1023.0 mb 0.00 in0.0 mm 0.00 in/hr0.0 mm/hr 0.15 in3.8 mm
07:41 PM 38.5°F3.6°C 34.4°F1.3°C 85% 2.0 mph NW3.2 kmh NW 4.0 mph6.4 kmh 30.21 in1023.0 mb 0.00 in0.0 mm 0.00 in/hr0.0 mm/hr 0.15 in3.8 mm
07:43 PM 38.4°F3.6°C 34.3°F1.3°C 85% 1.0 mph NW1.6 kmh NW 4.0 mph6.4 kmh 30.21 in1023.0 mb 0.00 in0.0 mm 0.00 in/hr0.0 mm/hr 0.15 in3.8 mm
07:44 PM 38.4°F3.6°C 34.3°F1.3°C 85% 2.0 mph NW3.2 kmh NW 4.0 mph6.4 kmh 30.21 in1023.0 mb 0.00 in0.0 mm 0.00 in/hr0.0 mm/hr 0.15 in3.8 mm
07:45 PM 38.4°F3.6°C 34.6°F1.4°C 86% 2.0 mph NW3.2 kmh NW 4.0 mph6.4 kmh 30.21 in1023.0 mb 0.00 in0.0 mm 0.00 in/hr0.0 mm/hr 0.15 in3.8 mm
07:46 PM 38.3°F3.5°C 34.5°F1.4°C 86% 2.0 mph NW3.2 kmh NW 4.0 mph6.4 kmh 30.21 in1023.0 mb 0.00 in0.0 mm 0.00 in/hr0.0 mm/hr 0.15 in3.8 mm
07:48 PM 38.2°F3.4°C 34.4°F1.3°C 86% 2.0 mph NW3.2 kmh NW 4.0 mph6.4 kmh 30.21 in1023.0 mb 0.00 in0.0 mm 0.00 in/hr0.0 mm/hr 0.15 in3.8 mm
07:49 PM 38.2°F3.4°C 34.1°F1.2°C 85% 2.0 mph NW3.2 kmh NW 4.0 mph6.4 kmh 30.21 in1023.0 mb 0.00 in0.0 mm 0.00 in/hr0.0 mm/hr 0.15 in3.8 mm
07:50 PM 38.2°F3.4°C 33.8°F1.0°C 84% 2.0 mph NW3.2 kmh NW 4.0 mph6.4 kmh 30.21 in1023.0 mb 0.00 in0.0 mm 0.00 in/hr0.0 mm/hr 0.15 in3.8 mm
07:51 PM 38.2°F3.4°C 33.8°F1.0°C 84% 2.0 mph NW3.2 kmh NW 4.0 mph6.4 kmh 30.21 in1023.0 mb 0.00 in0.0 mm 0.00 in/hr0.0 mm/hr 0.15 in3.8 mm
07:53 PM 38.2°F3.4°C 33.5°F0.8°C 83% 2.0 mph NW3.2 kmh NW 4.0 mph6.4 kmh 30.21 in1023.0 mb 0.00 in0.0 mm 0.00 in/hr0.0 mm/hr 0.15 in3.8 mm
07:54 PM 38.3°F3.5°C 33.6°F0.9°C 83% 2.0 mph NW3.2 kmh NW 4.0 mph6.4 kmh 30.21 in1023.0 mb 0.00 in0.0 mm 0.00 in/hr0.0 mm/hr 0.15 in3.8 mm
07:55 PM 38.3°F3.5°C 33.6°F0.9°C 83% 2.0 mph NW3.2 kmh NW 4.0 mph6.4 kmh 30.21 in1023.0 mb 0.00 in0.0 mm 0.00 in/hr0.0 mm/hr 0.15 in3.8 mm
07:56 PM 38.4°F3.6°C 33.7°F0.9°C 83% 1.0 mph NW1.6 kmh NW 4.0 mph6.4 kmh 30.21 in1023.0 mb 0.00 in0.0 mm 0.00 in/hr0.0 mm/hr 0.15 in3.8 mm
07:58 PM 38.4°F3.6°C 34.0°F1.1°C 84% 2.0 mph NW3.2 kmh NW 4.0 mph6.4 kmh 30.21 in1023.0 mb 0.00 in0.0 mm 0.00 in/hr0.0 mm/hr 0.15 in3.8 mm
07:59 PM 38.4°F3.6°C 34.0°F1.1°C 84% Calm Calm 4.0 mph6.4 kmh 30.21 in1023.0 mb 0.00 in0.0 mm 0.00 in/hr0.0 mm/hr 0.15 in3.8 mm
08:01 PM 38.4°F3.6°C 34.0°F1.1°C 84% 1.0 mph NW1.6 kmh NW 1.0 mph1.6 kmh 30.21 in1023.0 mb 0.00 in0.0 mm 0.00 in/hr0.0 mm/hr 0.15 in3.8 mm
08:02 PM 38.4°F3.6°C 34.0°F1.1°C 84% 1.0 mph NW1.6 kmh NW 2.0 mph3.2 kmh 30.21 in1023.0 mb 0.00 in0.0 mm 0.00 in/hr0.0 mm/hr 0.15 in3.8 mm
08:03 PM 38.4°F3.6°C 34.0°F1.1°C 84% 1.0 mph NW1.6 kmh NW 2.0 mph3.2 kmh 30.21 in1023.0 mb 0.00 in0.0 mm 0.00 in/hr0.0 mm/hr 0.15 in3.8 mm
08:04 PM 38.4°F3.6°C 34.0°F1.1°C 84% 1.0 mph NW1.6 kmh NW 2.0 mph3.2 kmh 30.21 in1023.0 mb 0.00 in0.0 mm 0.00 in/hr0.0 mm/hr 0.15 in3.8 mm
08:05 PM 38.4°F3.6°C 34.0°F1.1°C 84% Calm Calm 2.0 mph3.2 kmh 30.21 in1023.0 mb 0.00 in0.0 mm 0.00 in/hr0.0 mm/hr 0.15 in3.8 mm
08:06 PM 38.4°F3.6°C 34.0°F1.1°C 84% Calm Calm 2.0 mph3.2 kmh 30.21 in1023.0 mb 0.00 in0.0 mm 0.00 in/hr0.0 mm/hr 0.15 in3.8 mm
08:07 PM 38.4°F3.6°C 34.0°F1.1°C 84% Calm Calm 2.0 mph3.2 kmh 30.21 in1023.0 mb 0.00 in0.0 mm 0.00 in/hr0.0 mm/hr 0.15 in3.8 mm
08:09 PM 38.4°F3.6°C 34.0°F1.1°C 84% Calm Calm 2.0 mph3.2 kmh 30.21 in1023.0 mb 0.00 in0.0 mm 0.00 in/hr0.0 mm/hr 0.15 in3.8 mm
08:10 PM 38.3°F3.5°C 33.9°F1.1°C 84% Calm Calm 2.0 mph3.2 kmh 30.22 in1023.4 mb 0.00 in0.0 mm 0.00 in/hr0.0 mm/hr 0.15 in3.8 mm
08:11 PM 38.3°F3.5°C 33.9°F1.1°C 84% Calm Calm 2.0 mph3.2 kmh 30.22 in1023.4 mb 0.00 in0.0 mm 0.00 in/hr0.0 mm/hr 0.15 in3.8 mm
08:13 PM 38.3°F3.5°C 33.9°F1.1°C 84% Calm Calm 2.0 mph3.2 kmh 30.22 in1023.4 mb 0.00 in0.0 mm 0.00 in/hr0.0 mm/hr 0.15 in3.8 mm
08:14 PM 38.3°F3.5°C 34.2°F1.2°C 85% Calm Calm 2.0 mph3.2 kmh 30.22 in1023.4 mb 0.00 in0.0 mm 0.00 in/hr0.0 mm/hr 0.15 in3.8 mm
08:15 PM 38.3°F3.5°C 34.2°F1.2°C 85% Calm Calm 2.0 mph3.2 kmh 30.22 in1023.4 mb 0.00 in0.0 mm 0.00 in/hr0.0 mm/hr 0.15 in3.8 mm
08:16 PM 38.3°F3.5°C 34.5°F1.4°C 86% Calm Calm 2.0 mph3.2 kmh 30.22 in1023.4 mb 0.00 in0.0 mm 0.00 in/hr0.0 mm/hr 0.15 in3.8 mm
08:17 PM 38.2°F3.4°C 34.4°F1.3°C 86% Calm Calm 2.0 mph3.2 kmh 30.22 in1023.4 mb 0.00 in0.0 mm 0.00 in/hr0.0 mm/hr 0.15 in3.8 mm
08:19 PM 38.2°F3.4°C 34.4°F1.3°C 86% Calm Calm 2.0 mph3.2 kmh 30.22 in1023.4 mb 0.00 in0.0 mm 0.00 in/hr0.0 mm/hr 0.15 in3.8 mm
08:20 PM 38.2°F3.4°C 34.4°F1.3°C 86% Calm Calm 2.0 mph3.2 kmh 30.22 in1023.4 mb 0.00 in0.0 mm 0.00 in/hr0.0 mm/hr 0.15 in3.8 mm
08:21 PM 38.1°F3.4°C 34.0°F1.1°C 85% Calm Calm 2.0 mph3.2 kmh 30.22 in1023.4 mb 0.00 in0.0 mm 0.00 in/hr0.0 mm/hr 0.15 in3.8 mm
08:23 PM 38.2°F3.4°C 34.1°F1.2°C 85% Calm Calm 2.0 mph3.2 kmh 30.22 in1023.4 mb 0.00 in0.0 mm 0.00 in/hr0.0 mm/hr 0.15 in3.8 mm
08:24 PM 38.2°F3.4°C 34.1°F1.2°C 85% Calm Calm 2.0 mph3.2 kmh 30.22 in1023.4 mb 0.00 in0.0 mm 0.00 in/hr0.0 mm/hr 0.15 in3.8 mm
08:25 PM 38.2°F3.4°C 33.8°F1.0°C 84% Calm Calm 2.0 mph3.2 kmh 30.22 in1023.4 mb 0.00 in0.0 mm 0.00 in/hr0.0 mm/hr 0.15 in3.8 mm
08:27 PM 38.3°F3.5°C 34.2°F1.2°C 85% Calm Calm 2.0 mph3.2 kmh 30.22 in1023.4 mb 0.00 in0.0 mm 0.00 in/hr0.0 mm/hr 0.15 in3.8 mm
08:28 PM 38.4°F3.6°C 34.3°F1.3°C 85% Calm Calm 2.0 mph3.2 kmh 30.22 in1023.4 mb 0.00 in0.0 mm 0.00 in/hr0.0 mm/hr 0.15 in3.8 mm
08:29 PM 38.4°F3.6°C 34.3°F1.3°C 85% Calm Calm 2.0 mph3.2 kmh 30.22 in1023.4 mb 0.00 in0.0 mm 0.00 in/hr0.0 mm/hr 0.15 in3.8 mm
08:30 PM 38.4°F3.6°C 34.3°F1.3°C 85% Calm Calm 2.0 mph3.2 kmh 30.22 in1023.4 mb 0.00 in0.0 mm 0.00 in/hr0.0 mm/hr 0.15 in3.8 mm
08:31 PM 38.5°F3.6°C 34.4°F1.3°C 85% Calm Calm -- 30.22 in1023.4 mb 0.00 in0.0 mm 0.00 in/hr0.0 mm/hr 0.15 in3.8 mm
08:32 PM 38.5°F3.6°C 34.4°F1.3°C 85% Calm Calm -- 30.22 in1023.4 mb 0.00 in0.0 mm 0.00 in/hr0.0 mm/hr 0.15 in3.8 mm
08:33 PM 38.6°F3.7°C 34.5°F1.4°C 85% Calm Calm -- 30.22 in1023.4 mb 0.00 in0.0 mm 0.00 in/hr0.0 mm/hr 0.15 in3.8 mm
08:34 PM 38.6°F3.7°C 34.5°F1.4°C 85% Calm Calm 1.0 mph1.6 kmh 30.22 in1023.4 mb 0.00 in0.0 mm 0.00 in/hr0.0 mm/hr 0.15 in3.8 mm
08:35 PM 38.6°F3.7°C 34.5°F1.4°C 85% 1.0 mph NW1.6 kmh NW 1.0 mph1.6 kmh 30.22 in1023.4 mb 0.00 in0.0 mm 0.00 in/hr0.0 mm/hr 0.15 in3.8 mm
08:36 PM 38.6°F3.7°C 34.8°F1.6°C 86% 2.0 mph NW3.2 kmh NW 2.0 mph3.2 kmh 30.22 in1023.4 mb 0.00 in0.0 mm 0.00 in/hr0.0 mm/hr 0.15 in3.8 mm
08:38 PM 38.6°F3.7°C 35.1°F1.7°C 87% 1.0 mph NW1.6 kmh NW 2.0 mph3.2 kmh 30.22 in1023.4 mb 0.00 in0.0 mm 0.00 in/hr0.0 mm/hr 0.15 in3.8 mm
08:39 PM 38.6°F3.7°C 35.1°F1.7°C 87% 1.0 mph NW1.6 kmh NW 2.0 mph3.2 kmh 30.22 in1023.4 mb 0.00 in0.0 mm 0.00 in/hr0.0 mm/hr 0.15 in3.8 mm
08:40 PM 38.6°F3.7°C 35.4°F1.9°C 88% 1.0 mph NW1.6 kmh NW 2.0 mph3.2 kmh 30.22 in1023.4 mb 0.00 in0.0 mm 0.00 in/hr0.0 mm/hr 0.15 in3.8 mm
08:41 PM 38.6°F3.7°C 35.4°F1.9°C 88% 1.0 mph NW1.6 kmh NW 2.0 mph3.2 kmh 30.22 in1023.4 mb 0.00 in0.0 mm 0.00 in/hr0.0 mm/hr 0.15 in3.8 mm
08:42 PM 38.6°F3.7°C 35.4°F1.9°C 88% 2.0 mph NW3.2 kmh NW 2.0 mph3.2 kmh 30.22 in1023.4 mb 0.00 in0.0 mm 0.00 in/hr0.0 mm/hr 0.15 in3.8 mm
08:44 PM 38.6°F3.7°C 34.8°F1.6°C 86% 2.0 mph WNW3.2 kmh WNW 2.0 mph3.2 kmh 30.22 in1023.4 mb 0.00 in0.0 mm 0.00 in/hr0.0 mm/hr 0.15 in3.8 mm
08:45 PM 38.6°F3.7°C 34.8°F1.6°C 86% 3.0 mph WNW4.8 kmh WNW 3.0 mph4.8 kmh 30.22 in1023.4 mb 0.00 in0.0 mm 0.00 in/hr0.0 mm/hr 0.15 in3.8 mm
08:46 PM 38.6°F3.7°C 34.8°F1.6°C 86% 2.0 mph WNW3.2 kmh WNW 3.0 mph4.8 kmh 30.22 in1023.4 mb 0.00 in0.0 mm 0.00 in/hr0.0 mm/hr 0.15 in3.8 mm
08:48 PM 38.7°F3.7°C 34.9°F1.6°C 86% 2.0 mph WNW3.2 kmh WNW 3.0 mph4.8 kmh 30.22 in1023.4 mb 0.00 in0.0 mm 0.00 in/hr0.0 mm/hr 0.15 in3.8 mm
08:50 PM 38.7°F3.7°C 35.2°F1.8°C 87% 2.0 mph WNW3.2 kmh WNW 3.0 mph4.8 kmh 30.22 in1023.4 mb 0.00 in0.0 mm 0.00 in/hr0.0 mm/hr 0.15 in3.8 mm
08:51 PM 38.7°F3.7°C 35.2°F1.8°C 87% 2.0 mph WNW3.2 kmh WNW 3.0 mph4.8 kmh 30.22 in1023.4 mb 0.00 in0.0 mm 0.00 in/hr0.0 mm/hr 0.15 in3.8 mm
08:52 PM 38.7°F3.7°C 35.2°F1.8°C 87% 2.0 mph WNW3.2 kmh WNW 3.0 mph4.8 kmh 30.22 in1023.4 mb 0.00 in0.0 mm 0.00 in/hr0.0 mm/hr 0.15 in3.8 mm
08:53 PM 38.7°F3.7°C 35.2°F1.8°C 87% 2.0 mph WNW3.2 kmh WNW 3.0 mph4.8 kmh 30.22 in1023.4 mb 0.00 in0.0 mm 0.00 in/hr0.0 mm/hr 0.15 in3.8 mm
08:54 PM 38.7°F3.7°C 34.9°F1.6°C 86% 3.0 mph WNW4.8 kmh WNW 3.0 mph4.8 kmh 30.22 in1023.4 mb 0.00 in0.0 mm 0.00 in/hr0.0 mm/hr 0.15 in3.8 mm
08:55 PM 38.7°F3.7°C 35.2°F1.8°C 87% 2.0 mph WNW3.2 kmh WNW 3.0 mph4.8 kmh 30.22 in1023.4 mb 0.00 in0.0 mm 0.00 in/hr0.0 mm/hr 0.15 in3.8 mm
08:56 PM 38.7°F3.7°C 35.2°F1.8°C 87% 1.0 mph WNW1.6 kmh WNW 3.0 mph4.8 kmh 30.22 in1023.4 mb 0.00 in0.0 mm 0.00 in/hr0.0 mm/hr 0.15 in3.8 mm
08:58 PM 38.7°F3.7°C 35.2°F1.8°C 87% 2.0 mph WNW3.2 kmh WNW 3.0 mph4.8 kmh 30.22 in1023.4 mb 0.00 in0.0 mm 0.00 in/hr0.0 mm/hr 0.15 in3.8 mm
08:59 PM 38.7°F3.7°C 35.2°F1.8°C 87% 3.0 mph W4.8 kmh W 3.0 mph4.8 kmh 30.22 in1023.4 mb 0.00 in0.0 mm 0.00 in/hr0.0 mm/hr 0.15 in3.8 mm
09:00 PM 38.7°F3.7°C 35.2°F1.8°C 87% 1.0 mph W1.6 kmh W 3.0 mph4.8 kmh 30.22 in1023.4 mb 0.00 in0.0 mm 0.00 in/hr0.0 mm/hr 0.15 in3.8 mm
09:01 PM 38.7°F3.7°C 35.2°F1.8°C 87% Calm Calm 2.0 mph3.2 kmh 30.22 in1023.4 mb 0.00 in0.0 mm 0.00 in/hr0.0 mm/hr 0.15 in3.8 mm
09:02 PM 38.7°F3.7°C 35.5°F1.9°C 88% Calm Calm 2.0 mph3.2 kmh 30.22 in1023.4 mb 0.00 in0.0 mm 0.00 in/hr0.0 mm/hr 0.15 in3.8 mm
09:04 PM 38.7°F3.7°C 35.5°F1.9°C 88% Calm Calm 2.0 mph3.2 kmh 30.22 in1023.4 mb 0.00 in0.0 mm 0.00 in/hr0.0 mm/hr 0.15 in3.8 mm
09:06 PM 38.7°F3.7°C 35.7°F2.1°C 89% Calm Calm 2.0 mph3.2 kmh 30.23 in1023.7 mb 0.00 in0.0 mm 0.00 in/hr0.0 mm/hr 0.15 in3.8 mm
09:07 PM 38.6°F3.7°C 35.6°F2.0°C 89% Calm Calm 2.0 mph3.2 kmh 30.22 in1023.4 mb 0.00 in0.0 mm 0.00 in/hr0.0 mm/hr 0.15 in3.8 mm
09:09 PM 38.7°F3.7°C 35.5°F1.9°C 88% Calm Calm 2.0 mph3.2 kmh 30.23 in1023.7 mb 0.00 in0.0 mm 0.00 in/hr0.0 mm/hr 0.15 in3.8 mm
09:10 PM 38.7°F3.7°C 35.7°F2.1°C 89% Calm Calm 2.0 mph3.2 kmh 30.23 in1023.7 mb 0.00 in0.0 mm 0.00 in/hr0.0 mm/hr 0.15 in3.8 mm
09:11 PM 38.7°F3.7°C 35.7°F2.1°C 89% Calm Calm 2.0 mph3.2 kmh 30.23 in1023.7 mb 0.00 in0.0 mm 0.00 in/hr0.0 mm/hr 0.15 in3.8 mm
09:12 PM 38.7°F3.7°C 35.7°F2.1°C 89% Calm Calm 2.0 mph3.2 kmh 30.23 in1023.7 mb 0.00 in0.0 mm 0.00 in/hr0.0 mm/hr 0.15 in3.8 mm
09:13 PM 38.7°F3.7°C 35.7°F2.1°C 89% Calm Calm 2.0 mph3.2 kmh 30.23 in1023.7 mb 0.00 in0.0 mm 0.00 in/hr0.0 mm/hr 0.15 in3.8 mm
09:15 PM 38.7°F3.7°C 35.7°F2.1°C 89% Calm Calm 2.0 mph3.2 kmh 30.23 in1023.7 mb 0.00 in0.0 mm 0.00 in/hr0.0 mm/hr 0.15 in3.8 mm
09:16 PM 38.7°F3.7°C 35.7°F2.1°C 89% Calm Calm 2.0 mph3.2 kmh 30.23 in1023.7 mb 0.00 in0.0 mm 0.00 in/hr0.0 mm/hr 0.15 in3.8 mm
09:17 PM 38.7°F3.7°C 35.7°F2.1°C 89% Calm Calm 2.0 mph3.2 kmh 30.23 in1023.7 mb 0.00 in0.0 mm 0.00 in/hr0.0 mm/hr 0.15 in3.8 mm
09:18 PM 38.7°F3.7°C 35.7°F2.1°C 89% Calm Calm 2.0 mph3.2 kmh 30.23 in1023.7 mb 0.00 in0.0 mm 0.00 in/hr0.0 mm/hr 0.15 in3.8 mm
09:20 PM 38.7°F3.7°C 35.5°F1.9°C 88% Calm Calm 2.0 mph3.2 kmh 30.23 in1023.7 mb 0.00 in0.0 mm 0.00 in/hr0.0 mm/hr 0.15 in3.8 mm
09:21 PM 38.7°F3.7°C 35.5°F1.9°C 88% Calm Calm 2.0 mph3.2 kmh 30.23 in1023.7 mb 0.00 in0.0 mm 0.00 in/hr0.0 mm/hr 0.15 in3.8 mm
09:22 PM 38.6°F3.7°C 35.4°F1.9°C 88% Calm Calm 2.0 mph3.2 kmh 30.23 in1023.7 mb 0.00 in0.0 mm 0.00 in/hr0.0 mm/hr 0.15 in3.8 mm
09:24 PM 38.6°F3.7°C 35.4°F1.9°C 88% Calm Calm 2.0 mph3.2 kmh 30.23 in1023.7 mb 0.00 in0.0 mm 0.00 in/hr0.0 mm/hr 0.15 in3.8 mm
09:25 PM 38.6°F3.7°C 35.4°F1.9°C 88% Calm Calm 2.0 mph3.2 kmh 30.23 in1023.7 mb 0.00 in0.0 mm 0.00 in/hr0.0 mm/hr 0.15 in3.8 mm
09:26 PM 38.6°F3.7°C 35.4°F1.9°C 88% Calm Calm 2.0 mph3.2 kmh 30.23 in1023.7 mb 0.00 in0.0 mm 0.00 in/hr0.0 mm/hr 0.15 in3.8 mm
09:27 PM 38.6°F3.7°C 34.8°F1.6°C 86% Calm Calm 2.0 mph3.2 kmh 30.23 in1023.7 mb 0.00 in0.0 mm 0.00 in/hr0.0 mm/hr 0.15 in3.8 mm
09:29 PM 38.6°F3.7°C 34.2°F1.2°C 84% Calm Calm 2.0 mph3.2 kmh 30.23 in1023.7 mb 0.00 in0.0 mm 0.00 in/hr0.0 mm/hr 0.15 in3.8 mm
09:30 PM 38.6°F3.7°C 33.9°F1.1°C 83% Calm Calm 2.0 mph3.2 kmh 30.23 in1023.7 mb 0.00 in0.0 mm 0.00 in/hr0.0 mm/hr 0.15 in3.8 mm
09:31 PM 38.6°F3.7°C 33.9°F1.1°C 83% Calm Calm -- 30.22 in1023.4 mb 0.00 in0.0 mm 0.00 in/hr0.0 mm/hr 0.15 in3.8 mm
09:32 PM 38.6°F3.7°C 34.2°F1.2°C 84% Calm Calm -- 30.23 in1023.7 mb 0.00 in0.0 mm 0.00 in/hr0.0 mm/hr 0.15 in3.8 mm
09:34 PM 38.6°F3.7°C 34.5°F1.4°C 85% Calm Calm -- 30.22 in1023.4 mb 0.00 in0.0 mm 0.00 in/hr0.0 mm/hr 0.15 in3.8 mm
09:35 PM 38.6°F3.7°C 33.9°F1.1°C 83% Calm Calm -- 30.23 in1023.7 mb 0.00 in0.0 mm 0.00 in/hr0.0 mm/hr 0.15 in3.8 mm
09:36 PM 38.6°F3.7°C 33.3°F0.7°C 81% Calm Calm -- 30.23 in1023.7 mb 0.00 in0.0 mm 0.00 in/hr0.0 mm/hr 0.15 in3.8 mm
09:38 PM 38.6°F3.7°C 33.6°F0.9°C 82% Calm Calm -- 30.23 in1023.7 mb 0.00 in0.0 mm 0.00 in/hr0.0 mm/hr 0.15 in3.8 mm
09:39 PM 38.6°F3.7°C 33.9°F1.1°C 83% Calm Calm -- 30.23 in1023.7 mb 0.00 in0.0 mm 0.00 in/hr0.0 mm/hr 0.15 in3.8 mm
09:40 PM 38.7°F3.7°C 34.3°F1.3°C 84% Calm Calm -- 30.23 in1023.7 mb 0.00 in0.0 mm 0.00 in/hr0.0 mm/hr 0.15 in3.8 mm
09:41 PM 38.7°F3.7°C 34.3°F1.3°C 84% Calm Calm -- 30.23 in1023.7 mb 0.00 in0.0 mm 0.00 in/hr0.0 mm/hr 0.15 in3.8 mm
09:42 PM 38.7°F3.7°C 34.6°F1.4°C 85% Calm Calm -- 30.23 in1023.7 mb 0.00 in0.0 mm 0.00 in/hr0.0 mm/hr 0.15 in3.8 mm
09:44 PM 38.8°F3.8°C 34.7°F1.5°C 85% Calm Calm -- 30.23 in1023.7 mb 0.00 in0.0 mm 0.00 in/hr0.0 mm/hr 0.15 in3.8 mm
09:45 PM 38.7°F3.7°C 34.3°F1.3°C 84% Calm Calm -- 30.23 in1023.7 mb 0.00 in0.0 mm 0.00 in/hr0.0 mm/hr 0.15 in3.8 mm
09:46 PM 38.7°F3.7°C 34.3°F1.3°C 84% Calm Calm -- 30.23 in1023.7 mb 0.00 in0.0 mm 0.00 in/hr0.0 mm/hr 0.15 in3.8 mm
09:48 PM 38.7°F3.7°C 34.6°F1.4°C 85% Calm Calm -- 30.23 in1023.7 mb 0.00 in0.0 mm 0.00 in/hr0.0 mm/hr 0.15 in3.8 mm
09:49 PM 38.7°F3.7°C 35.2°F1.8°C 87% Calm Calm -- 30.23 in1023.7 mb 0.00 in0.0 mm 0.00 in/hr0.0 mm/hr 0.15 in3.8 mm
09:50 PM 38.7°F3.7°C 35.5°F1.9°C 88% Calm Calm -- 30.23 in1023.7 mb 0.00 in0.0 mm 0.00 in/hr0.0 mm/hr 0.15 in3.8 mm
09:51 PM 38.7°F3.7°C 35.7°F2.1°C 89% Calm Calm -- 30.23 in1023.7 mb 0.00 in0.0 mm 0.00 in/hr0.0 mm/hr 0.15 in3.8 mm
09:52 PM 38.7°F3.7°C 36.0°F2.2°C 90% Calm Calm -- 30.23 in1023.7 mb 0.00 in0.0 mm 0.00 in/hr0.0 mm/hr 0.15 in3.8 mm
09:54 PM 38.6°F3.7°C 35.9°F2.2°C 90% Calm Calm -- 30.23 in1023.7 mb 0.00 in0.0 mm 0.00 in/hr0.0 mm/hr 0.15 in3.8 mm
09:55 PM 38.6°F3.7°C 35.9°F2.2°C 90% Calm Calm -- 30.23 in1023.7 mb 0.00 in0.0 mm 0.00 in/hr0.0 mm/hr 0.15 in3.8 mm
09:56 PM 38.6°F3.7°C 35.9°F2.2°C 90% Calm Calm -- 30.23 in1023.7 mb 0.00 in0.0 mm 0.00 in/hr0.0 mm/hr 0.15 in3.8 mm
09:57 PM 38.5°F3.6°C 36.1°F2.3°C 91% Calm Calm -- 30.23 in1023.7 mb 0.00 in0.0 mm 0.00 in/hr0.0 mm/hr 0.15 in3.8 mm
09:59 PM 38.4°F3.6°C 36.0°F2.2°C 91% Calm Calm -- 30.23 in1023.7 mb 0.00 in0.0 mm 0.00 in/hr0.0 mm/hr 0.15 in3.8 mm
10:00 PM 38.3°F3.5°C 35.9°F2.2°C 91% Calm Calm -- 30.23 in1023.7 mb 0.00 in0.0 mm 0.00 in/hr0.0 mm/hr 0.15 in3.8 mm
10:01 PM 38.3°F3.5°C 35.9°F2.2°C 91% Calm Calm -- 30.23 in1023.7 mb 0.00 in0.0 mm 0.00 in/hr0.0 mm/hr 0.15 in3.8 mm
10:02 PM 38.3°F3.5°C 35.9°F2.2°C 91% Calm Calm -- 30.23 in1023.7 mb 0.00 in0.0 mm 0.00 in/hr0.0 mm/hr 0.15 in3.8 mm
10:03 PM 38.2°F3.4°C 35.5°F1.9°C 90% Calm Calm -- 30.23 in1023.7 mb 0.00 in0.0 mm 0.00 in/hr0.0 mm/hr 0.15 in3.8 mm
10:04 PM 38.3°F3.5°C 35.6°F2.0°C 90% Calm Calm -- 30.23 in1023.7 mb 0.00 in0.0 mm 0.00 in/hr0.0 mm/hr 0.15 in3.8 mm
10:06 PM 38.3°F3.5°C 35.6°F2.0°C 90% Calm Calm -- 30.23 in1023.7 mb 0.00 in0.0 mm 0.00 in/hr0.0 mm/hr 0.15 in3.8 mm
10:07 PM 38.3°F3.5°C 35.9°F2.2°C 91% Calm Calm -- 30.23 in1023.7 mb 0.00 in0.0 mm 0.00 in/hr0.0 mm/hr 0.15 in3.8 mm
10:08 PM 38.4°F3.6°C 36.0°F2.2°C 91% Calm Calm -- 30.23 in1023.7 mb 0.00 in0.0 mm 0.00 in/hr0.0 mm/hr 0.15 in3.8 mm
10:09 PM 38.4°F3.6°C 36.0°F2.2°C 91% Calm Calm -- 30.23 in1023.7 mb 0.00 in0.0 mm 0.00 in/hr0.0 mm/hr 0.15 in3.8 mm
10:10 PM 38.4°F3.6°C 36.0°F2.2°C 91% Calm Calm -- 30.23 in1023.7 mb 0.00 in0.0 mm 0.00 in/hr0.0 mm/hr 0.15 in3.8 mm
10:11 PM 38.3°F3.5°C 35.9°F2.2°C 91% Calm Calm -- 30.23 in1023.7 mb 0.00 in0.0 mm 0.00 in/hr0.0 mm/hr 0.15 in3.8 mm
10:12 PM 38.3°F3.5°C 35.9°F2.2°C 91% Calm Calm 1.0 mph1.6 kmh 30.23 in1023.7 mb 0.00 in0.0 mm 0.00 in/hr0.0 mm/hr 0.15 in3.8 mm
10:14 PM 38.3°F3.5°C 35.9°F2.2°C 91% Calm Calm 1.0 mph1.6 kmh 30.23 in1023.7 mb 0.00 in0.0 mm 0.00 in/hr0.0 mm/hr 0.15 in3.8 mm
10:15 PM 38.3°F3.5°C 35.9°F2.2°C 91% Calm Calm 1.0 mph1.6 kmh 30.23 in1023.7 mb 0.00 in0.0 mm 0.00 in/hr0.0 mm/hr 0.15 in3.8 mm
10:16 PM 38.3°F3.5°C 35.9°F2.2°C 91% Calm Calm 1.0 mph1.6 kmh 30.23 in1023.7 mb 0.00 in0.0 mm 0.00 in/hr0.0 mm/hr 0.15 in3.8 mm
10:17 PM 38.3°F3.5°C 35.9°F2.2°C 91% Calm Calm 1.0 mph1.6 kmh 30.23 in1023.7 mb 0.00 in0.0 mm 0.00 in/hr0.0 mm/hr 0.15 in3.8 mm
10:18 PM 38.3°F3.5°C 35.9°F2.2°C 91% Calm Calm 1.0 mph1.6 kmh 30.23 in1023.7 mb 0.00 in0.0 mm 0.00 in/hr0.0 mm/hr 0.15 in3.8 mm
10:19 PM 38.2°F3.4°C 35.8°F2.1°C 91% Calm Calm 1.0 mph1.6 kmh 30.23 in1023.7 mb 0.00 in0.0 mm 0.00 in/hr0.0 mm/hr 0.15 in3.8 mm
10:20 PM 38.3°F3.5°C 35.6°F2.0°C 90% Calm Calm 1.0 mph1.6 kmh 30.23 in1023.7 mb 0.00 in0.0 mm 0.00 in/hr0.0 mm/hr 0.15 in3.8 mm
10:21 PM 38.3°F3.5°C 35.6°F2.0°C 90% 1.0 mph W1.6 kmh W 1.0 mph1.6 kmh 30.23 in1023.7 mb 0.00 in0.0 mm 0.00 in/hr0.0 mm/hr 0.15 in3.8 mm
10:22 PM 38.3°F3.5°C 35.6°F2.0°C 90% 2.0 mph W3.2 kmh W 2.0 mph3.2 kmh 30.23 in1023.7 mb 0.00 in0.0 mm 0.00 in/hr0.0 mm/hr 0.15 in3.8 mm
10:24 PM 38.3°F3.5°C 35.9°F2.2°C 91% 1.0 mph W1.6 kmh W 2.0 mph3.2 kmh 30.23 in1023.7 mb 0.00 in0.0 mm 0.00 in/hr0.0 mm/hr 0.15 in3.8 mm
10:25 PM 38.3°F3.5°C 35.9°F2.2°C 91% 2.0 mph W3.2 kmh W 2.0 mph3.2 kmh 30.23 in1023.7 mb 0.00 in0.0 mm 0.00 in/hr0.0 mm/hr 0.15 in3.8 mm
10:26 PM 38.3°F3.5°C 35.9°F2.2°C 91% 1.0 mph W1.6 kmh W 2.0 mph3.2 kmh 30.23 in1023.7 mb 0.00 in0.0 mm 0.00 in/hr0.0 mm/hr 0.15 in3.8 mm
10:27 PM 38.2°F3.4°C 36.1°F2.3°C 92% 1.0 mph W1.6 kmh W 2.0 mph3.2 kmh 30.23 in1023.7 mb 0.00 in0.0 mm 0.00 in/hr0.0 mm/hr 0.15 in3.8 mm
10:29 PM 38.2°F3.4°C 36.1°F2.3°C 92% 1.0 mph W1.6 kmh W 2.0 mph3.2 kmh 30.23 in1023.7 mb 0.00 in0.0 mm 0.00 in/hr0.0 mm/hr 0.15 in3.8 mm
10:30 PM 38.2°F3.4°C 36.1°F2.3°C 92% 1.0 mph W1.6 kmh W 2.0 mph3.2 kmh 30.23 in1023.7 mb 0.00 in0.0 mm 0.00 in/hr0.0 mm/hr 0.15 in3.8 mm
10:31 PM 38.1°F3.4°C 36.0°F2.2°C 92% Calm Calm 1.0 mph1.6 kmh 30.23 in1023.7 mb 0.00 in0.0 mm 0.00 in/hr0.0 mm/hr 0.15 in3.8 mm
10:32 PM 38.2°F3.4°C 36.1°F2.3°C 92% Calm Calm 1.0 mph1.6 kmh 30.23 in1023.7 mb 0.00 in0.0 mm 0.00 in/hr0.0 mm/hr 0.15 in3.8 mm
10:33 PM 38.2°F3.4°C 36.1°F2.3°C 92% Calm Calm 1.0 mph1.6 kmh 30.23 in1023.7 mb 0.00 in0.0 mm 0.00 in/hr0.0 mm/hr 0.15 in3.8 mm
10:34 PM 38.2°F3.4°C 36.1°F2.3°C 92% Calm Calm 1.0 mph1.6 kmh 30.23 in1023.7 mb 0.00 in0.0 mm 0.00 in/hr0.0 mm/hr 0.15 in3.8 mm
10:36 PM 38.1°F3.4°C 36.0°F2.2°C 92% Calm Calm 1.0 mph1.6 kmh 30.23 in1023.7 mb 0.00 in0.0 mm 0.00 in/hr0.0 mm/hr 0.15 in3.8 mm
10:37 PM 38.1°F3.4°C 36.0°F2.2°C 92% Calm Calm 1.0 mph1.6 kmh 30.23 in1023.7 mb 0.00 in0.0 mm 0.00 in/hr0.0 mm/hr 0.15 in3.8 mm
10:38 PM 38.1°F3.4°C 36.0°F2.2°C 92% Calm Calm 1.0 mph1.6 kmh 30.23 in1023.7 mb 0.00 in0.0 mm 0.00 in/hr0.0 mm/hr 0.15 in3.8 mm
10:39 PM 38.1°F3.4°C 36.0°F2.2°C 92% Calm Calm 1.0 mph1.6 kmh 30.23 in1023.7 mb 0.00 in0.0 mm 0.00 in/hr0.0 mm/hr 0.15 in3.8 mm
10:40 PM 38.0°F3.3°C 35.9°F2.2°C 92% Calm Calm 1.0 mph1.6 kmh 30.23 in1023.7 mb 0.00 in0.0 mm 0.00 in/hr0.0 mm/hr 0.15 in3.8 mm
10:41 PM 38.0°F3.3°C 35.6°F2.0°C 91% Calm Calm 1.0 mph1.6 kmh 30.23 in1023.7 mb 0.00 in0.0 mm 0.00 in/hr0.0 mm/hr 0.15 in3.8 mm
10:42 PM 38.0°F3.3°C 35.6°F2.0°C 91% Calm Calm 1.0 mph1.6 kmh 30.23 in1023.7 mb 0.00 in0.0 mm 0.00 in/hr0.0 mm/hr 0.15 in3.8 mm
10:43 PM 38.0°F3.3°C 35.6°F2.0°C 91% Calm Calm 1.0 mph1.6 kmh 30.23 in1023.7 mb 0.00 in0.0 mm 0.00 in/hr0.0 mm/hr 0.15 in3.8 mm
10:45 PM 38.1°F3.4°C 35.4°F1.9°C 90% Calm Calm 1.0 mph1.6 kmh 30.24 in1024.0 mb 0.00 in0.0 mm 0.00 in/hr0.0 mm/hr 0.15 in3.8 mm
10:46 PM 38.1°F3.4°C 35.7°F2.1°C 91% Calm Calm 1.0 mph1.6 kmh 30.24 in1024.0 mb 0.00 in0.0 mm 0.00 in/hr0.0 mm/hr 0.15 in3.8 mm
10:47 PM 38.2°F3.4°C 35.8°F2.1°C 91% Calm Calm 1.0 mph1.6 kmh 30.24 in1024.0 mb 0.00 in0.0 mm 0.00 in/hr0.0 mm/hr 0.15 in3.8 mm
10:49 PM 38.2°F3.4°C 35.8°F2.1°C 91% 1.0 mph W1.6 kmh W 1.0 mph1.6 kmh 30.24 in1024.0 mb 0.00 in0.0 mm 0.00 in/hr0.0 mm/hr 0.15 in3.8 mm
10:50 PM 38.2°F3.4°C 35.8°F2.1°C 91% 1.0 mph W1.6 kmh W 1.0 mph1.6 kmh 30.24 in1024.0 mb 0.00 in0.0 mm 0.00 in/hr0.0 mm/hr 0.15 in3.8 mm
10:51 PM 38.3°F3.5°C 35.9°F2.2°C 91% 1.0 mph W1.6 kmh W 1.0 mph1.6 kmh 30.24 in1024.0 mb 0.00 in0.0 mm 0.00 in/hr0.0 mm/hr 0.15 in3.8 mm
10:52 PM 38.3°F3.5°C 35.9°F2.2°C 91% 2.0 mph W3.2 kmh W 2.0 mph3.2 kmh 30.24 in1024.0 mb 0.00 in0.0 mm 0.00 in/hr0.0 mm/hr 0.15 in3.8 mm
10:53 PM 38.3°F3.5°C 35.9°F2.2°C 91% 1.0 mph W1.6 kmh W 2.0 mph3.2 kmh 30.24 in1024.0 mb 0.00 in0.0 mm 0.00 in/hr0.0 mm/hr 0.15 in3.8 mm
10:54 PM 38.3°F3.5°C 35.6°F2.0°C 90% Calm Calm 2.0 mph3.2 kmh 30.24 in1024.0 mb 0.00 in0.0 mm 0.00 in/hr0.0 mm/hr 0.15 in3.8 mm
10:56 PM 38.3°F3.5°C 35.6°F2.0°C 90% 1.0 mph W1.6 kmh W 2.0 mph3.2 kmh 30.24 in1024.0 mb 0.00 in0.0 mm 0.00 in/hr0.0 mm/hr 0.15 in3.8 mm
10:57 PM 38.3°F3.5°C 35.6°F2.0°C 90% Calm Calm 2.0 mph3.2 kmh 30.24 in1024.0 mb 0.00 in0.0 mm 0.00 in/hr0.0 mm/hr 0.15 in3.8 mm
10:58 PM 38.3°F3.5°C 35.6°F2.0°C 90% Calm Calm 2.0 mph3.2 kmh 30.24 in1024.0 mb 0.00 in0.0 mm 0.00 in/hr0.0 mm/hr 0.15 in3.8 mm
11:00 PM 38.3°F3.5°C 35.6°F2.0°C 90% Calm Calm 2.0 mph3.2 kmh 30.24 in1024.0 mb 0.00 in0.0 mm 0.00 in/hr0.0 mm/hr 0.15 in3.8 mm
11:02 PM 38.3°F3.5°C 35.6°F2.0°C 90% Calm Calm 2.0 mph3.2 kmh 30.24 in1024.0 mb 0.00 in0.0 mm 0.00 in/hr0.0 mm/hr 0.15 in3.8 mm
11:03 PM 38.3°F3.5°C 35.9°F2.2°C 91% 3.0 mph WSW4.8 kmh WSW 3.0 mph4.8 kmh 30.24 in1024.0 mb 0.00 in0.0 mm 0.00 in/hr0.0 mm/hr 0.15 in3.8 mm
11:05 PM 38.3°F3.5°C 35.6°F2.0°C 90% 2.0 mph WSW3.2 kmh WSW 3.0 mph4.8 kmh 30.24 in1024.0 mb 0.00 in0.0 mm 0.00 in/hr0.0 mm/hr 0.15 in3.8 mm
11:06 PM 38.3°F3.5°C 35.6°F2.0°C 90% 1.0 mph WSW1.6 kmh WSW 3.0 mph4.8 kmh 30.24 in1024.0 mb 0.00 in0.0 mm 0.00 in/hr0.0 mm/hr 0.15 in3.8 mm
11:07 PM 38.3°F3.5°C 35.9°F2.2°C 91% Calm Calm 3.0 mph4.8 kmh 30.24 in1024.0 mb 0.00 in0.0 mm 0.00 in/hr0.0 mm/hr 0.15 in3.8 mm
11:09 PM 38.4°F3.6°C 36.0°F2.2°C 91% Calm Calm 3.0 mph4.8 kmh 30.24 in1024.0 mb 0.00 in0.0 mm 0.00 in/hr0.0 mm/hr 0.15 in3.8 mm
11:10 PM 38.4°F3.6°C 36.0°F2.2°C 91% Calm Calm 3.0 mph4.8 kmh 30.24 in1024.0 mb 0.00 in0.0 mm 0.00 in/hr0.0 mm/hr 0.15 in3.8 mm
11:11 PM 38.3°F3.5°C 35.9°F2.2°C 91% Calm Calm 3.0 mph4.8 kmh 30.24 in1024.0 mb 0.00 in0.0 mm 0.00 in/hr0.0 mm/hr 0.15 in3.8 mm
11:13 PM 38.3°F3.5°C 35.9°F2.2°C 91% Calm Calm 3.0 mph4.8 kmh 30.24 in1024.0 mb 0.00 in0.0 mm 0.00 in/hr0.0 mm/hr 0.15 in3.8 mm
11:14 PM 38.3°F3.5°C 35.9°F2.2°C 91% Calm Calm 3.0 mph4.8 kmh 30.24 in1024.0 mb 0.00 in0.0 mm 0.00 in/hr0.0 mm/hr 0.15 in3.8 mm
11:15 PM 38.3°F3.5°C 36.2°F2.3°C 92% Calm Calm 3.0 mph4.8 kmh 30.24 in1024.0 mb 0.00 in0.0 mm 0.00 in/hr0.0 mm/hr 0.15 in3.8 mm
11:17 PM 38.3°F3.5°C 36.2°F2.3°C 92% Calm Calm 3.0 mph4.8 kmh 30.24 in1024.0 mb 0.00 in0.0 mm 0.00 in/hr0.0 mm/hr 0.15 in3.8 mm
11:18 PM 38.3°F3.5°C 36.2°F2.3°C 92% Calm Calm 3.0 mph4.8 kmh 30.24 in1024.0 mb 0.00 in0.0 mm 0.00 in/hr0.0 mm/hr 0.15 in3.8 mm
11:19 PM 38.2°F3.4°C 36.1°F2.3°C 92% 1.0 mph WSW1.6 kmh WSW 3.0 mph4.8 kmh 30.24 in1024.0 mb 0.00 in0.0 mm 0.00 in/hr0.0 mm/hr 0.15 in3.8 mm
11:20 PM 38.2°F3.4°C 36.1°F2.3°C 92% 1.0 mph WSW1.6 kmh WSW 3.0 mph4.8 kmh 30.24 in1024.0 mb 0.00 in0.0 mm 0.00 in/hr0.0 mm/hr 0.15 in3.8 mm
11:21 PM 38.2°F3.4°C 36.1°F2.3°C 92% Calm Calm 3.0 mph4.8 kmh 30.24 in1024.0 mb 0.00 in0.0 mm 0.00 in/hr0.0 mm/hr 0.15 in3.8 mm
11:22 PM 38.2°F3.4°C 36.1°F2.3°C 92% Calm Calm 3.0 mph4.8 kmh 30.24 in1024.0 mb 0.00 in0.0 mm 0.00 in/hr0.0 mm/hr 0.15 in3.8 mm
11:23 PM 38.2°F3.4°C 36.1°F2.3°C 92% Calm Calm 3.0 mph4.8 kmh 30.24 in1024.0 mb 0.00 in0.0 mm 0.00 in/hr0.0 mm/hr 0.15 in3.8 mm
11:25 PM 38.3°F3.5°C 36.2°F2.3°C 92% 1.0 mph WSW1.6 kmh WSW 3.0 mph4.8 kmh 30.24 in1024.0 mb 0.00 in0.0 mm 0.00 in/hr0.0 mm/hr 0.15 in3.8 mm
11:26 PM 38.2°F3.4°C 36.1°F2.3°C 92% 1.0 mph WSW1.6 kmh WSW 3.0 mph4.8 kmh 30.24 in1024.0 mb 0.00 in0.0 mm 0.00 in/hr0.0 mm/hr 0.15 in3.8 mm
11:27 PM 38.2°F3.4°C 36.1°F2.3°C 92% 2.0 mph WSW3.2 kmh WSW 3.0 mph4.8 kmh 30.24 in1024.0 mb 0.00 in0.0 mm 0.00 in/hr0.0 mm/hr 0.15 in3.8 mm
11:28 PM 38.2°F3.4°C 36.1°F2.3°C 92% 1.0 mph WSW1.6 kmh WSW 3.0 mph4.8 kmh 30.24 in1024.0 mb 0.00 in0.0 mm 0.00 in/hr0.0 mm/hr 0.15 in3.8 mm
11:30 PM 38.2°F3.4°C 36.4°F2.4°C 93% 1.0 mph WSW1.6 kmh WSW 3.0 mph4.8 kmh 30.24 in1024.0 mb 0.00 in0.0 mm 0.00 in/hr0.0 mm/hr 0.15 in3.8 mm
11:31 PM 38.2°F3.4°C 36.4°F2.4°C 93% Calm Calm 1.0 mph1.6 kmh 30.24 in1024.0 mb 0.00 in0.0 mm 0.00 in/hr0.0 mm/hr 0.15 in3.8 mm
11:32 PM 38.2°F3.4°C 36.4°F2.4°C 93% Calm Calm 1.0 mph1.6 kmh 30.24 in1024.0 mb 0.00 in0.0 mm 0.00 in/hr0.0 mm/hr 0.15 in3.8 mm
11:33 PM 38.2°F3.4°C 36.4°F2.4°C 93% Calm Calm 1.0 mph1.6 kmh 30.24 in1024.0 mb 0.00 in0.0 mm 0.00 in/hr0.0 mm/hr 0.15 in3.8 mm
11:34 PM 38.2°F3.4°C 36.4°F2.4°C 93% Calm Calm 1.0 mph1.6 kmh 30.24 in1024.0 mb 0.00 in0.0 mm 0.00 in/hr0.0 mm/hr 0.15 in3.8 mm
11:35 PM 38.2°F3.4°C 36.4°F2.4°C 93% Calm Calm 1.0 mph1.6 kmh 30.24 in1024.0 mb 0.00 in0.0 mm 0.00 in/hr0.0 mm/hr 0.15 in3.8 mm
11:36 PM 38.2°F3.4°C 36.4°F2.4°C 93% Calm Calm 1.0 mph1.6 kmh 30.24 in1024.0 mb 0.00 in0.0 mm 0.00 in/hr0.0 mm/hr 0.15 in3.8 mm
11:37 PM 38.2°F3.4°C 36.4°F2.4°C 93% Calm Calm 1.0 mph1.6 kmh 30.24 in1024.0 mb 0.00 in0.0 mm 0.00 in/hr0.0 mm/hr 0.15 in3.8 mm
11:38 PM 38.2°F3.4°C 36.4°F2.4°C 93% 1.0 mph WSW1.6 kmh WSW 1.0 mph1.6 kmh 30.25 in1024.4 mb 0.00 in0.0 mm 0.00 in/hr0.0 mm/hr 0.15 in3.8 mm
11:40 PM 38.2°F3.4°C 36.4°F2.4°C 93% Calm Calm 2.0 mph3.2 kmh 30.24 in1024.0 mb 0.00 in0.0 mm 0.00 in/hr0.0 mm/hr 0.15 in3.8 mm
11:41 PM 38.2°F3.4°C 36.1°F2.3°C 92% Calm Calm 2.0 mph3.2 kmh 30.24 in1024.0 mb 0.00 in0.0 mm 0.00 in/hr0.0 mm/hr 0.15 in3.8 mm
11:42 PM 38.2°F3.4°C 36.1°F2.3°C 92% Calm Calm 2.0 mph3.2 kmh 30.24 in1024.0 mb 0.00 in0.0 mm 0.00 in/hr0.0 mm/hr 0.15 in3.8 mm
11:43 PM 38.2°F3.4°C 36.1°F2.3°C 92% Calm Calm 2.0 mph3.2 kmh 30.24 in1024.0 mb 0.00 in0.0 mm 0.00 in/hr0.0 mm/hr 0.15 in3.8 mm
11:44 PM 38.3°F3.5°C 36.2°F2.3°C 92% Calm Calm 2.0 mph3.2 kmh 30.24 in1024.0 mb 0.00 in0.0 mm 0.00 in/hr0.0 mm/hr 0.15 in3.8 mm
11:46 PM 38.3°F3.5°C 36.2°F2.3°C 92% Calm Calm 2.0 mph3.2 kmh 30.24 in1024.0 mb 0.00 in0.0 mm 0.00 in/hr0.0 mm/hr 0.15 in3.8 mm
11:47 PM 38.3°F3.5°C 36.2°F2.3°C 92% Calm Calm 2.0 mph3.2 kmh 30.24 in1024.0 mb 0.00 in0.0 mm 0.00 in/hr0.0 mm/hr 0.15 in3.8 mm
11:48 PM 38.3°F3.5°C 36.2°F2.3°C 92% Calm Calm 2.0 mph3.2 kmh 30.24 in1024.0 mb 0.00 in0.0 mm 0.00 in/hr0.0 mm/hr 0.15 in3.8 mm
11:50 PM 38.4°F3.6°C 36.3°F2.4°C 92% 2.0 mph WSW3.2 kmh WSW 2.0 mph3.2 kmh 30.24 in1024.0 mb 0.00 in0.0 mm 0.00 in/hr0.0 mm/hr 0.15 in3.8 mm
11:52 PM 38.4°F3.6°C 36.3°F2.4°C 92% 1.0 mph WSW1.6 kmh WSW 3.0 mph4.8 kmh 30.25 in1024.4 mb 0.00 in0.0 mm 0.00 in/hr0.0 mm/hr 0.15 in3.8 mm
11:53 PM 38.4°F3.6°C 36.3°F2.4°C 92% 2.0 mph WSW3.2 kmh WSW 3.0 mph4.8 kmh 30.25 in1024.4 mb 0.00 in0.0 mm 0.00 in/hr0.0 mm/hr 0.15 in3.8 mm
11:54 PM 38.4°F3.6°C 36.3°F2.4°C 92% Calm Calm 3.0 mph4.8 kmh 30.25 in1024.4 mb 0.00 in0.0 mm 0.00 in/hr0.0 mm/hr 0.15 in3.8 mm
11:56 PM 38.4°F3.6°C 36.3°F2.4°C 92% 1.0 mph WSW1.6 kmh WSW 3.0 mph4.8 kmh 30.25 in1024.4 mb 0.00 in0.0 mm 0.00 in/hr0.0 mm/hr 0.15 in3.8 mm
11:57 PM 38.4°F3.6°C 36.3°F2.4°C 92% 1.0 mph WSW1.6 kmh WSW 3.0 mph4.8 kmh 30.25 in1024.4 mb 0.00 in0.0 mm 0.00 in/hr0.0 mm/hr 0.15 in3.8 mm
11:58 PM 38.4°F3.6°C 36.3°F2.4°C 92% 2.0 mph WSW3.2 kmh WSW 3.0 mph4.8 kmh 30.25 in1024.4 mb 0.00 in0.0 mm 0.00 in/hr0.0 mm/hr 0.15 in3.8 mm